<?xml version="1.0" encoding="UTF-8" standalone="no" ?>
<gpx xmlns="http://www.topografix.com/GPX/1/1" xmlns:xsi="http://www.w3.org/2001/XMLSchema-instance" xsi:schemaLocation="http://www.topografix.com/GPX/1/1 http://www.topografix.com/GPX/1/1/gpx.xsd" version="1.1" creator="VisuGPX - https://www.visugpx.com">
  <metadata>
    <name>Circuit de Chartres en lumière</name>
    <desc><![CDATA[Edition décembre 2024]]></desc>
  </metadata>
  <trk>
    <name><![CDATA[SityTrail - Parcours historique Chartres en Lumières]]></name>
    <desc><![CDATA[Edition décembre 2024]]></desc>
    <trkseg>
      <trkpt lat="48.44498" lon="1.4875">
        <ele>164</ele>
        <time>2024-12-19T17:25:13.985+00:00</time>
      </trkpt>
      <trkpt lat="48.44494" lon="1.48742">
        <ele>164</ele>
        <time>2024-12-19T17:25:27.985+00:00</time>
      </trkpt>
      <trkpt lat="48.44493" lon="1.48741">
        <ele>164</ele>
        <time>2024-12-19T17:25:32.560+00:00</time>
      </trkpt>
      <trkpt lat="48.44492" lon="1.48741">
        <ele>164</ele>
        <time>2024-12-19T17:25:36.622+00:00</time>
      </trkpt>
      <trkpt lat="48.44492" lon="1.48741">
        <ele>164</ele>
        <time>2024-12-19T17:25:40.986+00:00</time>
      </trkpt>
      <trkpt lat="48.4449" lon="1.48741">
        <ele>164</ele>
        <time>2024-12-19T17:25:45.985+00:00</time>
      </trkpt>
      <trkpt lat="48.44489" lon="1.48742">
        <ele>164</ele>
        <time>2024-12-19T17:25:52.527+00:00</time>
      </trkpt>
      <trkpt lat="48.44486" lon="1.48745">
        <ele>166</ele>
        <time>2024-12-19T17:25:56.738+00:00</time>
      </trkpt>
      <trkpt lat="48.44484" lon="1.48748">
        <ele>166</ele>
        <time>2024-12-19T17:26:01.738+00:00</time>
      </trkpt>
      <trkpt lat="48.44483" lon="1.48748">
        <ele>166</ele>
        <time>2024-12-19T17:26:06.985+00:00</time>
      </trkpt>
      <trkpt lat="48.4448" lon="1.48751">
        <ele>166</ele>
        <time>2024-12-19T17:26:11.986+00:00</time>
      </trkpt>
      <trkpt lat="48.44478" lon="1.48754">
        <ele>166</ele>
        <time>2024-12-19T17:26:16.545+00:00</time>
      </trkpt>
      <trkpt lat="48.44474" lon="1.48757">
        <ele>166</ele>
        <time>2024-12-19T17:26:20.946+00:00</time>
      </trkpt>
      <trkpt lat="48.4447" lon="1.48761">
        <ele>166</ele>
        <time>2024-12-19T17:26:25.765+00:00</time>
      </trkpt>
      <trkpt lat="48.44468" lon="1.48766">
        <ele>164</ele>
        <time>2024-12-19T17:26:30.244+00:00</time>
      </trkpt>
      <trkpt lat="48.44467" lon="1.48773">
        <ele>164</ele>
        <time>2024-12-19T17:26:34.383+00:00</time>
      </trkpt>
      <trkpt lat="48.44467" lon="1.48785">
        <ele>164</ele>
        <time>2024-12-19T17:26:38.921+00:00</time>
      </trkpt>
      <trkpt lat="48.44466" lon="1.48792">
        <ele>164</ele>
        <time>2024-12-19T17:26:42.985+00:00</time>
      </trkpt>
      <trkpt lat="48.44464" lon="1.48798">
        <ele>163</ele>
        <time>2024-12-19T17:26:47.582+00:00</time>
      </trkpt>
      <trkpt lat="48.44463" lon="1.48804">
        <ele>163</ele>
        <time>2024-12-19T17:26:51.818+00:00</time>
      </trkpt>
      <trkpt lat="48.44461" lon="1.4881">
        <ele>163</ele>
        <time>2024-12-19T17:26:55.985+00:00</time>
      </trkpt>
      <trkpt lat="48.44459" lon="1.48817">
        <ele>163</ele>
        <time>2024-12-19T17:27:00.601+00:00</time>
      </trkpt>
      <trkpt lat="48.44458" lon="1.48823">
        <ele>161</ele>
        <time>2024-12-19T17:27:04.841+00:00</time>
      </trkpt>
      <trkpt lat="48.44455" lon="1.48827">
        <ele>162</ele>
        <time>2024-12-19T17:27:08.985+00:00</time>
      </trkpt>
      <trkpt lat="48.44455" lon="1.48834">
        <ele>162</ele>
        <time>2024-12-19T17:27:13.382+00:00</time>
      </trkpt>
      <trkpt lat="48.44454" lon="1.4884">
        <ele>162</ele>
        <time>2024-12-19T17:27:17.399+00:00</time>
      </trkpt>
      <trkpt lat="48.44453" lon="1.48845">
        <ele>162</ele>
        <time>2024-12-19T17:27:21.759+00:00</time>
      </trkpt>
      <trkpt lat="48.44452" lon="1.48851">
        <ele>161</ele>
        <time>2024-12-19T17:27:25.863+00:00</time>
      </trkpt>
      <trkpt lat="48.4445" lon="1.48857">
        <ele>161</ele>
        <time>2024-12-19T17:27:29.968+00:00</time>
      </trkpt>
      <trkpt lat="48.44446" lon="1.4886">
        <ele>161</ele>
        <time>2024-12-19T17:27:33.985+00:00</time>
      </trkpt>
      <trkpt lat="48.44441" lon="1.48859">
        <ele>161</ele>
        <time>2024-12-19T17:27:38.865+00:00</time>
      </trkpt>
      <trkpt lat="48.44435" lon="1.48859">
        <ele>161</ele>
        <time>2024-12-19T17:27:42.986+00:00</time>
      </trkpt>
      <trkpt lat="48.44431" lon="1.48859">
        <ele>161</ele>
        <time>2024-12-19T17:27:47.986+00:00</time>
      </trkpt>
      <trkpt lat="48.44427" lon="1.48859">
        <ele>160</ele>
        <time>2024-12-19T17:27:52.809+00:00</time>
      </trkpt>
      <trkpt lat="48.44424" lon="1.48856">
        <ele>160</ele>
        <time>2024-12-19T17:27:56.879+00:00</time>
      </trkpt>
      <trkpt lat="48.44422" lon="1.48849">
        <ele>160</ele>
        <time>2024-12-19T17:28:00.986+00:00</time>
      </trkpt>
      <trkpt lat="48.44421" lon="1.48842">
        <ele>161</ele>
        <time>2024-12-19T17:28:05.924+00:00</time>
      </trkpt>
      <trkpt lat="48.44419" lon="1.48834">
        <ele>161</ele>
        <time>2024-12-19T17:28:10.986+00:00</time>
      </trkpt>
      <trkpt lat="48.44416" lon="1.4883">
        <ele>161</ele>
        <time>2024-12-19T17:28:15.946+00:00</time>
      </trkpt>
      <trkpt lat="48.44411" lon="1.48829">
        <ele>161</ele>
        <time>2024-12-19T17:28:19.985+00:00</time>
      </trkpt>
      <trkpt lat="48.44404" lon="1.4883">
        <ele>161</ele>
        <time>2024-12-19T17:28:24.461+00:00</time>
      </trkpt>
      <trkpt lat="48.44398" lon="1.48832">
        <ele>158</ele>
        <time>2024-12-19T17:28:28.985+00:00</time>
      </trkpt>
      <trkpt lat="48.44395" lon="1.48832">
        <ele>158</ele>
        <time>2024-12-19T17:28:33.843+00:00</time>
      </trkpt>
      <trkpt lat="48.44391" lon="1.48831">
        <ele>158</ele>
        <time>2024-12-19T17:28:37.999+00:00</time>
      </trkpt>
      <trkpt lat="48.44387" lon="1.4883">
        <ele>158</ele>
        <time>2024-12-19T17:28:42.547+00:00</time>
      </trkpt>
      <trkpt lat="48.44383" lon="1.48831">
        <ele>158</ele>
        <time>2024-12-19T17:28:45.360+00:00</time>
      </trkpt>
      <trkpt lat="48.44375" lon="1.48832">
        <ele>158</ele>
        <time>2024-12-19T17:28:53.082+00:00</time>
      </trkpt>
      <trkpt lat="48.44376" lon="1.48832">
        <ele>158</ele>
        <time>2024-12-19T17:28:57.515+00:00</time>
      </trkpt>
      <trkpt lat="48.44376" lon="1.48832">
        <ele>158</ele>
        <time>2024-12-19T17:29:01.986+00:00</time>
      </trkpt>
      <trkpt lat="48.44376" lon="1.48832">
        <ele>158</ele>
        <time>2024-12-19T17:29:05.982+00:00</time>
      </trkpt>
      <trkpt lat="48.44372" lon="1.48835">
        <ele>158</ele>
        <time>2024-12-19T17:29:09.988+00:00</time>
      </trkpt>
      <trkpt lat="48.44367" lon="1.48833">
        <ele>158</ele>
        <time>2024-12-19T17:29:14.483+00:00</time>
      </trkpt>
      <trkpt lat="48.44355" lon="1.48834">
        <ele>158</ele>
        <time>2024-12-19T17:29:32.540+00:00</time>
      </trkpt>
      <trkpt lat="48.44353" lon="1.48834">
        <ele>158</ele>
        <time>2024-12-19T17:29:36.985+00:00</time>
      </trkpt>
      <trkpt lat="48.44353" lon="1.48835">
        <ele>158</ele>
        <time>2024-12-19T17:29:42.985+00:00</time>
      </trkpt>
      <trkpt lat="48.44352" lon="1.48836">
        <ele>158</ele>
        <time>2024-12-19T17:29:48.239+00:00</time>
      </trkpt>
      <trkpt lat="48.44349" lon="1.48834">
        <ele>158</ele>
        <time>2024-12-19T17:29:52.301+00:00</time>
      </trkpt>
      <trkpt lat="48.44348" lon="1.48842">
        <ele>158</ele>
        <time>2024-12-19T17:30:06.302+00:00</time>
      </trkpt>
      <trkpt lat="48.44345" lon="1.48839">
        <ele>159</ele>
        <time>2024-12-19T17:30:10.603+00:00</time>
      </trkpt>
      <trkpt lat="48.4434" lon="1.48834">
        <ele>159</ele>
        <time>2024-12-19T17:30:14.986+00:00</time>
      </trkpt>
      <trkpt lat="48.44337" lon="1.4883">
        <ele>159</ele>
        <time>2024-12-19T17:30:19.791+00:00</time>
      </trkpt>
      <trkpt lat="48.44333" lon="1.48826">
        <ele>159</ele>
        <time>2024-12-19T17:30:24.882+00:00</time>
      </trkpt>
      <trkpt lat="48.44329" lon="1.48831">
        <ele>159</ele>
        <time>2024-12-19T17:30:28.985+00:00</time>
      </trkpt>
      <trkpt lat="48.44329" lon="1.48841">
        <ele>159</ele>
        <time>2024-12-19T17:30:33.064+00:00</time>
      </trkpt>
      <trkpt lat="48.44328" lon="1.48848">
        <ele>159</ele>
        <time>2024-12-19T17:30:37.705+00:00</time>
      </trkpt>
      <trkpt lat="48.44326" lon="1.48857">
        <ele>159</ele>
        <time>2024-12-19T17:30:41.842+00:00</time>
      </trkpt>
      <trkpt lat="48.44327" lon="1.48867">
        <ele>159</ele>
        <time>2024-12-19T17:30:46.841+00:00</time>
      </trkpt>
      <trkpt lat="48.44334" lon="1.48869">
        <ele>159</ele>
        <time>2024-12-19T17:30:50.986+00:00</time>
      </trkpt>
      <trkpt lat="48.44341" lon="1.48868">
        <ele>159</ele>
        <time>2024-12-19T17:30:55.886+00:00</time>
      </trkpt>
      <trkpt lat="48.44347" lon="1.48874">
        <ele>158</ele>
        <time>2024-12-19T17:31:00.986+00:00</time>
      </trkpt>
      <trkpt lat="48.44353" lon="1.48875">
        <ele>158</ele>
        <time>2024-12-19T17:31:05.261+00:00</time>
      </trkpt>
      <trkpt lat="48.44354" lon="1.48885">
        <ele>158</ele>
        <time>2024-12-19T17:31:09.765+00:00</time>
      </trkpt>
      <trkpt lat="48.44353" lon="1.48892">
        <ele>158</ele>
        <time>2024-12-19T17:31:13.537+00:00</time>
      </trkpt>
      <trkpt lat="48.44355" lon="1.48907">
        <ele>158</ele>
        <time>2024-12-19T17:31:22.665+00:00</time>
      </trkpt>
      <trkpt lat="48.44355" lon="1.48908">
        <ele>158</ele>
        <time>2024-12-19T17:33:43.465+00:00</time>
      </trkpt>
      <trkpt lat="48.44356" lon="1.48905">
        <ele>158</ele>
        <time>2024-12-19T17:33:47.984+00:00</time>
      </trkpt>
      <trkpt lat="48.44353" lon="1.48897">
        <ele>158</ele>
        <time>2024-12-19T17:33:52.346+00:00</time>
      </trkpt>
      <trkpt lat="48.44353" lon="1.48891">
        <ele>158</ele>
        <time>2024-12-19T17:33:56.824+00:00</time>
      </trkpt>
      <trkpt lat="48.44353" lon="1.48884">
        <ele>158</ele>
        <time>2024-12-19T17:34:00.984+00:00</time>
      </trkpt>
      <trkpt lat="48.44353" lon="1.48879">
        <ele>158</ele>
        <time>2024-12-19T17:34:05.484+00:00</time>
      </trkpt>
      <trkpt lat="48.44353" lon="1.48869">
        <ele>158</ele>
        <time>2024-12-19T17:34:09.980+00:00</time>
      </trkpt>
      <trkpt lat="48.44353" lon="1.48862">
        <ele>158</ele>
        <time>2024-12-19T17:34:14.339+00:00</time>
      </trkpt>
      <trkpt lat="48.44353" lon="1.48853">
        <ele>158</ele>
        <time>2024-12-19T17:34:18.795+00:00</time>
      </trkpt>
      <trkpt lat="48.44355" lon="1.48843">
        <ele>158</ele>
        <time>2024-12-19T17:34:22.946+00:00</time>
      </trkpt>
      <trkpt lat="48.44353" lon="1.48836">
        <ele>158</ele>
        <time>2024-12-19T17:34:27.485+00:00</time>
      </trkpt>
      <trkpt lat="48.44347" lon="1.48834">
        <ele>159</ele>
        <time>2024-12-19T17:34:31.742+00:00</time>
      </trkpt>
      <trkpt lat="48.44341" lon="1.48833">
        <ele>159</ele>
        <time>2024-12-19T17:34:35.984+00:00</time>
      </trkpt>
      <trkpt lat="48.44337" lon="1.48829">
        <ele>159</ele>
        <time>2024-12-19T17:34:40.323+00:00</time>
      </trkpt>
      <trkpt lat="48.44333" lon="1.48825">
        <ele>159</ele>
        <time>2024-12-19T17:34:44.984+00:00</time>
      </trkpt>
      <trkpt lat="48.44333" lon="1.48821">
        <ele>159</ele>
        <time>2024-12-19T17:34:49.400+00:00</time>
      </trkpt>
      <trkpt lat="48.44335" lon="1.48815">
        <ele>158</ele>
        <time>2024-12-19T17:34:53.984+00:00</time>
      </trkpt>
      <trkpt lat="48.44334" lon="1.48809">
        <ele>158</ele>
        <time>2024-12-19T17:35:24.813+00:00</time>
      </trkpt>
      <trkpt lat="48.44336" lon="1.48804">
        <ele>158</ele>
        <time>2024-12-19T17:35:28.984+00:00</time>
      </trkpt>
      <trkpt lat="48.44337" lon="1.48798">
        <ele>158</ele>
        <time>2024-12-19T17:35:33.274+00:00</time>
      </trkpt>
      <trkpt lat="48.44339" lon="1.48793">
        <ele>158</ele>
        <time>2024-12-19T17:35:37.515+00:00</time>
      </trkpt>
      <trkpt lat="48.4434" lon="1.48787">
        <ele>158</ele>
        <time>2024-12-19T17:35:41.773+00:00</time>
      </trkpt>
      <trkpt lat="48.44343" lon="1.48783">
        <ele>158</ele>
        <time>2024-12-19T17:35:45.781+00:00</time>
      </trkpt>
      <trkpt lat="48.44343" lon="1.48771">
        <ele>158</ele>
        <time>2024-12-19T17:35:50.475+00:00</time>
      </trkpt>
      <trkpt lat="48.44342" lon="1.48764">
        <ele>158</ele>
        <time>2024-12-19T17:35:54.984+00:00</time>
      </trkpt>
      <trkpt lat="48.44342" lon="1.48763">
        <ele>159</ele>
        <time>2024-12-19T17:35:59.985+00:00</time>
      </trkpt>
      <trkpt lat="48.44342" lon="1.48763">
        <ele>159</ele>
        <time>2024-12-19T17:36:04.797+00:00</time>
      </trkpt>
      <trkpt lat="48.44337" lon="1.48756">
        <ele>159</ele>
        <time>2024-12-19T17:36:08.852+00:00</time>
      </trkpt>
      <trkpt lat="48.44332" lon="1.48759">
        <ele>159</ele>
        <time>2024-12-19T17:36:13.613+00:00</time>
      </trkpt>
      <trkpt lat="48.44328" lon="1.48756">
        <ele>159</ele>
        <time>2024-12-19T17:36:17.804+00:00</time>
      </trkpt>
      <trkpt lat="48.44325" lon="1.48754">
        <ele>159</ele>
        <time>2024-12-19T17:36:21.853+00:00</time>
      </trkpt>
      <trkpt lat="48.44321" lon="1.48751">
        <ele>159</ele>
        <time>2024-12-19T17:36:25.930+00:00</time>
      </trkpt>
      <trkpt lat="48.44316" lon="1.48748">
        <ele>158</ele>
        <time>2024-12-19T17:36:29.984+00:00</time>
      </trkpt>
      <trkpt lat="48.44311" lon="1.48747">
        <ele>158</ele>
        <time>2024-12-19T17:36:34.573+00:00</time>
      </trkpt>
      <trkpt lat="48.44304" lon="1.48745">
        <ele>158</ele>
        <time>2024-12-19T17:36:38.947+00:00</time>
      </trkpt>
      <trkpt lat="48.44298" lon="1.48743">
        <ele>158</ele>
        <time>2024-12-19T17:36:43.468+00:00</time>
      </trkpt>
      <trkpt lat="48.44294" lon="1.48741">
        <ele>158</ele>
        <time>2024-12-19T17:36:47.674+00:00</time>
      </trkpt>
      <trkpt lat="48.4429" lon="1.48738">
        <ele>159</ele>
        <time>2024-12-19T17:36:51.985+00:00</time>
      </trkpt>
      <trkpt lat="48.44285" lon="1.48737">
        <ele>159</ele>
        <time>2024-12-19T17:36:56.111+00:00</time>
      </trkpt>
      <trkpt lat="48.4428" lon="1.48736">
        <ele>159</ele>
        <time>2024-12-19T17:37:00.188+00:00</time>
      </trkpt>
      <trkpt lat="48.44275" lon="1.48735">
        <ele>159</ele>
        <time>2024-12-19T17:37:04.293+00:00</time>
      </trkpt>
      <trkpt lat="48.44271" lon="1.48733">
        <ele>159</ele>
        <time>2024-12-19T17:37:08.352+00:00</time>
      </trkpt>
      <trkpt lat="48.44265" lon="1.4873">
        <ele>159</ele>
        <time>2024-12-19T17:37:12.454+00:00</time>
      </trkpt>
      <trkpt lat="48.44261" lon="1.48728">
        <ele>160</ele>
        <time>2024-12-19T17:37:16.950+00:00</time>
      </trkpt>
      <trkpt lat="48.44259" lon="1.48722">
        <ele>160</ele>
        <time>2024-12-19T17:37:21.514+00:00</time>
      </trkpt>
      <trkpt lat="48.44259" lon="1.48717">
        <ele>160</ele>
        <time>2024-12-19T17:37:25.933+00:00</time>
      </trkpt>
      <trkpt lat="48.4426" lon="1.48711">
        <ele>160</ele>
        <time>2024-12-19T17:37:30.393+00:00</time>
      </trkpt>
      <trkpt lat="48.44261" lon="1.48705">
        <ele>159</ele>
        <time>2024-12-19T17:37:34.650+00:00</time>
      </trkpt>
      <trkpt lat="48.44262" lon="1.48699">
        <ele>159</ele>
        <time>2024-12-19T17:37:38.984+00:00</time>
      </trkpt>
      <trkpt lat="48.44264" lon="1.48694">
        <ele>159</ele>
        <time>2024-12-19T17:37:43.410+00:00</time>
      </trkpt>
      <trkpt lat="48.44265" lon="1.48688">
        <ele>159</ele>
        <time>2024-12-19T17:37:47.677+00:00</time>
      </trkpt>
      <trkpt lat="48.44266" lon="1.48683">
        <ele>159</ele>
        <time>2024-12-19T17:37:51.985+00:00</time>
      </trkpt>
      <trkpt lat="48.44267" lon="1.48677">
        <ele>159</ele>
        <time>2024-12-19T17:37:55.984+00:00</time>
      </trkpt>
      <trkpt lat="48.44267" lon="1.4867">
        <ele>159</ele>
        <time>2024-12-19T17:38:00.984+00:00</time>
      </trkpt>
      <trkpt lat="48.44267" lon="1.48668">
        <ele>159</ele>
        <time>2024-12-19T17:38:26.559+00:00</time>
      </trkpt>
      <trkpt lat="48.44268" lon="1.48661">
        <ele>159</ele>
        <time>2024-12-19T17:38:30.693+00:00</time>
      </trkpt>
      <trkpt lat="48.44267" lon="1.48655">
        <ele>159</ele>
        <time>2024-12-19T17:38:35.173+00:00</time>
      </trkpt>
      <trkpt lat="48.44256" lon="1.4865">
        <ele>159</ele>
        <time>2024-12-19T17:38:39.984+00:00</time>
      </trkpt>
      <trkpt lat="48.44257" lon="1.48644">
        <ele>159</ele>
        <time>2024-12-19T17:38:44.333+00:00</time>
      </trkpt>
      <trkpt lat="48.44257" lon="1.48634">
        <ele>159</ele>
        <time>2024-12-19T17:38:57.984+00:00</time>
      </trkpt>
      <trkpt lat="48.44256" lon="1.48632">
        <ele>159</ele>
        <time>2024-12-19T17:39:02.573+00:00</time>
      </trkpt>
      <trkpt lat="48.4426" lon="1.48628">
        <ele>159</ele>
        <time>2024-12-19T17:39:06.649+00:00</time>
      </trkpt>
      <trkpt lat="48.44261" lon="1.48623">
        <ele>160</ele>
        <time>2024-12-19T17:39:10.889+00:00</time>
      </trkpt>
      <trkpt lat="48.44262" lon="1.48615">
        <ele>160</ele>
        <time>2024-12-19T17:39:15.555+00:00</time>
      </trkpt>
      <trkpt lat="48.44263" lon="1.48607">
        <ele>160</ele>
        <time>2024-12-19T17:39:19.935+00:00</time>
      </trkpt>
      <trkpt lat="48.44264" lon="1.48602">
        <ele>161</ele>
        <time>2024-12-19T17:39:24.453+00:00</time>
      </trkpt>
      <trkpt lat="48.44268" lon="1.48597">
        <ele>162</ele>
        <time>2024-12-19T17:39:28.614+00:00</time>
      </trkpt>
      <trkpt lat="48.44272" lon="1.48591">
        <ele>162</ele>
        <time>2024-12-19T17:39:32.854+00:00</time>
      </trkpt>
      <trkpt lat="48.44276" lon="1.48575">
        <ele>162</ele>
        <time>2024-12-19T17:41:12.984+00:00</time>
      </trkpt>
      <trkpt lat="48.44276" lon="1.48575">
        <ele>162</ele>
        <time>2024-12-19T17:41:18.985+00:00</time>
      </trkpt>
      <trkpt lat="48.44276" lon="1.48574">
        <ele>162</ele>
        <time>2024-12-19T17:41:23.652+00:00</time>
      </trkpt>
      <trkpt lat="48.44276" lon="1.48574">
        <ele>162</ele>
        <time>2024-12-19T17:41:27.984+00:00</time>
      </trkpt>
      <trkpt lat="48.44276" lon="1.48572">
        <ele>162</ele>
        <time>2024-12-19T17:41:37.985+00:00</time>
      </trkpt>
      <trkpt lat="48.44277" lon="1.48573">
        <ele>162</ele>
        <time>2024-12-19T17:42:19.399+00:00</time>
      </trkpt>
      <trkpt lat="48.4428" lon="1.48573">
        <ele>162</ele>
        <time>2024-12-19T17:42:23.754+00:00</time>
      </trkpt>
      <trkpt lat="48.44283" lon="1.48566">
        <ele>161</ele>
        <time>2024-12-19T17:42:28.158+00:00</time>
      </trkpt>
      <trkpt lat="48.44282" lon="1.48557">
        <ele>161</ele>
        <time>2024-12-19T17:42:32.689+00:00</time>
      </trkpt>
      <trkpt lat="48.4428" lon="1.48551">
        <ele>161</ele>
        <time>2024-12-19T17:42:36.954+00:00</time>
      </trkpt>
      <trkpt lat="48.44273" lon="1.48559">
        <ele>161</ele>
        <time>2024-12-19T17:43:40.189+00:00</time>
      </trkpt>
      <trkpt lat="48.44266" lon="1.48555">
        <ele>161</ele>
        <time>2024-12-19T17:43:44.574+00:00</time>
      </trkpt>
      <trkpt lat="48.44262" lon="1.48544">
        <ele>161</ele>
        <time>2024-12-19T17:43:48.713+00:00</time>
      </trkpt>
      <trkpt lat="48.44254" lon="1.48537">
        <ele>160</ele>
        <time>2024-12-19T17:43:52.993+00:00</time>
      </trkpt>
      <trkpt lat="48.44248" lon="1.48534">
        <ele>160</ele>
        <time>2024-12-19T17:43:57.120+00:00</time>
      </trkpt>
      <trkpt lat="48.44247" lon="1.48535">
        <ele>160</ele>
        <time>2024-12-19T17:44:01.984+00:00</time>
      </trkpt>
      <trkpt lat="48.44246" lon="1.4853">
        <ele>160</ele>
        <time>2024-12-19T17:44:06.431+00:00</time>
      </trkpt>
      <trkpt lat="48.44241" lon="1.48529">
        <ele>160</ele>
        <time>2024-12-19T17:44:10.985+00:00</time>
      </trkpt>
      <trkpt lat="48.44235" lon="1.48527">
        <ele>159</ele>
        <time>2024-12-19T17:44:15.292+00:00</time>
      </trkpt>
      <trkpt lat="48.4423" lon="1.48525">
        <ele>159</ele>
        <time>2024-12-19T17:44:19.607+00:00</time>
      </trkpt>
      <trkpt lat="48.44226" lon="1.48524">
        <ele>159</ele>
        <time>2024-12-19T17:44:23.985+00:00</time>
      </trkpt>
      <trkpt lat="48.44219" lon="1.48522">
        <ele>159</ele>
        <time>2024-12-19T17:44:28.984+00:00</time>
      </trkpt>
      <trkpt lat="48.44215" lon="1.48519">
        <ele>159</ele>
        <time>2024-12-19T17:44:33.550+00:00</time>
      </trkpt>
      <trkpt lat="48.4421" lon="1.48516">
        <ele>159</ele>
        <time>2024-12-19T17:44:37.984+00:00</time>
      </trkpt>
      <trkpt lat="48.44203" lon="1.48515">
        <ele>158</ele>
        <time>2024-12-19T17:44:42.549+00:00</time>
      </trkpt>
      <trkpt lat="48.44201" lon="1.48514">
        <ele>159</ele>
        <time>2024-12-19T17:44:46.652+00:00</time>
      </trkpt>
      <trkpt lat="48.44195" lon="1.4851">
        <ele>159</ele>
        <time>2024-12-19T17:44:51.728+00:00</time>
      </trkpt>
      <trkpt lat="48.44191" lon="1.4851">
        <ele>159</ele>
        <time>2024-12-19T17:44:55.984+00:00</time>
      </trkpt>
      <trkpt lat="48.44188" lon="1.48515">
        <ele>158</ele>
        <time>2024-12-19T17:45:00.044+00:00</time>
      </trkpt>
      <trkpt lat="48.44184" lon="1.48519">
        <ele>158</ele>
        <time>2024-12-19T17:45:04.812+00:00</time>
      </trkpt>
      <trkpt lat="48.44183" lon="1.48525">
        <ele>158</ele>
        <time>2024-12-19T17:45:08.985+00:00</time>
      </trkpt>
      <trkpt lat="48.44181" lon="1.48532">
        <ele>158</ele>
        <time>2024-12-19T17:45:13.273+00:00</time>
      </trkpt>
      <trkpt lat="48.44179" lon="1.4854">
        <ele>158</ele>
        <time>2024-12-19T17:45:17.752+00:00</time>
      </trkpt>
      <trkpt lat="48.44178" lon="1.48545">
        <ele>157</ele>
        <time>2024-12-19T17:45:21.853+00:00</time>
      </trkpt>
      <trkpt lat="48.44176" lon="1.48552">
        <ele>157</ele>
        <time>2024-12-19T17:45:25.984+00:00</time>
      </trkpt>
      <trkpt lat="48.44175" lon="1.48559">
        <ele>157</ele>
        <time>2024-12-19T17:45:30.453+00:00</time>
      </trkpt>
      <trkpt lat="48.44173" lon="1.48566">
        <ele>157</ele>
        <time>2024-12-19T17:45:34.633+00:00</time>
      </trkpt>
      <trkpt lat="48.44172" lon="1.48571">
        <ele>157</ele>
        <time>2024-12-19T17:45:38.675+00:00</time>
      </trkpt>
      <trkpt lat="48.44171" lon="1.48577">
        <ele>157</ele>
        <time>2024-12-19T17:45:42.984+00:00</time>
      </trkpt>
      <trkpt lat="48.44169" lon="1.48583">
        <ele>157</ele>
        <time>2024-12-19T17:45:47.408+00:00</time>
      </trkpt>
      <trkpt lat="48.44167" lon="1.48591">
        <ele>157</ele>
        <time>2024-12-19T17:45:51.973+00:00</time>
      </trkpt>
      <trkpt lat="48.44165" lon="1.48599">
        <ele>157</ele>
        <time>2024-12-19T17:45:56.713+00:00</time>
      </trkpt>
      <trkpt lat="48.44166" lon="1.48606">
        <ele>157</ele>
        <time>2024-12-19T17:46:00.984+00:00</time>
      </trkpt>
      <trkpt lat="48.44169" lon="1.48613">
        <ele>157</ele>
        <time>2024-12-19T17:46:05.475+00:00</time>
      </trkpt>
      <trkpt lat="48.44174" lon="1.48616">
        <ele>157</ele>
        <time>2024-12-19T17:46:09.675+00:00</time>
      </trkpt>
      <trkpt lat="48.44179" lon="1.48617">
        <ele>157</ele>
        <time>2024-12-19T17:46:13.984+00:00</time>
      </trkpt>
      <trkpt lat="48.44184" lon="1.48618">
        <ele>158</ele>
        <time>2024-12-19T17:46:18.173+00:00</time>
      </trkpt>
      <trkpt lat="48.44189" lon="1.48619">
        <ele>158</ele>
        <time>2024-12-19T17:46:22.387+00:00</time>
      </trkpt>
      <trkpt lat="48.44194" lon="1.48621">
        <ele>158</ele>
        <time>2024-12-19T17:46:26.610+00:00</time>
      </trkpt>
      <trkpt lat="48.44199" lon="1.48622">
        <ele>158</ele>
        <time>2024-12-19T17:46:30.754+00:00</time>
      </trkpt>
      <trkpt lat="48.44204" lon="1.48623">
        <ele>158</ele>
        <time>2024-12-19T17:46:34.810+00:00</time>
      </trkpt>
      <trkpt lat="48.44209" lon="1.48625">
        <ele>159</ele>
        <time>2024-12-19T17:46:39.429+00:00</time>
      </trkpt>
      <trkpt lat="48.44214" lon="1.48627">
        <ele>159</ele>
        <time>2024-12-19T17:46:43.984+00:00</time>
      </trkpt>
      <trkpt lat="48.44219" lon="1.4863">
        <ele>159</ele>
        <time>2024-12-19T17:46:47.984+00:00</time>
      </trkpt>
      <trkpt lat="48.44224" lon="1.48631">
        <ele>159</ele>
        <time>2024-12-19T17:46:52.633+00:00</time>
      </trkpt>
      <trkpt lat="48.44229" lon="1.48632">
        <ele>159</ele>
        <time>2024-12-19T17:46:56.829+00:00</time>
      </trkpt>
      <trkpt lat="48.44233" lon="1.48634">
        <ele>159</ele>
        <time>2024-12-19T17:47:00.984+00:00</time>
      </trkpt>
      <trkpt lat="48.44239" lon="1.48635">
        <ele>159</ele>
        <time>2024-12-19T17:47:04.984+00:00</time>
      </trkpt>
      <trkpt lat="48.44242" lon="1.48634">
        <ele>159</ele>
        <time>2024-12-19T17:47:11.984+00:00</time>
      </trkpt>
      <trkpt lat="48.4424" lon="1.48635">
        <ele>159</ele>
        <time>2024-12-19T17:47:39.473+00:00</time>
      </trkpt>
      <trkpt lat="48.44245" lon="1.48636">
        <ele>159</ele>
        <time>2024-12-19T17:47:43.533+00:00</time>
      </trkpt>
      <trkpt lat="48.44249" lon="1.48635">
        <ele>159</ele>
        <time>2024-12-19T17:47:47.984+00:00</time>
      </trkpt>
      <trkpt lat="48.4425" lon="1.48641">
        <ele>159</ele>
        <time>2024-12-19T17:47:52.372+00:00</time>
      </trkpt>
      <trkpt lat="48.44248" lon="1.48647">
        <ele>159</ele>
        <time>2024-12-19T17:47:56.934+00:00</time>
      </trkpt>
      <trkpt lat="48.4425" lon="1.48655">
        <ele>159</ele>
        <time>2024-12-19T17:48:01.416+00:00</time>
      </trkpt>
      <trkpt lat="48.44249" lon="1.48663">
        <ele>159</ele>
        <time>2024-12-19T17:48:05.754+00:00</time>
      </trkpt>
      <trkpt lat="48.44248" lon="1.48672">
        <ele>159</ele>
        <time>2024-12-19T17:48:09.984+00:00</time>
      </trkpt>
      <trkpt lat="48.44247" lon="1.48681">
        <ele>159</ele>
        <time>2024-12-19T17:48:14.709+00:00</time>
      </trkpt>
      <trkpt lat="48.44247" lon="1.48687">
        <ele>159</ele>
        <time>2024-12-19T17:48:18.815+00:00</time>
      </trkpt>
      <trkpt lat="48.44245" lon="1.48694">
        <ele>159</ele>
        <time>2024-12-19T17:48:22.984+00:00</time>
      </trkpt>
      <trkpt lat="48.44244" lon="1.487">
        <ele>159</ele>
        <time>2024-12-19T17:48:27.128+00:00</time>
      </trkpt>
      <trkpt lat="48.44243" lon="1.48707">
        <ele>159</ele>
        <time>2024-12-19T17:48:31.453+00:00</time>
      </trkpt>
      <trkpt lat="48.44242" lon="1.48714">
        <ele>160</ele>
        <time>2024-12-19T17:48:35.590+00:00</time>
      </trkpt>
      <trkpt lat="48.4424" lon="1.48721">
        <ele>160</ele>
        <time>2024-12-19T17:48:40.008+00:00</time>
      </trkpt>
      <trkpt lat="48.44237" lon="1.48725">
        <ele>160</ele>
        <time>2024-12-19T17:48:44.494+00:00</time>
      </trkpt>
      <trkpt lat="48.44232" lon="1.48721">
        <ele>159</ele>
        <time>2024-12-19T17:48:48.974+00:00</time>
      </trkpt>
      <trkpt lat="48.44232" lon="1.48711">
        <ele>159</ele>
        <time>2024-12-19T17:49:04.352+00:00</time>
      </trkpt>
      <trkpt lat="48.44233" lon="1.48711">
        <ele>159</ele>
        <time>2024-12-19T17:49:08.973+00:00</time>
      </trkpt>
      <trkpt lat="48.44233" lon="1.48712">
        <ele>159</ele>
        <time>2024-12-19T17:49:13.632+00:00</time>
      </trkpt>
      <trkpt lat="48.44234" lon="1.48721">
        <ele>159</ele>
        <time>2024-12-19T17:49:17.972+00:00</time>
      </trkpt>
      <trkpt lat="48.44236" lon="1.48725">
        <ele>160</ele>
        <time>2024-12-19T17:49:21.985+00:00</time>
      </trkpt>
      <trkpt lat="48.44236" lon="1.48725">
        <ele>160</ele>
        <time>2024-12-19T17:49:27.985+00:00</time>
      </trkpt>
      <trkpt lat="48.44237" lon="1.48727">
        <ele>160</ele>
        <time>2024-12-19T17:49:32.814+00:00</time>
      </trkpt>
      <trkpt lat="48.44236" lon="1.48733">
        <ele>160</ele>
        <time>2024-12-19T17:49:37.233+00:00</time>
      </trkpt>
      <trkpt lat="48.44236" lon="1.48741">
        <ele>159</ele>
        <time>2024-12-19T17:49:41.727+00:00</time>
      </trkpt>
      <trkpt lat="48.44235" lon="1.48748">
        <ele>159</ele>
        <time>2024-12-19T17:49:45.797+00:00</time>
      </trkpt>
      <trkpt lat="48.44234" lon="1.48756">
        <ele>159</ele>
        <time>2024-12-19T17:49:49.984+00:00</time>
      </trkpt>
      <trkpt lat="48.44234" lon="1.48764">
        <ele>158</ele>
        <time>2024-12-19T17:49:54.489+00:00</time>
      </trkpt>
      <trkpt lat="48.44233" lon="1.48772">
        <ele>158</ele>
        <time>2024-12-19T17:49:58.985+00:00</time>
      </trkpt>
      <trkpt lat="48.44232" lon="1.48779">
        <ele>158</ele>
        <time>2024-12-19T17:50:03.383+00:00</time>
      </trkpt>
      <trkpt lat="48.44231" lon="1.48786">
        <ele>158</ele>
        <time>2024-12-19T17:50:07.984+00:00</time>
      </trkpt>
      <trkpt lat="48.44229" lon="1.48792">
        <ele>156</ele>
        <time>2024-12-19T17:50:12.637+00:00</time>
      </trkpt>
      <trkpt lat="48.44228" lon="1.48797">
        <ele>156</ele>
        <time>2024-12-19T17:50:16.716+00:00</time>
      </trkpt>
      <trkpt lat="48.44228" lon="1.48808">
        <ele>156</ele>
        <time>2024-12-19T17:50:20.984+00:00</time>
      </trkpt>
      <trkpt lat="48.44226" lon="1.48813">
        <ele>156</ele>
        <time>2024-12-19T17:50:25.799+00:00</time>
      </trkpt>
      <trkpt lat="48.44228" lon="1.48821">
        <ele>156</ele>
        <time>2024-12-19T17:50:29.853+00:00</time>
      </trkpt>
      <trkpt lat="48.44225" lon="1.48831">
        <ele>156</ele>
        <time>2024-12-19T17:50:33.998+00:00</time>
      </trkpt>
      <trkpt lat="48.44224" lon="1.48839">
        <ele>156</ele>
        <time>2024-12-19T17:50:38.679+00:00</time>
      </trkpt>
      <trkpt lat="48.44223" lon="1.48846">
        <ele>156</ele>
        <time>2024-12-19T17:50:42.777+00:00</time>
      </trkpt>
      <trkpt lat="48.44222" lon="1.48851">
        <ele>155</ele>
        <time>2024-12-19T17:50:46.833+00:00</time>
      </trkpt>
      <trkpt lat="48.44221" lon="1.48858">
        <ele>155</ele>
        <time>2024-12-19T17:50:50.919+00:00</time>
      </trkpt>
      <trkpt lat="48.44219" lon="1.48865">
        <ele>155</ele>
        <time>2024-12-19T17:50:54.984+00:00</time>
      </trkpt>
      <trkpt lat="48.44219" lon="1.48873">
        <ele>155</ele>
        <time>2024-12-19T17:50:59.695+00:00</time>
      </trkpt>
      <trkpt lat="48.44218" lon="1.48879">
        <ele>155</ele>
        <time>2024-12-19T17:51:03.814+00:00</time>
      </trkpt>
      <trkpt lat="48.44216" lon="1.48887">
        <ele>155</ele>
        <time>2024-12-19T17:51:07.984+00:00</time>
      </trkpt>
      <trkpt lat="48.44214" lon="1.48893">
        <ele>155</ele>
        <time>2024-12-19T17:51:12.676+00:00</time>
      </trkpt>
      <trkpt lat="48.44214" lon="1.48899">
        <ele>155</ele>
        <time>2024-12-19T17:51:16.958+00:00</time>
      </trkpt>
      <trkpt lat="48.44213" lon="1.48907">
        <ele>155</ele>
        <time>2024-12-19T17:51:21.878+00:00</time>
      </trkpt>
      <trkpt lat="48.44212" lon="1.48913">
        <ele>155</ele>
        <time>2024-12-19T17:51:25.984+00:00</time>
      </trkpt>
      <trkpt lat="48.44211" lon="1.48919">
        <ele>155</ele>
        <time>2024-12-19T17:51:30.577+00:00</time>
      </trkpt>
      <trkpt lat="48.4421" lon="1.48926">
        <ele>155</ele>
        <time>2024-12-19T17:51:34.984+00:00</time>
      </trkpt>
      <trkpt lat="48.44211" lon="1.4893">
        <ele>155</ele>
        <time>2024-12-19T17:51:39.217+00:00</time>
      </trkpt>
      <trkpt lat="48.44209" lon="1.48938">
        <ele>155</ele>
        <time>2024-12-19T17:51:43.634+00:00</time>
      </trkpt>
      <trkpt lat="48.44207" lon="1.48946">
        <ele>153</ele>
        <time>2024-12-19T17:51:47.985+00:00</time>
      </trkpt>
      <trkpt lat="48.44207" lon="1.48952">
        <ele>153</ele>
        <time>2024-12-19T17:51:52.717+00:00</time>
      </trkpt>
      <trkpt lat="48.44211" lon="1.48953">
        <ele>155</ele>
        <time>2024-12-19T17:51:56.984+00:00</time>
      </trkpt>
      <trkpt lat="48.44216" lon="1.48954">
        <ele>155</ele>
        <time>2024-12-19T17:52:01.579+00:00</time>
      </trkpt>
      <trkpt lat="48.44207" lon="1.48975">
        <ele>153</ele>
        <time>2024-12-19T17:53:55.985+00:00</time>
      </trkpt>
      <trkpt lat="48.44206" lon="1.48976">
        <ele>153</ele>
        <time>2024-12-19T17:54:00.984+00:00</time>
      </trkpt>
      <trkpt lat="48.44206" lon="1.48979">
        <ele>153</ele>
        <time>2024-12-19T17:54:05.656+00:00</time>
      </trkpt>
      <trkpt lat="48.44206" lon="1.48985">
        <ele>153</ele>
        <time>2024-12-19T17:54:09.919+00:00</time>
      </trkpt>
      <trkpt lat="48.44204" lon="1.48993">
        <ele>153</ele>
        <time>2024-12-19T17:54:14.354+00:00</time>
      </trkpt>
      <trkpt lat="48.44204" lon="1.49002">
        <ele>153</ele>
        <time>2024-12-19T17:54:18.534+00:00</time>
      </trkpt>
      <trkpt lat="48.44203" lon="1.49007">
        <ele>153</ele>
        <time>2024-12-19T17:54:22.620+00:00</time>
      </trkpt>
      <trkpt lat="48.44205" lon="1.49015">
        <ele>153</ele>
        <time>2024-12-19T17:54:26.901+00:00</time>
      </trkpt>
      <trkpt lat="48.44205" lon="1.49021">
        <ele>153</ele>
        <time>2024-12-19T17:54:30.984+00:00</time>
      </trkpt>
      <trkpt lat="48.44206" lon="1.49028">
        <ele>153</ele>
        <time>2024-12-19T17:54:35.155+00:00</time>
      </trkpt>
      <trkpt lat="48.44207" lon="1.49034">
        <ele>153</ele>
        <time>2024-12-19T17:54:39.718+00:00</time>
      </trkpt>
      <trkpt lat="48.44207" lon="1.4904">
        <ele>153</ele>
        <time>2024-12-19T17:54:44.257+00:00</time>
      </trkpt>
      <trkpt lat="48.44207" lon="1.49044">
        <ele>154</ele>
        <time>2024-12-19T17:54:48.610+00:00</time>
      </trkpt>
      <trkpt lat="48.44212" lon="1.49047">
        <ele>153</ele>
        <time>2024-12-19T17:54:52.934+00:00</time>
      </trkpt>
      <trkpt lat="48.44218" lon="1.49043">
        <ele>153</ele>
        <time>2024-12-19T17:54:57.215+00:00</time>
      </trkpt>
      <trkpt lat="48.44223" lon="1.49041">
        <ele>154</ele>
        <time>2024-12-19T17:55:01.334+00:00</time>
      </trkpt>
      <trkpt lat="48.44228" lon="1.49038">
        <ele>154</ele>
        <time>2024-12-19T17:55:05.898+00:00</time>
      </trkpt>
      <trkpt lat="48.44232" lon="1.49036">
        <ele>154</ele>
        <time>2024-12-19T17:55:10.469+00:00</time>
      </trkpt>
      <trkpt lat="48.44238" lon="1.49033">
        <ele>156</ele>
        <time>2024-12-19T17:55:14.939+00:00</time>
      </trkpt>
      <trkpt lat="48.44244" lon="1.4903">
        <ele>156</ele>
        <time>2024-12-19T17:55:19.355+00:00</time>
      </trkpt>
      <trkpt lat="48.44249" lon="1.49028">
        <ele>156</ele>
        <time>2024-12-19T17:55:23.381+00:00</time>
      </trkpt>
      <trkpt lat="48.44253" lon="1.49024">
        <ele>156</ele>
        <time>2024-12-19T17:55:27.874+00:00</time>
      </trkpt>
      <trkpt lat="48.44257" lon="1.49022">
        <ele>156</ele>
        <time>2024-12-19T17:55:32.301+00:00</time>
      </trkpt>
      <trkpt lat="48.4426" lon="1.4902">
        <ele>156</ele>
        <time>2024-12-19T17:55:36.692+00:00</time>
      </trkpt>
      <trkpt lat="48.44264" lon="1.49019">
        <ele>157</ele>
        <time>2024-12-19T17:55:40.984+00:00</time>
      </trkpt>
      <trkpt lat="48.4427" lon="1.49016">
        <ele>157</ele>
        <time>2024-12-19T17:55:45.733+00:00</time>
      </trkpt>
      <trkpt lat="48.44276" lon="1.49013">
        <ele>157</ele>
        <time>2024-12-19T17:55:50.177+00:00</time>
      </trkpt>
      <trkpt lat="48.44281" lon="1.49009">
        <ele>157</ele>
        <time>2024-12-19T17:55:54.533+00:00</time>
      </trkpt>
      <trkpt lat="48.44285" lon="1.49005">
        <ele>157</ele>
        <time>2024-12-19T17:55:58.558+00:00</time>
      </trkpt>
      <trkpt lat="48.44289" lon="1.49">
        <ele>157</ele>
        <time>2024-12-19T17:56:02.809+00:00</time>
      </trkpt>
      <trkpt lat="48.44291" lon="1.48999">
        <ele>157</ele>
        <time>2024-12-19T17:56:06.984+00:00</time>
      </trkpt>
      <trkpt lat="48.44295" lon="1.48996">
        <ele>158</ele>
        <time>2024-12-19T17:56:11.420+00:00</time>
      </trkpt>
      <trkpt lat="48.44298" lon="1.48991">
        <ele>158</ele>
        <time>2024-12-19T17:56:15.984+00:00</time>
      </trkpt>
      <trkpt lat="48.44304" lon="1.4899">
        <ele>158</ele>
        <time>2024-12-19T17:56:20.984+00:00</time>
      </trkpt>
      <trkpt lat="48.4431" lon="1.48989">
        <ele>158</ele>
        <time>2024-12-19T17:56:25.393+00:00</time>
      </trkpt>
      <trkpt lat="48.44314" lon="1.48987">
        <ele>158</ele>
        <time>2024-12-19T17:56:29.538+00:00</time>
      </trkpt>
      <trkpt lat="48.4432" lon="1.48986">
        <ele>160</ele>
        <time>2024-12-19T17:56:33.657+00:00</time>
      </trkpt>
      <trkpt lat="48.44325" lon="1.48985">
        <ele>160</ele>
        <time>2024-12-19T17:56:37.984+00:00</time>
      </trkpt>
      <trkpt lat="48.44328" lon="1.48984">
        <ele>160</ele>
        <time>2024-12-19T17:56:42.416+00:00</time>
      </trkpt>
      <trkpt lat="48.44333" lon="1.48983">
        <ele>160</ele>
        <time>2024-12-19T17:56:46.560+00:00</time>
      </trkpt>
      <trkpt lat="48.44338" lon="1.48983">
        <ele>160</ele>
        <time>2024-12-19T17:56:50.984+00:00</time>
      </trkpt>
      <trkpt lat="48.44343" lon="1.48983">
        <ele>160</ele>
        <time>2024-12-19T17:56:55.156+00:00</time>
      </trkpt>
      <trkpt lat="48.44347" lon="1.48984">
        <ele>160</ele>
        <time>2024-12-19T17:56:59.659+00:00</time>
      </trkpt>
      <trkpt lat="48.44352" lon="1.48983">
        <ele>157</ele>
        <time>2024-12-19T17:57:03.752+00:00</time>
      </trkpt>
      <trkpt lat="48.44358" lon="1.48982">
        <ele>157</ele>
        <time>2024-12-19T17:57:07.794+00:00</time>
      </trkpt>
      <trkpt lat="48.44362" lon="1.48982">
        <ele>157</ele>
        <time>2024-12-19T17:57:11.837+00:00</time>
      </trkpt>
      <trkpt lat="48.44368" lon="1.4898">
        <ele>157</ele>
        <time>2024-12-19T17:57:16.433+00:00</time>
      </trkpt>
      <trkpt lat="48.44373" lon="1.4898">
        <ele>157</ele>
        <time>2024-12-19T17:57:20.984+00:00</time>
      </trkpt>
      <trkpt lat="48.44377" lon="1.48978">
        <ele>155</ele>
        <time>2024-12-19T17:57:25.118+00:00</time>
      </trkpt>
      <trkpt lat="48.44382" lon="1.48979">
        <ele>155</ele>
        <time>2024-12-19T17:57:29.558+00:00</time>
      </trkpt>
      <trkpt lat="48.44388" lon="1.48978">
        <ele>155</ele>
        <time>2024-12-19T17:57:33.618+00:00</time>
      </trkpt>
      <trkpt lat="48.44394" lon="1.48977">
        <ele>155</ele>
        <time>2024-12-19T17:57:37.984+00:00</time>
      </trkpt>
      <trkpt lat="48.44397" lon="1.48976">
        <ele>155</ele>
        <time>2024-12-19T17:57:42.795+00:00</time>
      </trkpt>
      <trkpt lat="48.44402" lon="1.48978">
        <ele>155</ele>
        <time>2024-12-19T17:57:47.492+00:00</time>
      </trkpt>
      <trkpt lat="48.44408" lon="1.48979">
        <ele>157</ele>
        <time>2024-12-19T17:57:51.817+00:00</time>
      </trkpt>
      <trkpt lat="48.44412" lon="1.4898">
        <ele>157</ele>
        <time>2024-12-19T17:57:56.438+00:00</time>
      </trkpt>
      <trkpt lat="48.44418" lon="1.48984">
        <ele>157</ele>
        <time>2024-12-19T17:58:00.498+00:00</time>
      </trkpt>
      <trkpt lat="48.44422" lon="1.48987">
        <ele>157</ele>
        <time>2024-12-19T17:58:04.600+00:00</time>
      </trkpt>
      <trkpt lat="48.44428" lon="1.48993">
        <ele>157</ele>
        <time>2024-12-19T17:58:09.094+00:00</time>
      </trkpt>
      <trkpt lat="48.4443" lon="1.48999">
        <ele>157</ele>
        <time>2024-12-19T17:58:13.239+00:00</time>
      </trkpt>
      <trkpt lat="48.44431" lon="1.49008">
        <ele>157</ele>
        <time>2024-12-19T17:58:17.896+00:00</time>
      </trkpt>
      <trkpt lat="48.4443" lon="1.49013">
        <ele>157</ele>
        <time>2024-12-19T17:58:21.997+00:00</time>
      </trkpt>
      <trkpt lat="48.44433" lon="1.4902">
        <ele>156</ele>
        <time>2024-12-19T17:58:26.577+00:00</time>
      </trkpt>
      <trkpt lat="48.44433" lon="1.49027">
        <ele>156</ele>
        <time>2024-12-19T17:58:30.620+00:00</time>
      </trkpt>
      <trkpt lat="48.44434" lon="1.49032">
        <ele>156</ele>
        <time>2024-12-19T17:58:34.696+00:00</time>
      </trkpt>
      <trkpt lat="48.44434" lon="1.49037">
        <ele>156</ele>
        <time>2024-12-19T17:58:38.986+00:00</time>
      </trkpt>
      <trkpt lat="48.44438" lon="1.49042">
        <ele>154</ele>
        <time>2024-12-19T17:58:43.173+00:00</time>
      </trkpt>
      <trkpt lat="48.44443" lon="1.49052">
        <ele>154</ele>
        <time>2024-12-19T17:58:47.741+00:00</time>
      </trkpt>
      <trkpt lat="48.44445" lon="1.49058">
        <ele>154</ele>
        <time>2024-12-19T17:58:51.776+00:00</time>
      </trkpt>
      <trkpt lat="48.44446" lon="1.49061">
        <ele>154</ele>
        <time>2024-12-19T17:58:56.080+00:00</time>
      </trkpt>
      <trkpt lat="48.44449" lon="1.49066">
        <ele>154</ele>
        <time>2024-12-19T17:59:00.217+00:00</time>
      </trkpt>
      <trkpt lat="48.44451" lon="1.49072">
        <ele>150</ele>
        <time>2024-12-19T17:59:04.318+00:00</time>
      </trkpt>
      <trkpt lat="48.44452" lon="1.49078">
        <ele>150</ele>
        <time>2024-12-19T17:59:08.692+00:00</time>
      </trkpt>
      <trkpt lat="48.44454" lon="1.49082">
        <ele>150</ele>
        <time>2024-12-19T17:59:12.761+00:00</time>
      </trkpt>
      <trkpt lat="48.44457" lon="1.49088">
        <ele>150</ele>
        <time>2024-12-19T17:59:16.806+00:00</time>
      </trkpt>
      <trkpt lat="48.44459" lon="1.49095">
        <ele>148</ele>
        <time>2024-12-19T17:59:20.986+00:00</time>
      </trkpt>
      <trkpt lat="48.44462" lon="1.491">
        <ele>143</ele>
        <time>2024-12-19T17:59:25.502+00:00</time>
      </trkpt>
      <trkpt lat="48.44465" lon="1.49105">
        <ele>143</ele>
        <time>2024-12-19T17:59:29.594+00:00</time>
      </trkpt>
      <trkpt lat="48.44468" lon="1.4911">
        <ele>143</ele>
        <time>2024-12-19T17:59:33.985+00:00</time>
      </trkpt>
      <trkpt lat="48.4447" lon="1.49114">
        <ele>143</ele>
        <time>2024-12-19T17:59:38.438+00:00</time>
      </trkpt>
      <trkpt lat="48.44473" lon="1.4912">
        <ele>143</ele>
        <time>2024-12-19T17:59:42.985+00:00</time>
      </trkpt>
      <trkpt lat="48.44475" lon="1.49126">
        <ele>140</ele>
        <time>2024-12-19T17:59:47.520+00:00</time>
      </trkpt>
      <trkpt lat="48.44478" lon="1.49131">
        <ele>140</ele>
        <time>2024-12-19T17:59:51.715+00:00</time>
      </trkpt>
      <trkpt lat="48.4448" lon="1.49136">
        <ele>140</ele>
        <time>2024-12-19T17:59:55.953+00:00</time>
      </trkpt>
      <trkpt lat="48.44482" lon="1.4914">
        <ele>140</ele>
        <time>2024-12-19T18:00:00.175+00:00</time>
      </trkpt>
      <trkpt lat="48.44484" lon="1.49143">
        <ele>140</ele>
        <time>2024-12-19T18:00:04.985+00:00</time>
      </trkpt>
      <trkpt lat="48.44492" lon="1.49141">
        <ele>140</ele>
        <time>2024-12-19T18:00:09.985+00:00</time>
      </trkpt>
      <trkpt lat="48.44494" lon="1.49144">
        <ele>140</ele>
        <time>2024-12-19T18:00:14.340+00:00</time>
      </trkpt>
      <trkpt lat="48.44494" lon="1.49153">
        <ele>138</ele>
        <time>2024-12-19T18:00:18.985+00:00</time>
      </trkpt>
      <trkpt lat="48.44488" lon="1.49152">
        <ele>140</ele>
        <time>2024-12-19T18:00:23.635+00:00</time>
      </trkpt>
      <trkpt lat="48.44483" lon="1.49152">
        <ele>140</ele>
        <time>2024-12-19T18:00:27.986+00:00</time>
      </trkpt>
      <trkpt lat="48.4448" lon="1.49161">
        <ele>139</ele>
        <time>2024-12-19T18:00:32.239+00:00</time>
      </trkpt>
      <trkpt lat="48.44476" lon="1.49167">
        <ele>139</ele>
        <time>2024-12-19T18:00:36.495+00:00</time>
      </trkpt>
      <trkpt lat="48.44473" lon="1.49171">
        <ele>139</ele>
        <time>2024-12-19T18:00:40.985+00:00</time>
      </trkpt>
      <trkpt lat="48.44468" lon="1.49175">
        <ele>139</ele>
        <time>2024-12-19T18:00:45.176+00:00</time>
      </trkpt>
      <trkpt lat="48.44464" lon="1.4918">
        <ele>139</ele>
        <time>2024-12-19T18:00:49.797+00:00</time>
      </trkpt>
      <trkpt lat="48.44459" lon="1.49184">
        <ele>138</ele>
        <time>2024-12-19T18:00:53.858+00:00</time>
      </trkpt>
      <trkpt lat="48.44455" lon="1.4919">
        <ele>137</ele>
        <time>2024-12-19T18:00:58.421+00:00</time>
      </trkpt>
      <trkpt lat="48.44451" lon="1.49194">
        <ele>137</ele>
        <time>2024-12-19T18:01:02.958+00:00</time>
      </trkpt>
      <trkpt lat="48.44447" lon="1.49199">
        <ele>137</ele>
        <time>2024-12-19T18:01:07.477+00:00</time>
      </trkpt>
      <trkpt lat="48.44443" lon="1.49203">
        <ele>137</ele>
        <time>2024-12-19T18:01:11.519+00:00</time>
      </trkpt>
      <trkpt lat="48.44438" lon="1.49207">
        <ele>137</ele>
        <time>2024-12-19T18:01:15.580+00:00</time>
      </trkpt>
      <trkpt lat="48.44433" lon="1.49211">
        <ele>136</ele>
        <time>2024-12-19T18:01:19.986+00:00</time>
      </trkpt>
      <trkpt lat="48.44429" lon="1.49214">
        <ele>135</ele>
        <time>2024-12-19T18:01:24.260+00:00</time>
      </trkpt>
      <trkpt lat="48.44426" lon="1.49216">
        <ele>135</ele>
        <time>2024-12-19T18:01:28.338+00:00</time>
      </trkpt>
      <trkpt lat="48.44421" lon="1.49219">
        <ele>135</ele>
        <time>2024-12-19T18:01:38.986+00:00</time>
      </trkpt>
      <trkpt lat="48.44421" lon="1.49219">
        <ele>135</ele>
        <time>2024-12-19T18:01:42.985+00:00</time>
      </trkpt>
      <trkpt lat="48.4442" lon="1.4922">
        <ele>135</ele>
        <time>2024-12-19T18:01:47.498+00:00</time>
      </trkpt>
      <trkpt lat="48.4442" lon="1.49229">
        <ele>135</ele>
        <time>2024-12-19T18:01:51.782+00:00</time>
      </trkpt>
      <trkpt lat="48.44422" lon="1.49236">
        <ele>135</ele>
        <time>2024-12-19T18:01:55.985+00:00</time>
      </trkpt>
      <trkpt lat="48.4442" lon="1.49234">
        <ele>135</ele>
        <time>2024-12-19T18:03:28.985+00:00</time>
      </trkpt>
      <trkpt lat="48.44419" lon="1.49237">
        <ele>134</ele>
        <time>2024-12-19T18:03:33.985+00:00</time>
      </trkpt>
      <trkpt lat="48.4442" lon="1.49242">
        <ele>134</ele>
        <time>2024-12-19T18:03:38.478+00:00</time>
      </trkpt>
      <trkpt lat="48.44422" lon="1.4925">
        <ele>134</ele>
        <time>2024-12-19T18:03:42.985+00:00</time>
      </trkpt>
      <trkpt lat="48.44424" lon="1.49255">
        <ele>134</ele>
        <time>2024-12-19T18:03:46.985+00:00</time>
      </trkpt>
      <trkpt lat="48.44425" lon="1.49262">
        <ele>134</ele>
        <time>2024-12-19T18:03:51.985+00:00</time>
      </trkpt>
      <trkpt lat="48.44427" lon="1.49264">
        <ele>132</ele>
        <time>2024-12-19T18:03:56.458+00:00</time>
      </trkpt>
      <trkpt lat="48.4443" lon="1.4927">
        <ele>132</ele>
        <time>2024-12-19T18:04:00.560+00:00</time>
      </trkpt>
      <trkpt lat="48.44433" lon="1.49276">
        <ele>132</ele>
        <time>2024-12-19T18:04:04.986+00:00</time>
      </trkpt>
      <trkpt lat="48.44433" lon="1.49283">
        <ele>132</ele>
        <time>2024-12-19T18:04:09.157+00:00</time>
      </trkpt>
      <trkpt lat="48.44436" lon="1.49288">
        <ele>132</ele>
        <time>2024-12-19T18:04:13.337+00:00</time>
      </trkpt>
      <trkpt lat="48.44439" lon="1.49292">
        <ele>130</ele>
        <time>2024-12-19T18:04:17.533+00:00</time>
      </trkpt>
      <trkpt lat="48.44441" lon="1.49289">
        <ele>132</ele>
        <time>2024-12-19T18:04:21.635+00:00</time>
      </trkpt>
      <trkpt lat="48.44445" lon="1.49288">
        <ele>132</ele>
        <time>2024-12-19T18:04:26.198+00:00</time>
      </trkpt>
      <trkpt lat="48.4445" lon="1.49292">
        <ele>130</ele>
        <time>2024-12-19T18:04:44.756+00:00</time>
      </trkpt>
      <trkpt lat="48.44449" lon="1.49296">
        <ele>130</ele>
        <time>2024-12-19T18:04:49.494+00:00</time>
      </trkpt>
      <trkpt lat="48.44441" lon="1.49301">
        <ele>130</ele>
        <time>2024-12-19T18:04:53.958+00:00</time>
      </trkpt>
      <trkpt lat="48.44437" lon="1.49305">
        <ele>130</ele>
        <time>2024-12-19T18:04:57.985+00:00</time>
      </trkpt>
      <trkpt lat="48.44437" lon="1.49312">
        <ele>130</ele>
        <time>2024-12-19T18:05:02.985+00:00</time>
      </trkpt>
      <trkpt lat="48.44424" lon="1.49329">
        <ele>129</ele>
        <time>2024-12-19T18:05:39.471+00:00</time>
      </trkpt>
      <trkpt lat="48.44423" lon="1.49331">
        <ele>129</ele>
        <time>2024-12-19T18:05:43.986+00:00</time>
      </trkpt>
      <trkpt lat="48.44417" lon="1.49335">
        <ele>129</ele>
        <time>2024-12-19T18:05:47.985+00:00</time>
      </trkpt>
      <trkpt lat="48.4441" lon="1.49345">
        <ele>129</ele>
        <time>2024-12-19T18:05:52.145+00:00</time>
      </trkpt>
      <trkpt lat="48.44405" lon="1.49349">
        <ele>128</ele>
        <time>2024-12-19T18:05:56.504+00:00</time>
      </trkpt>
      <trkpt lat="48.444" lon="1.49354">
        <ele>129</ele>
        <time>2024-12-19T18:06:00.864+00:00</time>
      </trkpt>
      <trkpt lat="48.44395" lon="1.49359">
        <ele>129</ele>
        <time>2024-12-19T18:06:05.339+00:00</time>
      </trkpt>
      <trkpt lat="48.4439" lon="1.49363">
        <ele>129</ele>
        <time>2024-12-19T18:06:09.902+00:00</time>
      </trkpt>
      <trkpt lat="48.44386" lon="1.49366">
        <ele>129</ele>
        <time>2024-12-19T18:06:14.439+00:00</time>
      </trkpt>
      <trkpt lat="48.44383" lon="1.49369">
        <ele>129</ele>
        <time>2024-12-19T18:06:18.883+00:00</time>
      </trkpt>
      <trkpt lat="48.4438" lon="1.49368">
        <ele>129</ele>
        <time>2024-12-19T18:06:23.402+00:00</time>
      </trkpt>
      <trkpt lat="48.44377" lon="1.49364">
        <ele>129</ele>
        <time>2024-12-19T18:06:27.881+00:00</time>
      </trkpt>
      <trkpt lat="48.44377" lon="1.49356">
        <ele>129</ele>
        <time>2024-12-19T18:06:31.956+00:00</time>
      </trkpt>
      <trkpt lat="48.44372" lon="1.49355">
        <ele>128</ele>
        <time>2024-12-19T18:08:03.986+00:00</time>
      </trkpt>
      <trkpt lat="48.44371" lon="1.49357">
        <ele>128</ele>
        <time>2024-12-19T18:08:08.986+00:00</time>
      </trkpt>
      <trkpt lat="48.4437" lon="1.49357">
        <ele>128</ele>
        <time>2024-12-19T18:08:13.986+00:00</time>
      </trkpt>
      <trkpt lat="48.44367" lon="1.4936">
        <ele>128</ele>
        <time>2024-12-19T18:08:17.985+00:00</time>
      </trkpt>
      <trkpt lat="48.44365" lon="1.49361">
        <ele>128</ele>
        <time>2024-12-19T18:08:22.985+00:00</time>
      </trkpt>
      <trkpt lat="48.44362" lon="1.49363">
        <ele>128</ele>
        <time>2024-12-19T18:08:27.184+00:00</time>
      </trkpt>
      <trkpt lat="48.4436" lon="1.49368">
        <ele>128</ele>
        <time>2024-12-19T18:08:31.738+00:00</time>
      </trkpt>
      <trkpt lat="48.44356" lon="1.49372">
        <ele>128</ele>
        <time>2024-12-19T18:08:35.824+00:00</time>
      </trkpt>
      <trkpt lat="48.44351" lon="1.49376">
        <ele>127</ele>
        <time>2024-12-19T18:08:40.304+00:00</time>
      </trkpt>
      <trkpt lat="48.4435" lon="1.49382">
        <ele>127</ele>
        <time>2024-12-19T18:08:44.645+00:00</time>
      </trkpt>
      <trkpt lat="48.44349" lon="1.49389">
        <ele>127</ele>
        <time>2024-12-19T18:08:49.159+00:00</time>
      </trkpt>
      <trkpt lat="48.44346" lon="1.49393">
        <ele>127</ele>
        <time>2024-12-19T18:08:53.189+00:00</time>
      </trkpt>
      <trkpt lat="48.44346" lon="1.49397">
        <ele>127</ele>
        <time>2024-12-19T18:08:57.579+00:00</time>
      </trkpt>
      <trkpt lat="48.44358" lon="1.49407">
        <ele>126</ele>
        <time>2024-12-19T18:09:26.985+00:00</time>
      </trkpt>
      <trkpt lat="48.44358" lon="1.49407">
        <ele>126</ele>
        <time>2024-12-19T18:09:31.985+00:00</time>
      </trkpt>
      <trkpt lat="48.44359" lon="1.49408">
        <ele>126</ele>
        <time>2024-12-19T18:09:37.986+00:00</time>
      </trkpt>
      <trkpt lat="48.44359" lon="1.49411">
        <ele>126</ele>
        <time>2024-12-19T18:09:42.985+00:00</time>
      </trkpt>
      <trkpt lat="48.44366" lon="1.49418">
        <ele>126</ele>
        <time>2024-12-19T18:09:46.986+00:00</time>
      </trkpt>
      <trkpt lat="48.4437" lon="1.49423">
        <ele>126</ele>
        <time>2024-12-19T18:09:51.541+00:00</time>
      </trkpt>
      <trkpt lat="48.44374" lon="1.49429">
        <ele>126</ele>
        <time>2024-12-19T18:09:55.775+00:00</time>
      </trkpt>
      <trkpt lat="48.44377" lon="1.49435">
        <ele>126</ele>
        <time>2024-12-19T18:09:59.985+00:00</time>
      </trkpt>
      <trkpt lat="48.4438" lon="1.49439">
        <ele>126</ele>
        <time>2024-12-19T18:10:04.199+00:00</time>
      </trkpt>
      <trkpt lat="48.44384" lon="1.49441">
        <ele>126</ele>
        <time>2024-12-19T18:10:08.404+00:00</time>
      </trkpt>
      <trkpt lat="48.44388" lon="1.49444">
        <ele>126</ele>
        <time>2024-12-19T18:10:12.898+00:00</time>
      </trkpt>
      <trkpt lat="48.44391" lon="1.49448">
        <ele>126</ele>
        <time>2024-12-19T18:10:17.444+00:00</time>
      </trkpt>
      <trkpt lat="48.44393" lon="1.49453">
        <ele>126</ele>
        <time>2024-12-19T18:10:21.504+00:00</time>
      </trkpt>
      <trkpt lat="48.44397" lon="1.4946">
        <ele>127</ele>
        <time>2024-12-19T18:10:44.386+00:00</time>
      </trkpt>
      <trkpt lat="48.44401" lon="1.49465">
        <ele>127</ele>
        <time>2024-12-19T18:10:48.926+00:00</time>
      </trkpt>
      <trkpt lat="48.44407" lon="1.49467">
        <ele>128</ele>
        <time>2024-12-19T18:10:53.609+00:00</time>
      </trkpt>
      <trkpt lat="48.4441" lon="1.49465">
        <ele>128</ele>
        <time>2024-12-19T18:10:57.744+00:00</time>
      </trkpt>
      <trkpt lat="48.44412" lon="1.4946">
        <ele>128</ele>
        <time>2024-12-19T18:11:02.358+00:00</time>
      </trkpt>
      <trkpt lat="48.44417" lon="1.49457">
        <ele>127</ele>
        <time>2024-12-19T18:11:06.701+00:00</time>
      </trkpt>
      <trkpt lat="48.4442" lon="1.49452">
        <ele>127</ele>
        <time>2024-12-19T18:11:10.985+00:00</time>
      </trkpt>
      <trkpt lat="48.44423" lon="1.49447">
        <ele>127</ele>
        <time>2024-12-19T18:11:15.638+00:00</time>
      </trkpt>
      <trkpt lat="48.44425" lon="1.49441">
        <ele>127</ele>
        <time>2024-12-19T18:11:19.985+00:00</time>
      </trkpt>
      <trkpt lat="48.44424" lon="1.49427">
        <ele>127</ele>
        <time>2024-12-19T18:12:02.984+00:00</time>
      </trkpt>
      <trkpt lat="48.44424" lon="1.49427">
        <ele>127</ele>
        <time>2024-12-19T18:12:06.985+00:00</time>
      </trkpt>
      <trkpt lat="48.44424" lon="1.49426">
        <ele>127</ele>
        <time>2024-12-19T18:12:11.985+00:00</time>
      </trkpt>
      <trkpt lat="48.44425" lon="1.49424">
        <ele>127</ele>
        <time>2024-12-19T18:12:16.743+00:00</time>
      </trkpt>
      <trkpt lat="48.4443" lon="1.49421">
        <ele>127</ele>
        <time>2024-12-19T18:12:21.245+00:00</time>
      </trkpt>
      <trkpt lat="48.44434" lon="1.49417">
        <ele>127</ele>
        <time>2024-12-19T18:12:26.003+00:00</time>
      </trkpt>
      <trkpt lat="48.44437" lon="1.49414">
        <ele>127</ele>
        <time>2024-12-19T18:12:30.562+00:00</time>
      </trkpt>
      <trkpt lat="48.44442" lon="1.49409">
        <ele>127</ele>
        <time>2024-12-19T18:12:35+00:00</time>
      </trkpt>
      <trkpt lat="48.44446" lon="1.49404">
        <ele>127</ele>
        <time>2024-12-19T18:12:39.682+00:00</time>
      </trkpt>
      <trkpt lat="48.44448" lon="1.49399">
        <ele>127</ele>
        <time>2024-12-19T18:12:55.807+00:00</time>
      </trkpt>
      <trkpt lat="48.44451" lon="1.49398">
        <ele>127</ele>
        <time>2024-12-19T18:12:59.986+00:00</time>
      </trkpt>
      <trkpt lat="48.44452" lon="1.49398">
        <ele>127</ele>
        <time>2024-12-19T18:13:04.986+00:00</time>
      </trkpt>
      <trkpt lat="48.44454" lon="1.49397">
        <ele>127</ele>
        <time>2024-12-19T18:13:09.985+00:00</time>
      </trkpt>
      <trkpt lat="48.44455" lon="1.49397">
        <ele>127</ele>
        <time>2024-12-19T18:13:13.985+00:00</time>
      </trkpt>
      <trkpt lat="48.44456" lon="1.49395">
        <ele>127</ele>
        <time>2024-12-19T18:13:18.839+00:00</time>
      </trkpt>
      <trkpt lat="48.44459" lon="1.4939">
        <ele>128</ele>
        <time>2024-12-19T18:13:23.766+00:00</time>
      </trkpt>
      <trkpt lat="48.44463" lon="1.49388">
        <ele>128</ele>
        <time>2024-12-19T18:13:28.324+00:00</time>
      </trkpt>
      <trkpt lat="48.44467" lon="1.49388">
        <ele>128</ele>
        <time>2024-12-19T18:13:32.985+00:00</time>
      </trkpt>
      <trkpt lat="48.44471" lon="1.49379">
        <ele>128</ele>
        <time>2024-12-19T18:14:40.985+00:00</time>
      </trkpt>
      <trkpt lat="48.44472" lon="1.49377">
        <ele>128</ele>
        <time>2024-12-19T18:14:45.985+00:00</time>
      </trkpt>
      <trkpt lat="48.44473" lon="1.49376">
        <ele>128</ele>
        <time>2024-12-19T18:14:49.985+00:00</time>
      </trkpt>
      <trkpt lat="48.44476" lon="1.4937">
        <ele>128</ele>
        <time>2024-12-19T18:14:54.622+00:00</time>
      </trkpt>
      <trkpt lat="48.44478" lon="1.49367">
        <ele>128</ele>
        <time>2024-12-19T18:14:58.985+00:00</time>
      </trkpt>
      <trkpt lat="48.44479" lon="1.49365">
        <ele>128</ele>
        <time>2024-12-19T18:15:07.985+00:00</time>
      </trkpt>
      <trkpt lat="48.4448" lon="1.49366">
        <ele>128</ele>
        <time>2024-12-19T18:15:12.986+00:00</time>
      </trkpt>
      <trkpt lat="48.44482" lon="1.49365">
        <ele>128</ele>
        <time>2024-12-19T18:15:17.985+00:00</time>
      </trkpt>
      <trkpt lat="48.44483" lon="1.49365">
        <ele>128</ele>
        <time>2024-12-19T18:15:22.985+00:00</time>
      </trkpt>
      <trkpt lat="48.44488" lon="1.49361">
        <ele>129</ele>
        <time>2024-12-19T18:15:27.986+00:00</time>
      </trkpt>
      <trkpt lat="48.44493" lon="1.49356">
        <ele>129</ele>
        <time>2024-12-19T18:15:32.880+00:00</time>
      </trkpt>
      <trkpt lat="48.44498" lon="1.4935">
        <ele>129</ele>
        <time>2024-12-19T18:15:37.281+00:00</time>
      </trkpt>
      <trkpt lat="48.44503" lon="1.49345">
        <ele>129</ele>
        <time>2024-12-19T18:15:41.921+00:00</time>
      </trkpt>
      <trkpt lat="48.44506" lon="1.49339">
        <ele>129</ele>
        <time>2024-12-19T18:15:46.462+00:00</time>
      </trkpt>
      <trkpt lat="48.44512" lon="1.4933">
        <ele>129</ele>
        <time>2024-12-19T18:16:31.846+00:00</time>
      </trkpt>
      <trkpt lat="48.44513" lon="1.4933">
        <ele>129</ele>
        <time>2024-12-19T18:16:36.985+00:00</time>
      </trkpt>
      <trkpt lat="48.44514" lon="1.4933">
        <ele>129</ele>
        <time>2024-12-19T18:16:40.985+00:00</time>
      </trkpt>
      <trkpt lat="48.44514" lon="1.4933">
        <ele>128</ele>
        <time>2024-12-19T18:16:46.529+00:00</time>
      </trkpt>
      <trkpt lat="48.44517" lon="1.49331">
        <ele>128</ele>
        <time>2024-12-19T18:16:50.985+00:00</time>
      </trkpt>
      <trkpt lat="48.4452" lon="1.4933">
        <ele>128</ele>
        <time>2024-12-19T18:16:55.265+00:00</time>
      </trkpt>
      <trkpt lat="48.44526" lon="1.49326">
        <ele>128</ele>
        <time>2024-12-19T18:16:59.563+00:00</time>
      </trkpt>
      <trkpt lat="48.44532" lon="1.49319">
        <ele>128</ele>
        <time>2024-12-19T18:17:03.985+00:00</time>
      </trkpt>
      <trkpt lat="48.44536" lon="1.49311">
        <ele>128</ele>
        <time>2024-12-19T18:17:08.285+00:00</time>
      </trkpt>
      <trkpt lat="48.44539" lon="1.49305">
        <ele>128</ele>
        <time>2024-12-19T18:17:12.621+00:00</time>
      </trkpt>
      <trkpt lat="48.44543" lon="1.49306">
        <ele>128</ele>
        <time>2024-12-19T18:17:16.799+00:00</time>
      </trkpt>
      <trkpt lat="48.44545" lon="1.49309">
        <ele>128</ele>
        <time>2024-12-19T18:17:20.985+00:00</time>
      </trkpt>
      <trkpt lat="48.44548" lon="1.49309">
        <ele>128</ele>
        <time>2024-12-19T18:17:25.338+00:00</time>
      </trkpt>
      <trkpt lat="48.44555" lon="1.49304">
        <ele>128</ele>
        <time>2024-12-19T18:17:29.945+00:00</time>
      </trkpt>
      <trkpt lat="48.44559" lon="1.49299">
        <ele>128</ele>
        <time>2024-12-19T18:17:34.397+00:00</time>
      </trkpt>
      <trkpt lat="48.44562" lon="1.49292">
        <ele>128</ele>
        <time>2024-12-19T18:17:38.902+00:00</time>
      </trkpt>
      <trkpt lat="48.44566" lon="1.49287">
        <ele>127</ele>
        <time>2024-12-19T18:17:43.098+00:00</time>
      </trkpt>
      <trkpt lat="48.4457" lon="1.49282">
        <ele>127</ele>
        <time>2024-12-19T18:17:47.362+00:00</time>
      </trkpt>
      <trkpt lat="48.44575" lon="1.49277">
        <ele>127</ele>
        <time>2024-12-19T18:17:51.559+00:00</time>
      </trkpt>
      <trkpt lat="48.44578" lon="1.49274">
        <ele>127</ele>
        <time>2024-12-19T18:17:55.858+00:00</time>
      </trkpt>
      <trkpt lat="48.44579" lon="1.49268">
        <ele>127</ele>
        <time>2024-12-19T18:17:59.902+00:00</time>
      </trkpt>
      <trkpt lat="48.44583" lon="1.49264">
        <ele>127</ele>
        <time>2024-12-19T18:18:04.619+00:00</time>
      </trkpt>
      <trkpt lat="48.44588" lon="1.4926">
        <ele>126</ele>
        <time>2024-12-19T18:18:09.183+00:00</time>
      </trkpt>
      <trkpt lat="48.44593" lon="1.49257">
        <ele>126</ele>
        <time>2024-12-19T18:18:13.882+00:00</time>
      </trkpt>
      <trkpt lat="48.44595" lon="1.49251">
        <ele>126</ele>
        <time>2024-12-19T18:18:18.240+00:00</time>
      </trkpt>
      <trkpt lat="48.446" lon="1.49248">
        <ele>126</ele>
        <time>2024-12-19T18:18:22.805+00:00</time>
      </trkpt>
      <trkpt lat="48.44604" lon="1.49245">
        <ele>126</ele>
        <time>2024-12-19T18:18:26.864+00:00</time>
      </trkpt>
      <trkpt lat="48.4461" lon="1.49245">
        <ele>126</ele>
        <time>2024-12-19T18:18:31.282+00:00</time>
      </trkpt>
      <trkpt lat="48.44616" lon="1.49243">
        <ele>126</ele>
        <time>2024-12-19T18:18:35.345+00:00</time>
      </trkpt>
      <trkpt lat="48.44622" lon="1.49241">
        <ele>126</ele>
        <time>2024-12-19T18:18:39.880+00:00</time>
      </trkpt>
      <trkpt lat="48.4463" lon="1.49238">
        <ele>127</ele>
        <time>2024-12-19T18:18:43.923+00:00</time>
      </trkpt>
      <trkpt lat="48.44634" lon="1.49236">
        <ele>127</ele>
        <time>2024-12-19T18:18:47.985+00:00</time>
      </trkpt>
      <trkpt lat="48.44637" lon="1.49235">
        <ele>126</ele>
        <time>2024-12-19T18:18:52.658+00:00</time>
      </trkpt>
      <trkpt lat="48.4464" lon="1.49233">
        <ele>126</ele>
        <time>2024-12-19T18:18:56.742+00:00</time>
      </trkpt>
      <trkpt lat="48.44644" lon="1.49232">
        <ele>126</ele>
        <time>2024-12-19T18:19:00.879+00:00</time>
      </trkpt>
      <trkpt lat="48.4465" lon="1.4923">
        <ele>126</ele>
        <time>2024-12-19T18:19:05.010+00:00</time>
      </trkpt>
      <trkpt lat="48.44657" lon="1.49227">
        <ele>126</ele>
        <time>2024-12-19T18:19:09.622+00:00</time>
      </trkpt>
      <trkpt lat="48.44663" lon="1.49224">
        <ele>126</ele>
        <time>2024-12-19T18:19:14.306+00:00</time>
      </trkpt>
      <trkpt lat="48.44667" lon="1.49222">
        <ele>126</ele>
        <time>2024-12-19T18:19:18.885+00:00</time>
      </trkpt>
      <trkpt lat="48.44672" lon="1.4922">
        <ele>126</ele>
        <time>2024-12-19T18:19:23.500+00:00</time>
      </trkpt>
      <trkpt lat="48.44677" lon="1.49219">
        <ele>126</ele>
        <time>2024-12-19T18:19:27.525+00:00</time>
      </trkpt>
      <trkpt lat="48.44685" lon="1.49218">
        <ele>128</ele>
        <time>2024-12-19T18:19:31.986+00:00</time>
      </trkpt>
      <trkpt lat="48.44693" lon="1.49215">
        <ele>128</ele>
        <time>2024-12-19T18:19:57.854+00:00</time>
      </trkpt>
      <trkpt lat="48.44693" lon="1.49215">
        <ele>128</ele>
        <time>2024-12-19T18:20:01.985+00:00</time>
      </trkpt>
      <trkpt lat="48.44696" lon="1.49214">
        <ele>128</ele>
        <time>2024-12-19T18:20:06.266+00:00</time>
      </trkpt>
      <trkpt lat="48.44699" lon="1.49207">
        <ele>127</ele>
        <time>2024-12-19T18:20:10.731+00:00</time>
      </trkpt>
      <trkpt lat="48.44698" lon="1.49199">
        <ele>127</ele>
        <time>2024-12-19T18:20:14.985+00:00</time>
      </trkpt>
      <trkpt lat="48.44698" lon="1.49194">
        <ele>127</ele>
        <time>2024-12-19T18:20:54.986+00:00</time>
      </trkpt>
      <trkpt lat="48.44701" lon="1.49196">
        <ele>127</ele>
        <time>2024-12-19T18:20:59.985+00:00</time>
      </trkpt>
      <trkpt lat="48.44705" lon="1.49198">
        <ele>127</ele>
        <time>2024-12-19T18:21:04.088+00:00</time>
      </trkpt>
      <trkpt lat="48.44708" lon="1.49198">
        <ele>127</ele>
        <time>2024-12-19T18:21:08.986+00:00</time>
      </trkpt>
      <trkpt lat="48.44712" lon="1.49195">
        <ele>129</ele>
        <time>2024-12-19T18:21:12.985+00:00</time>
      </trkpt>
      <trkpt lat="48.44711" lon="1.49192">
        <ele>129</ele>
        <time>2024-12-19T18:21:47.373+00:00</time>
      </trkpt>
      <trkpt lat="48.44714" lon="1.4919">
        <ele>129</ele>
        <time>2024-12-19T18:21:51.833+00:00</time>
      </trkpt>
      <trkpt lat="48.4472" lon="1.49186">
        <ele>129</ele>
        <time>2024-12-19T18:21:56.495+00:00</time>
      </trkpt>
      <trkpt lat="48.44725" lon="1.49183">
        <ele>129</ele>
        <time>2024-12-19T18:22:00.878+00:00</time>
      </trkpt>
      <trkpt lat="48.4473" lon="1.4918">
        <ele>128</ele>
        <time>2024-12-19T18:22:04.985+00:00</time>
      </trkpt>
      <trkpt lat="48.44734" lon="1.49177">
        <ele>128</ele>
        <time>2024-12-19T18:22:08.986+00:00</time>
      </trkpt>
      <trkpt lat="48.4474" lon="1.49174">
        <ele>130</ele>
        <time>2024-12-19T18:22:13.913+00:00</time>
      </trkpt>
      <trkpt lat="48.44743" lon="1.49172">
        <ele>130</ele>
        <time>2024-12-19T18:22:17.985+00:00</time>
      </trkpt>
      <trkpt lat="48.44746" lon="1.4917">
        <ele>130</ele>
        <time>2024-12-19T18:22:21.985+00:00</time>
      </trkpt>
      <trkpt lat="48.44744" lon="1.4917">
        <ele>130</ele>
        <time>2024-12-19T18:23:15.985+00:00</time>
      </trkpt>
      <trkpt lat="48.44744" lon="1.4917">
        <ele>130</ele>
        <time>2024-12-19T18:23:20.689+00:00</time>
      </trkpt>
      <trkpt lat="48.44744" lon="1.49171">
        <ele>130</ele>
        <time>2024-12-19T18:23:26.936+00:00</time>
      </trkpt>
      <trkpt lat="48.44744" lon="1.49171">
        <ele>130</ele>
        <time>2024-12-19T18:23:30.985+00:00</time>
      </trkpt>
      <trkpt lat="48.44742" lon="1.49172">
        <ele>130</ele>
        <time>2024-12-19T18:23:35.986+00:00</time>
      </trkpt>
      <trkpt lat="48.44739" lon="1.49179">
        <ele>130</ele>
        <time>2024-12-19T18:24:15.693+00:00</time>
      </trkpt>
      <trkpt lat="48.44735" lon="1.49182">
        <ele>129</ele>
        <time>2024-12-19T18:24:19.994+00:00</time>
      </trkpt>
      <trkpt lat="48.4473" lon="1.49186">
        <ele>129</ele>
        <time>2024-12-19T18:24:24.368+00:00</time>
      </trkpt>
      <trkpt lat="48.44726" lon="1.49188">
        <ele>129</ele>
        <time>2024-12-19T18:24:28.477+00:00</time>
      </trkpt>
      <trkpt lat="48.44722" lon="1.49191">
        <ele>129</ele>
        <time>2024-12-19T18:24:32.573+00:00</time>
      </trkpt>
      <trkpt lat="48.44717" lon="1.49194">
        <ele>129</ele>
        <time>2024-12-19T18:24:36.695+00:00</time>
      </trkpt>
      <trkpt lat="48.44712" lon="1.49196">
        <ele>129</ele>
        <time>2024-12-19T18:24:41.212+00:00</time>
      </trkpt>
      <trkpt lat="48.44709" lon="1.49199">
        <ele>129</ele>
        <time>2024-12-19T18:24:45.432+00:00</time>
      </trkpt>
      <trkpt lat="48.44705" lon="1.492">
        <ele>127</ele>
        <time>2024-12-19T18:24:49.676+00:00</time>
      </trkpt>
      <trkpt lat="48.44701" lon="1.492">
        <ele>127</ele>
        <time>2024-12-19T18:24:53.919+00:00</time>
      </trkpt>
      <trkpt lat="48.44698" lon="1.49197">
        <ele>127</ele>
        <time>2024-12-19T18:24:58.251+00:00</time>
      </trkpt>
      <trkpt lat="48.44699" lon="1.49189">
        <ele>127</ele>
        <time>2024-12-19T18:25:02.825+00:00</time>
      </trkpt>
      <trkpt lat="48.44699" lon="1.49181">
        <ele>127</ele>
        <time>2024-12-19T18:25:07.266+00:00</time>
      </trkpt>
      <trkpt lat="48.447" lon="1.49173">
        <ele>127</ele>
        <time>2024-12-19T18:25:11.549+00:00</time>
      </trkpt>
      <trkpt lat="48.447" lon="1.49166">
        <ele>127</ele>
        <time>2024-12-19T18:25:15.935+00:00</time>
      </trkpt>
      <trkpt lat="48.447" lon="1.49161">
        <ele>127</ele>
        <time>2024-12-19T18:25:20.173+00:00</time>
      </trkpt>
      <trkpt lat="48.44701" lon="1.49154">
        <ele>127</ele>
        <time>2024-12-19T18:25:24.472+00:00</time>
      </trkpt>
      <trkpt lat="48.44701" lon="1.49148">
        <ele>128</ele>
        <time>2024-12-19T18:25:28.685+00:00</time>
      </trkpt>
      <trkpt lat="48.44701" lon="1.49147">
        <ele>128</ele>
        <time>2024-12-19T18:25:32.986+00:00</time>
      </trkpt>
      <trkpt lat="48.447" lon="1.49138">
        <ele>128</ele>
        <time>2024-12-19T18:25:37.985+00:00</time>
      </trkpt>
      <trkpt lat="48.447" lon="1.49129">
        <ele>128</ele>
        <time>2024-12-19T18:25:42.568+00:00</time>
      </trkpt>
      <trkpt lat="48.44699" lon="1.49121">
        <ele>132</ele>
        <time>2024-12-19T18:25:46.986+00:00</time>
      </trkpt>
      <trkpt lat="48.447" lon="1.49112">
        <ele>132</ele>
        <time>2024-12-19T18:25:51.953+00:00</time>
      </trkpt>
      <trkpt lat="48.44698" lon="1.49106">
        <ele>132</ele>
        <time>2024-12-19T18:25:56.611+00:00</time>
      </trkpt>
      <trkpt lat="48.44695" lon="1.49095">
        <ele>135</ele>
        <time>2024-12-19T18:26:00.985+00:00</time>
      </trkpt>
      <trkpt lat="48.44696" lon="1.49085">
        <ele>135</ele>
        <time>2024-12-19T18:26:05.986+00:00</time>
      </trkpt>
      <trkpt lat="48.447" lon="1.4908">
        <ele>135</ele>
        <time>2024-12-19T18:26:10.393+00:00</time>
      </trkpt>
      <trkpt lat="48.44705" lon="1.49077">
        <ele>135</ele>
        <time>2024-12-19T18:26:14.985+00:00</time>
      </trkpt>
      <trkpt lat="48.44713" lon="1.49076">
        <ele>135</ele>
        <time>2024-12-19T18:26:19.691+00:00</time>
      </trkpt>
      <trkpt lat="48.44716" lon="1.49075">
        <ele>135</ele>
        <time>2024-12-19T18:26:23.985+00:00</time>
      </trkpt>
      <trkpt lat="48.44722" lon="1.49079">
        <ele>135</ele>
        <time>2024-12-19T18:26:28.985+00:00</time>
      </trkpt>
      <trkpt lat="48.44724" lon="1.49087">
        <ele>135</ele>
        <time>2024-12-19T18:26:33.746+00:00</time>
      </trkpt>
      <trkpt lat="48.44726" lon="1.49096">
        <ele>135</ele>
        <time>2024-12-19T18:26:37.848+00:00</time>
      </trkpt>
      <trkpt lat="48.44728" lon="1.49104">
        <ele>131</ele>
        <time>2024-12-19T18:26:42.243+00:00</time>
      </trkpt>
      <trkpt lat="48.44728" lon="1.49112">
        <ele>131</ele>
        <time>2024-12-19T18:26:46.805+00:00</time>
      </trkpt>
      <trkpt lat="48.44729" lon="1.4912">
        <ele>131</ele>
        <time>2024-12-19T18:26:51.206+00:00</time>
      </trkpt>
      <trkpt lat="48.44731" lon="1.49128">
        <ele>129</ele>
        <time>2024-12-19T18:26:55.728+00:00</time>
      </trkpt>
      <trkpt lat="48.44733" lon="1.49136">
        <ele>129</ele>
        <time>2024-12-19T18:27:00.247+00:00</time>
      </trkpt>
      <trkpt lat="48.44736" lon="1.49144">
        <ele>129</ele>
        <time>2024-12-19T18:27:04.694+00:00</time>
      </trkpt>
      <trkpt lat="48.44741" lon="1.49149">
        <ele>129</ele>
        <time>2024-12-19T18:27:09.188+00:00</time>
      </trkpt>
      <trkpt lat="48.44747" lon="1.49144">
        <ele>129</ele>
        <time>2024-12-19T18:27:13.985+00:00</time>
      </trkpt>
      <trkpt lat="48.44753" lon="1.49142">
        <ele>129</ele>
        <time>2024-12-19T18:27:18.795+00:00</time>
      </trkpt>
      <trkpt lat="48.44759" lon="1.49138">
        <ele>129</ele>
        <time>2024-12-19T18:27:23.527+00:00</time>
      </trkpt>
      <trkpt lat="48.44764" lon="1.49134">
        <ele>130</ele>
        <time>2024-12-19T18:27:27.650+00:00</time>
      </trkpt>
      <trkpt lat="48.44767" lon="1.49131">
        <ele>130</ele>
        <time>2024-12-19T18:27:31.985+00:00</time>
      </trkpt>
      <trkpt lat="48.44773" lon="1.49128">
        <ele>130</ele>
        <time>2024-12-19T18:27:36.613+00:00</time>
      </trkpt>
      <trkpt lat="48.44775" lon="1.49122">
        <ele>130</ele>
        <time>2024-12-19T18:27:40.985+00:00</time>
      </trkpt>
      <trkpt lat="48.44773" lon="1.49107">
        <ele>130</ele>
        <time>2024-12-19T18:27:45.985+00:00</time>
      </trkpt>
      <trkpt lat="48.44771" lon="1.49098">
        <ele>130</ele>
        <time>2024-12-19T18:27:50.565+00:00</time>
      </trkpt>
      <trkpt lat="48.44769" lon="1.49092">
        <ele>131</ele>
        <time>2024-12-19T18:27:54.985+00:00</time>
      </trkpt>
      <trkpt lat="48.44766" lon="1.49084">
        <ele>131</ele>
        <time>2024-12-19T18:27:59.470+00:00</time>
      </trkpt>
      <trkpt lat="48.44764" lon="1.49076">
        <ele>131</ele>
        <time>2024-12-19T18:28:03.947+00:00</time>
      </trkpt>
      <trkpt lat="48.44763" lon="1.49069">
        <ele>135</ele>
        <time>2024-12-19T18:28:07.973+00:00</time>
      </trkpt>
      <trkpt lat="48.44761" lon="1.49061">
        <ele>135</ele>
        <time>2024-12-19T18:28:11.985+00:00</time>
      </trkpt>
      <trkpt lat="48.44759" lon="1.49052">
        <ele>135</ele>
        <time>2024-12-19T18:28:16.213+00:00</time>
      </trkpt>
      <trkpt lat="48.44763" lon="1.49049">
        <ele>135</ele>
        <time>2024-12-19T18:28:20.826+00:00</time>
      </trkpt>
      <trkpt lat="48.44768" lon="1.49047">
        <ele>135</ele>
        <time>2024-12-19T18:28:25.313+00:00</time>
      </trkpt>
      <trkpt lat="48.44773" lon="1.49044">
        <ele>135</ele>
        <time>2024-12-19T18:28:29.985+00:00</time>
      </trkpt>
      <trkpt lat="48.4478" lon="1.4904">
        <ele>138</ele>
        <time>2024-12-19T18:28:34.489+00:00</time>
      </trkpt>
      <trkpt lat="48.44786" lon="1.4904">
        <ele>138</ele>
        <time>2024-12-19T18:28:38.985+00:00</time>
      </trkpt>
      <trkpt lat="48.44792" lon="1.49039">
        <ele>138</ele>
        <time>2024-12-19T18:28:43.530+00:00</time>
      </trkpt>
      <trkpt lat="48.44796" lon="1.49038">
        <ele>136</ele>
        <time>2024-12-19T18:28:47.589+00:00</time>
      </trkpt>
      <trkpt lat="48.44801" lon="1.49037">
        <ele>136</ele>
        <time>2024-12-19T18:28:51.986+00:00</time>
      </trkpt>
      <trkpt lat="48.44806" lon="1.49036">
        <ele>136</ele>
        <time>2024-12-19T18:28:56.690+00:00</time>
      </trkpt>
      <trkpt lat="48.44811" lon="1.49035">
        <ele>136</ele>
        <time>2024-12-19T18:29:00.886+00:00</time>
      </trkpt>
      <trkpt lat="48.44813" lon="1.49042">
        <ele>132</ele>
        <time>2024-12-19T18:29:20.986+00:00</time>
      </trkpt>
      <trkpt lat="48.44813" lon="1.49043">
        <ele>132</ele>
        <time>2024-12-19T18:29:25.466+00:00</time>
      </trkpt>
      <trkpt lat="48.44816" lon="1.49052">
        <ele>132</ele>
        <time>2024-12-19T18:29:29.986+00:00</time>
      </trkpt>
      <trkpt lat="48.44814" lon="1.49059">
        <ele>132</ele>
        <time>2024-12-19T18:29:34.309+00:00</time>
      </trkpt>
      <trkpt lat="48.44817" lon="1.49066">
        <ele>132</ele>
        <time>2024-12-19T18:29:38.415+00:00</time>
      </trkpt>
      <trkpt lat="48.4482" lon="1.49074">
        <ele>128</ele>
        <time>2024-12-19T18:29:42.770+00:00</time>
      </trkpt>
      <trkpt lat="48.44823" lon="1.49081">
        <ele>128</ele>
        <time>2024-12-19T18:29:47.172+00:00</time>
      </trkpt>
      <trkpt lat="48.44826" lon="1.49089">
        <ele>128</ele>
        <time>2024-12-19T18:29:51.648+00:00</time>
      </trkpt>
      <trkpt lat="48.44828" lon="1.49095">
        <ele>128</ele>
        <time>2024-12-19T18:29:55.733+00:00</time>
      </trkpt>
      <trkpt lat="48.44831" lon="1.49096">
        <ele>128</ele>
        <time>2024-12-19T18:29:59.946+00:00</time>
      </trkpt>
      <trkpt lat="48.44831" lon="1.49097">
        <ele>128</ele>
        <time>2024-12-19T18:30:03.985+00:00</time>
      </trkpt>
      <trkpt lat="48.44831" lon="1.49097">
        <ele>128</ele>
        <time>2024-12-19T18:30:08.315+00:00</time>
      </trkpt>
      <trkpt lat="48.44832" lon="1.49107">
        <ele>128</ele>
        <time>2024-12-19T18:30:12.985+00:00</time>
      </trkpt>
      <trkpt lat="48.44833" lon="1.49115">
        <ele>128</ele>
        <time>2024-12-19T18:30:17.610+00:00</time>
      </trkpt>
      <trkpt lat="48.44836" lon="1.4912">
        <ele>128</ele>
        <time>2024-12-19T18:30:21.985+00:00</time>
      </trkpt>
      <trkpt lat="48.44841" lon="1.49122">
        <ele>128</ele>
        <time>2024-12-19T18:30:26.870+00:00</time>
      </trkpt>
      <trkpt lat="48.44845" lon="1.49117">
        <ele>128</ele>
        <time>2024-12-19T18:30:30.985+00:00</time>
      </trkpt>
      <trkpt lat="48.44848" lon="1.49113">
        <ele>129</ele>
        <time>2024-12-19T18:30:35.764+00:00</time>
      </trkpt>
      <trkpt lat="48.44853" lon="1.49111">
        <ele>129</ele>
        <time>2024-12-19T18:30:39.985+00:00</time>
      </trkpt>
      <trkpt lat="48.44857" lon="1.49106">
        <ele>129</ele>
        <time>2024-12-19T18:30:44.532+00:00</time>
      </trkpt>
      <trkpt lat="48.44861" lon="1.49104">
        <ele>129</ele>
        <time>2024-12-19T18:30:48.610+00:00</time>
      </trkpt>
      <trkpt lat="48.44866" lon="1.49099">
        <ele>129</ele>
        <time>2024-12-19T18:30:52.907+00:00</time>
      </trkpt>
      <trkpt lat="48.44868" lon="1.4909">
        <ele>128</ele>
        <time>2024-12-19T18:30:56.985+00:00</time>
      </trkpt>
      <trkpt lat="48.44875" lon="1.49089">
        <ele>128</ele>
        <time>2024-12-19T18:31:01.725+00:00</time>
      </trkpt>
      <trkpt lat="48.44881" lon="1.49086">
        <ele>128</ele>
        <time>2024-12-19T18:31:05.913+00:00</time>
      </trkpt>
      <trkpt lat="48.44886" lon="1.49083">
        <ele>128</ele>
        <time>2024-12-19T18:31:09.985+00:00</time>
      </trkpt>
      <trkpt lat="48.44893" lon="1.49083">
        <ele>128</ele>
        <time>2024-12-19T18:31:14.645+00:00</time>
      </trkpt>
      <trkpt lat="48.44898" lon="1.4908">
        <ele>128</ele>
        <time>2024-12-19T18:31:18.749+00:00</time>
      </trkpt>
      <trkpt lat="48.44903" lon="1.49078">
        <ele>128</ele>
        <time>2024-12-19T18:31:22.789+00:00</time>
      </trkpt>
      <trkpt lat="48.44908" lon="1.49076">
        <ele>128</ele>
        <time>2024-12-19T18:31:26.985+00:00</time>
      </trkpt>
      <trkpt lat="48.44913" lon="1.49077">
        <ele>128</ele>
        <time>2024-12-19T18:31:31.353+00:00</time>
      </trkpt>
      <trkpt lat="48.44917" lon="1.49074">
        <ele>128</ele>
        <time>2024-12-19T18:31:35.889+00:00</time>
      </trkpt>
      <trkpt lat="48.44925" lon="1.49068">
        <ele>128</ele>
        <time>2024-12-19T18:31:40.426+00:00</time>
      </trkpt>
      <trkpt lat="48.4493" lon="1.49064">
        <ele>128</ele>
        <time>2024-12-19T18:31:44.985+00:00</time>
      </trkpt>
      <trkpt lat="48.44941" lon="1.49053">
        <ele>129</ele>
        <time>2024-12-19T18:32:09.986+00:00</time>
      </trkpt>
      <trkpt lat="48.44941" lon="1.49053">
        <ele>129</ele>
        <time>2024-12-19T18:32:14.985+00:00</time>
      </trkpt>
      <trkpt lat="48.44944" lon="1.49053">
        <ele>129</ele>
        <time>2024-12-19T18:32:19.673+00:00</time>
      </trkpt>
      <trkpt lat="48.4495" lon="1.49048">
        <ele>129</ele>
        <time>2024-12-19T18:32:23.985+00:00</time>
      </trkpt>
      <trkpt lat="48.44954" lon="1.49044">
        <ele>129</ele>
        <time>2024-12-19T18:32:28.854+00:00</time>
      </trkpt>
      <trkpt lat="48.44959" lon="1.4904">
        <ele>129</ele>
        <time>2024-12-19T18:32:32.998+00:00</time>
      </trkpt>
      <trkpt lat="48.44964" lon="1.49036">
        <ele>129</ele>
        <time>2024-12-19T18:32:37.613+00:00</time>
      </trkpt>
      <trkpt lat="48.44969" lon="1.49037">
        <ele>129</ele>
        <time>2024-12-19T18:32:41.985+00:00</time>
      </trkpt>
      <trkpt lat="48.44974" lon="1.49035">
        <ele>129</ele>
        <time>2024-12-19T18:32:46.508+00:00</time>
      </trkpt>
      <trkpt lat="48.4498" lon="1.49031">
        <ele>129</ele>
        <time>2024-12-19T18:33:18.985+00:00</time>
      </trkpt>
      <trkpt lat="48.4498" lon="1.49031">
        <ele>129</ele>
        <time>2024-12-19T18:33:23.986+00:00</time>
      </trkpt>
      <trkpt lat="48.4498" lon="1.49031">
        <ele>129</ele>
        <time>2024-12-19T18:33:27.986+00:00</time>
      </trkpt>
      <trkpt lat="48.44982" lon="1.49031">
        <ele>129</ele>
        <time>2024-12-19T18:33:31.985+00:00</time>
      </trkpt>
      <trkpt lat="48.44984" lon="1.49031">
        <ele>129</ele>
        <time>2024-12-19T18:33:36.533+00:00</time>
      </trkpt>
      <trkpt lat="48.44989" lon="1.49032">
        <ele>127</ele>
        <time>2024-12-19T18:33:40.907+00:00</time>
      </trkpt>
      <trkpt lat="48.44993" lon="1.49032">
        <ele>127</ele>
        <time>2024-12-19T18:33:44.985+00:00</time>
      </trkpt>
      <trkpt lat="48.44995" lon="1.49029">
        <ele>127</ele>
        <time>2024-12-19T18:33:49.445+00:00</time>
      </trkpt>
      <trkpt lat="48.44995" lon="1.49024">
        <ele>127</ele>
        <time>2024-12-19T18:33:53.488+00:00</time>
      </trkpt>
      <trkpt lat="48.44995" lon="1.49018">
        <ele>127</ele>
        <time>2024-12-19T18:33:57.472+00:00</time>
      </trkpt>
      <trkpt lat="48.44983" lon="1.49009">
        <ele>129</ele>
        <time>2024-12-19T18:34:18.985+00:00</time>
      </trkpt>
      <trkpt lat="48.44982" lon="1.49008">
        <ele>129</ele>
        <time>2024-12-19T18:34:23.413+00:00</time>
      </trkpt>
      <trkpt lat="48.44978" lon="1.49003">
        <ele>129</ele>
        <time>2024-12-19T18:34:27.473+00:00</time>
      </trkpt>
      <trkpt lat="48.44975" lon="1.48995">
        <ele>129</ele>
        <time>2024-12-19T18:34:31.746+00:00</time>
      </trkpt>
      <trkpt lat="48.44973" lon="1.48989">
        <ele>129</ele>
        <time>2024-12-19T18:34:35.968+00:00</time>
      </trkpt>
      <trkpt lat="48.44972" lon="1.48983">
        <ele>131</ele>
        <time>2024-12-19T18:34:40.310+00:00</time>
      </trkpt>
      <trkpt lat="48.4497" lon="1.48977">
        <ele>131</ele>
        <time>2024-12-19T18:34:44.788+00:00</time>
      </trkpt>
      <trkpt lat="48.44973" lon="1.48972">
        <ele>131</ele>
        <time>2024-12-19T18:34:49.487+00:00</time>
      </trkpt>
      <trkpt lat="48.44976" lon="1.48973">
        <ele>131</ele>
        <time>2024-12-19T18:34:51.985+00:00</time>
      </trkpt>
      <trkpt lat="48.44982" lon="1.48972">
        <ele>131</ele>
        <time>2024-12-19T18:34:58.985+00:00</time>
      </trkpt>
      <trkpt lat="48.44983" lon="1.48978">
        <ele>131</ele>
        <time>2024-12-19T18:35:08.772+00:00</time>
      </trkpt>
      <trkpt lat="48.44984" lon="1.4898">
        <ele>131</ele>
        <time>2024-12-19T18:35:12.985+00:00</time>
      </trkpt>
      <trkpt lat="48.44985" lon="1.48983">
        <ele>131</ele>
        <time>2024-12-19T18:35:17.985+00:00</time>
      </trkpt>
      <trkpt lat="48.44985" lon="1.48988">
        <ele>129</ele>
        <time>2024-12-19T18:35:21.985+00:00</time>
      </trkpt>
      <trkpt lat="48.44984" lon="1.4899">
        <ele>129</ele>
        <time>2024-12-19T18:35:26.986+00:00</time>
      </trkpt>
      <trkpt lat="48.44983" lon="1.48983">
        <ele>131</ele>
        <time>2024-12-19T18:36:42.437+00:00</time>
      </trkpt>
      <trkpt lat="48.4498" lon="1.48982">
        <ele>131</ele>
        <time>2024-12-19T18:36:46.681+00:00</time>
      </trkpt>
      <trkpt lat="48.44981" lon="1.4898">
        <ele>131</ele>
        <time>2024-12-19T18:36:50.894+00:00</time>
      </trkpt>
      <trkpt lat="48.4498" lon="1.48979">
        <ele>131</ele>
        <time>2024-12-19T18:36:55.985+00:00</time>
      </trkpt>
      <trkpt lat="48.44985" lon="1.48975">
        <ele>131</ele>
        <time>2024-12-19T18:37:00.333+00:00</time>
      </trkpt>
      <trkpt lat="48.44991" lon="1.48973">
        <ele>128</ele>
        <time>2024-12-19T18:37:04.985+00:00</time>
      </trkpt>
      <trkpt lat="48.44994" lon="1.48967">
        <ele>128</ele>
        <time>2024-12-19T18:37:09.357+00:00</time>
      </trkpt>
      <trkpt lat="48.45" lon="1.48963">
        <ele>128</ele>
        <time>2024-12-19T18:37:13.877+00:00</time>
      </trkpt>
      <trkpt lat="48.45007" lon="1.48961">
        <ele>128</ele>
        <time>2024-12-19T18:37:18.355+00:00</time>
      </trkpt>
      <trkpt lat="48.45011" lon="1.48959">
        <ele>128</ele>
        <time>2024-12-19T18:37:22.392+00:00</time>
      </trkpt>
      <trkpt lat="48.45018" lon="1.48957">
        <ele>135</ele>
        <time>2024-12-19T18:37:26.912+00:00</time>
      </trkpt>
      <trkpt lat="48.45024" lon="1.48956">
        <ele>135</ele>
        <time>2024-12-19T18:37:31.374+00:00</time>
      </trkpt>
      <trkpt lat="48.45031" lon="1.48958">
        <ele>135</ele>
        <time>2024-12-19T18:37:35.832+00:00</time>
      </trkpt>
      <trkpt lat="48.45035" lon="1.48959">
        <ele>130</ele>
        <time>2024-12-19T18:37:39.875+00:00</time>
      </trkpt>
      <trkpt lat="48.45038" lon="1.48962">
        <ele>130</ele>
        <time>2024-12-19T18:37:44.312+00:00</time>
      </trkpt>
      <trkpt lat="48.45043" lon="1.48963">
        <ele>131</ele>
        <time>2024-12-19T18:37:48.857+00:00</time>
      </trkpt>
      <trkpt lat="48.45046" lon="1.48964">
        <ele>131</ele>
        <time>2024-12-19T18:37:52.985+00:00</time>
      </trkpt>
      <trkpt lat="48.4505" lon="1.48964">
        <ele>131</ele>
        <time>2024-12-19T18:37:57.072+00:00</time>
      </trkpt>
      <trkpt lat="48.45053" lon="1.48958">
        <ele>135</ele>
        <time>2024-12-19T18:38:01.985+00:00</time>
      </trkpt>
      <trkpt lat="48.45052" lon="1.48948">
        <ele>135</ele>
        <time>2024-12-19T18:38:06.985+00:00</time>
      </trkpt>
      <trkpt lat="48.45053" lon="1.48939">
        <ele>135</ele>
        <time>2024-12-19T18:38:11.757+00:00</time>
      </trkpt>
      <trkpt lat="48.45056" lon="1.48932">
        <ele>135</ele>
        <time>2024-12-19T18:38:15.985+00:00</time>
      </trkpt>
      <trkpt lat="48.45056" lon="1.4892">
        <ele>140</ele>
        <time>2024-12-19T18:38:20.594+00:00</time>
      </trkpt>
      <trkpt lat="48.45056" lon="1.48911">
        <ele>140</ele>
        <time>2024-12-19T18:38:24.653+00:00</time>
      </trkpt>
      <trkpt lat="48.45056" lon="1.48905">
        <ele>140</ele>
        <time>2024-12-19T18:38:28.696+00:00</time>
      </trkpt>
      <trkpt lat="48.45056" lon="1.48898">
        <ele>142</ele>
        <time>2024-12-19T18:38:32.918+00:00</time>
      </trkpt>
      <trkpt lat="48.45055" lon="1.48891">
        <ele>142</ele>
        <time>2024-12-19T18:38:36.986+00:00</time>
      </trkpt>
      <trkpt lat="48.45052" lon="1.48883">
        <ele>142</ele>
        <time>2024-12-19T18:38:41.985+00:00</time>
      </trkpt>
      <trkpt lat="48.45049" lon="1.48877">
        <ele>142</ele>
        <time>2024-12-19T18:38:46.113+00:00</time>
      </trkpt>
      <trkpt lat="48.45046" lon="1.48871">
        <ele>145</ele>
        <time>2024-12-19T18:38:50.974+00:00</time>
      </trkpt>
      <trkpt lat="48.45042" lon="1.48864">
        <ele>145</ele>
        <time>2024-12-19T18:38:55.986+00:00</time>
      </trkpt>
      <trkpt lat="48.45038" lon="1.48859">
        <ele>146</ele>
        <time>2024-12-19T18:39:00.654+00:00</time>
      </trkpt>
      <trkpt lat="48.45035" lon="1.48854">
        <ele>146</ele>
        <time>2024-12-19T18:39:05.115+00:00</time>
      </trkpt>
      <trkpt lat="48.45031" lon="1.4885">
        <ele>146</ele>
        <time>2024-12-19T18:39:09.354+00:00</time>
      </trkpt>
      <trkpt lat="48.45029" lon="1.48844">
        <ele>149</ele>
        <time>2024-12-19T18:39:13.456+00:00</time>
      </trkpt>
      <trkpt lat="48.45026" lon="1.48837">
        <ele>149</ele>
        <time>2024-12-19T18:39:17.986+00:00</time>
      </trkpt>
      <trkpt lat="48.45022" lon="1.48832">
        <ele>149</ele>
        <time>2024-12-19T18:39:22.138+00:00</time>
      </trkpt>
      <trkpt lat="48.45017" lon="1.48826">
        <ele>149</ele>
        <time>2024-12-19T18:39:26.294+00:00</time>
      </trkpt>
      <trkpt lat="48.45015" lon="1.48817">
        <ele>151</ele>
        <time>2024-12-19T18:39:30.753+00:00</time>
      </trkpt>
      <trkpt lat="48.45014" lon="1.48815">
        <ele>151</ele>
        <time>2024-12-19T18:39:35.357+00:00</time>
      </trkpt>
      <trkpt lat="48.45013" lon="1.48815">
        <ele>153</ele>
        <time>2024-12-19T18:39:39.986+00:00</time>
      </trkpt>
      <trkpt lat="48.45012" lon="1.48814">
        <ele>153</ele>
        <time>2024-12-19T18:39:44.986+00:00</time>
      </trkpt>
      <trkpt lat="48.45012" lon="1.48813">
        <ele>153</ele>
        <time>2024-12-19T18:39:49.532+00:00</time>
      </trkpt>
      <trkpt lat="48.45011" lon="1.48813">
        <ele>153</ele>
        <time>2024-12-19T18:39:53.986+00:00</time>
      </trkpt>
      <trkpt lat="48.45006" lon="1.48806">
        <ele>153</ele>
        <time>2024-12-19T18:39:58.514+00:00</time>
      </trkpt>
      <trkpt lat="48.45" lon="1.488">
        <ele>153</ele>
        <time>2024-12-19T18:40:02.557+00:00</time>
      </trkpt>
      <trkpt lat="48.44996" lon="1.48793">
        <ele>153</ele>
        <time>2024-12-19T18:40:06.801+00:00</time>
      </trkpt>
      <trkpt lat="48.44992" lon="1.48788">
        <ele>153</ele>
        <time>2024-12-19T18:40:10.955+00:00</time>
      </trkpt>
      <trkpt lat="48.44987" lon="1.48783">
        <ele>153</ele>
        <time>2024-12-19T18:40:14.986+00:00</time>
      </trkpt>
      <trkpt lat="48.44984" lon="1.48777">
        <ele>157</ele>
        <time>2024-12-19T18:40:19.723+00:00</time>
      </trkpt>
      <trkpt lat="48.44978" lon="1.48771">
        <ele>157</ele>
        <time>2024-12-19T18:40:24.116+00:00</time>
      </trkpt>
      <trkpt lat="48.44974" lon="1.48767">
        <ele>157</ele>
        <time>2024-12-19T18:40:28.396+00:00</time>
      </trkpt>
      <trkpt lat="48.44969" lon="1.48763">
        <ele>156</ele>
        <time>2024-12-19T18:40:32.986+00:00</time>
      </trkpt>
      <trkpt lat="48.44964" lon="1.4876">
        <ele>156</ele>
        <time>2024-12-19T18:40:37.572+00:00</time>
      </trkpt>
      <trkpt lat="48.44958" lon="1.48755">
        <ele>156</ele>
        <time>2024-12-19T18:40:41.780+00:00</time>
      </trkpt>
      <trkpt lat="48.44953" lon="1.4875">
        <ele>158</ele>
        <time>2024-12-19T18:40:45.986+00:00</time>
      </trkpt>
      <trkpt lat="48.44951" lon="1.48742">
        <ele>158</ele>
        <time>2024-12-19T18:40:50.817+00:00</time>
      </trkpt>
      <trkpt lat="48.44948" lon="1.48737">
        <ele>158</ele>
        <time>2024-12-19T18:40:55.713+00:00</time>
      </trkpt>
      <trkpt lat="48.44948" lon="1.4874">
        <ele>158</ele>
        <time>2024-12-19T18:40:59.986+00:00</time>
      </trkpt>
      <trkpt lat="48.44945" lon="1.48742">
        <ele>158</ele>
        <time>2024-12-19T18:41:04.555+00:00</time>
      </trkpt>
      <trkpt lat="48.4494" lon="1.4875">
        <ele>158</ele>
        <time>2024-12-19T18:41:09.195+00:00</time>
      </trkpt>
      <trkpt lat="48.44935" lon="1.48756">
        <ele>158</ele>
        <time>2024-12-19T18:41:13.817+00:00</time>
      </trkpt>
      <trkpt lat="48.44931" lon="1.48761">
        <ele>158</ele>
        <time>2024-12-19T18:41:18.397+00:00</time>
      </trkpt>
      <trkpt lat="48.44927" lon="1.48767">
        <ele>161</ele>
        <time>2024-12-19T18:41:22.986+00:00</time>
      </trkpt>
      <trkpt lat="48.44923" lon="1.48772">
        <ele>161</ele>
        <time>2024-12-19T18:41:27.603+00:00</time>
      </trkpt>
      <trkpt lat="48.44918" lon="1.48777">
        <ele>161</ele>
        <time>2024-12-19T18:41:32.194+00:00</time>
      </trkpt>
      <trkpt lat="48.44916" lon="1.4877">
        <ele>161</ele>
        <time>2024-12-19T18:41:36.878+00:00</time>
      </trkpt>
      <trkpt lat="48.44911" lon="1.48767">
        <ele>161</ele>
        <time>2024-12-19T18:41:40.986+00:00</time>
      </trkpt>
      <trkpt lat="48.44906" lon="1.48765">
        <ele>161</ele>
        <time>2024-12-19T18:41:45.987+00:00</time>
      </trkpt>
      <trkpt lat="48.44901" lon="1.48761">
        <ele>160</ele>
        <time>2024-12-19T18:41:50.717+00:00</time>
      </trkpt>
      <trkpt lat="48.44898" lon="1.48758">
        <ele>160</ele>
        <time>2024-12-19T18:42:36.993+00:00</time>
      </trkpt>
      <trkpt lat="48.44891" lon="1.48754">
        <ele>160</ele>
        <time>2024-12-19T18:42:41.236+00:00</time>
      </trkpt>
      <trkpt lat="48.44888" lon="1.48748">
        <ele>160</ele>
        <time>2024-12-19T18:42:45.987+00:00</time>
      </trkpt>
      <trkpt lat="48.44883" lon="1.48742">
        <ele>160</ele>
        <time>2024-12-19T18:42:50.857+00:00</time>
      </trkpt>
      <trkpt lat="48.44881" lon="1.48737">
        <ele>160</ele>
        <time>2024-12-19T18:42:54.987+00:00</time>
      </trkpt>
      <trkpt lat="48.4488" lon="1.48733">
        <ele>160</ele>
        <time>2024-12-19T18:42:59.978+00:00</time>
      </trkpt>
      <trkpt lat="48.44875" lon="1.48727">
        <ele>160</ele>
        <time>2024-12-19T18:43:04.919+00:00</time>
      </trkpt>
      <trkpt lat="48.44874" lon="1.48725">
        <ele>160</ele>
        <time>2024-12-19T18:43:08.987+00:00</time>
      </trkpt>
      <trkpt lat="48.44871" lon="1.48721">
        <ele>160</ele>
        <time>2024-12-19T18:43:13.592+00:00</time>
      </trkpt>
      <trkpt lat="48.44866" lon="1.48718">
        <ele>160</ele>
        <time>2024-12-19T18:43:18.986+00:00</time>
      </trkpt>
      <trkpt lat="48.44864" lon="1.48719">
        <ele>160</ele>
        <time>2024-12-19T18:43:23.177+00:00</time>
      </trkpt>
      <trkpt lat="48.44856" lon="1.48712">
        <ele>160</ele>
        <time>2024-12-19T18:43:27.817+00:00</time>
      </trkpt>
      <trkpt lat="48.44852" lon="1.48709">
        <ele>160</ele>
        <time>2024-12-19T18:43:31.986+00:00</time>
      </trkpt>
      <trkpt lat="48.44847" lon="1.48705">
        <ele>161</ele>
        <time>2024-12-19T18:43:36.456+00:00</time>
      </trkpt>
      <trkpt lat="48.44843" lon="1.48702">
        <ele>161</ele>
        <time>2024-12-19T18:43:40.986+00:00</time>
      </trkpt>
      <trkpt lat="48.44837" lon="1.48705">
        <ele>161</ele>
        <time>2024-12-19T18:43:45.837+00:00</time>
      </trkpt>
      <trkpt lat="48.44835" lon="1.48711">
        <ele>163</ele>
        <time>2024-12-19T18:43:49.955+00:00</time>
      </trkpt>
      <trkpt lat="48.44833" lon="1.48717">
        <ele>163</ele>
        <time>2024-12-19T18:43:53.987+00:00</time>
      </trkpt>
      <trkpt lat="48.4483" lon="1.48724">
        <ele>163</ele>
        <time>2024-12-19T18:43:58.476+00:00</time>
      </trkpt>
      <trkpt lat="48.44826" lon="1.48727">
        <ele>163</ele>
        <time>2024-12-19T18:44:02.882+00:00</time>
      </trkpt>
      <trkpt lat="48.44824" lon="1.48734">
        <ele>163</ele>
        <time>2024-12-19T18:44:09.986+00:00</time>
      </trkpt>
      <trkpt lat="48.44822" lon="1.48745">
        <ele>164</ele>
        <time>2024-12-19T18:44:51.986+00:00</time>
      </trkpt>
      <trkpt lat="48.44821" lon="1.48749">
        <ele>164</ele>
        <time>2024-12-19T18:44:56.986+00:00</time>
      </trkpt>
      <trkpt lat="48.44823" lon="1.48755">
        <ele>164</ele>
        <time>2024-12-19T18:45:01.986+00:00</time>
      </trkpt>
      <trkpt lat="48.44823" lon="1.48755">
        <ele>164</ele>
        <time>2024-12-19T18:45:07.986+00:00</time>
      </trkpt>
      <trkpt lat="48.44824" lon="1.48757">
        <ele>164</ele>
        <time>2024-12-19T18:45:11.986+00:00</time>
      </trkpt>
      <trkpt lat="48.44828" lon="1.48759">
        <ele>164</ele>
        <time>2024-12-19T18:45:16.257+00:00</time>
      </trkpt>
      <trkpt lat="48.44832" lon="1.48763">
        <ele>164</ele>
        <time>2024-12-19T18:45:20.713+00:00</time>
      </trkpt>
      <trkpt lat="48.44835" lon="1.48768">
        <ele>165</ele>
        <time>2024-12-19T18:45:24.986+00:00</time>
      </trkpt>
      <trkpt lat="48.44835" lon="1.48769">
        <ele>165</ele>
        <time>2024-12-19T18:45:29.655+00:00</time>
      </trkpt>
      <trkpt lat="48.44836" lon="1.48773">
        <ele>165</ele>
        <time>2024-12-19T18:45:57.986+00:00</time>
      </trkpt>
      <trkpt lat="48.44838" lon="1.48775">
        <ele>165</ele>
        <time>2024-12-19T18:46:02.495+00:00</time>
      </trkpt>
      <trkpt lat="48.44828" lon="1.48763">
        <ele>164</ele>
        <time>2024-12-19T18:46:06.986+00:00</time>
      </trkpt>
      <trkpt lat="48.44823" lon="1.48753">
        <ele>164</ele>
        <time>2024-12-19T18:46:11.942+00:00</time>
      </trkpt>
      <trkpt lat="48.44822" lon="1.48747">
        <ele>164</ele>
        <time>2024-12-19T18:46:15.986+00:00</time>
      </trkpt>
      <trkpt lat="48.44813" lon="1.48741">
        <ele>166</ele>
        <time>2024-12-19T18:47:35.986+00:00</time>
      </trkpt>
      <trkpt lat="48.44813" lon="1.48741">
        <ele>166</ele>
        <time>2024-12-19T18:47:42.987+00:00</time>
      </trkpt>
      <trkpt lat="48.44813" lon="1.48741">
        <ele>166</ele>
        <time>2024-12-19T18:47:48.986+00:00</time>
      </trkpt>
      <trkpt lat="48.44814" lon="1.48737">
        <ele>166</ele>
        <time>2024-12-19T18:47:52.986+00:00</time>
      </trkpt>
      <trkpt lat="48.44811" lon="1.48733">
        <ele>164</ele>
        <time>2024-12-19T18:47:57.333+00:00</time>
      </trkpt>
      <trkpt lat="48.4481" lon="1.4873">
        <ele>164</ele>
        <time>2024-12-19T18:48:01.790+00:00</time>
      </trkpt>
      <trkpt lat="48.44806" lon="1.48727">
        <ele>164</ele>
        <time>2024-12-19T18:48:06.333+00:00</time>
      </trkpt>
      <trkpt lat="48.44802" lon="1.48722">
        <ele>164</ele>
        <time>2024-12-19T18:48:10.875+00:00</time>
      </trkpt>
      <trkpt lat="48.44798" lon="1.48717">
        <ele>164</ele>
        <time>2024-12-19T18:48:15.961+00:00</time>
      </trkpt>
      <trkpt lat="48.44795" lon="1.48712">
        <ele>164</ele>
        <time>2024-12-19T18:48:19.986+00:00</time>
      </trkpt>
      <trkpt lat="48.44792" lon="1.48713">
        <ele>164</ele>
        <time>2024-12-19T18:48:24.987+00:00</time>
      </trkpt>
      <trkpt lat="48.44788" lon="1.48708">
        <ele>162</ele>
        <time>2024-12-19T18:48:29.401+00:00</time>
      </trkpt>
      <trkpt lat="48.44786" lon="1.48706">
        <ele>162</ele>
        <time>2024-12-19T18:48:33.628+00:00</time>
      </trkpt>
      <trkpt lat="48.44781" lon="1.48701">
        <ele>162</ele>
        <time>2024-12-19T18:48:38.799+00:00</time>
      </trkpt>
      <trkpt lat="48.44777" lon="1.48698">
        <ele>162</ele>
        <time>2024-12-19T18:48:43.138+00:00</time>
      </trkpt>
      <trkpt lat="48.44774" lon="1.48695">
        <ele>162</ele>
        <time>2024-12-19T18:48:47.376+00:00</time>
      </trkpt>
      <trkpt lat="48.44769" lon="1.4869">
        <ele>162</ele>
        <time>2024-12-19T18:48:51.986+00:00</time>
      </trkpt>
      <trkpt lat="48.44766" lon="1.48686">
        <ele>162</ele>
        <time>2024-12-19T18:48:56.093+00:00</time>
      </trkpt>
      <trkpt lat="48.44762" lon="1.48684">
        <ele>160</ele>
        <time>2024-12-19T18:49:00.478+00:00</time>
      </trkpt>
      <trkpt lat="48.44758" lon="1.48681">
        <ele>160</ele>
        <time>2024-12-19T18:49:04.673+00:00</time>
      </trkpt>
      <trkpt lat="48.44752" lon="1.48679">
        <ele>160</ele>
        <time>2024-12-19T18:49:08.716+00:00</time>
      </trkpt>
      <trkpt lat="48.44745" lon="1.48683">
        <ele>160</ele>
        <time>2024-12-19T18:49:12.913+00:00</time>
      </trkpt>
      <trkpt lat="48.44741" lon="1.48689">
        <ele>160</ele>
        <time>2024-12-19T18:49:17.177+00:00</time>
      </trkpt>
      <trkpt lat="48.44737" lon="1.48688">
        <ele>160</ele>
        <time>2024-12-19T18:49:21.674+00:00</time>
      </trkpt>
      <trkpt lat="48.44735" lon="1.48686">
        <ele>160</ele>
        <time>2024-12-19T18:49:25.986+00:00</time>
      </trkpt>
      <trkpt lat="48.44738" lon="1.48688">
        <ele>160</ele>
        <time>2024-12-19T18:49:39.986+00:00</time>
      </trkpt>
      <trkpt lat="48.44739" lon="1.48692">
        <ele>160</ele>
        <time>2024-12-19T18:49:43.986+00:00</time>
      </trkpt>
      <trkpt lat="48.44735" lon="1.48694">
        <ele>160</ele>
        <time>2024-12-19T18:49:48.986+00:00</time>
      </trkpt>
      <trkpt lat="48.44737" lon="1.48695">
        <ele>160</ele>
        <time>2024-12-19T18:49:54.002+00:00</time>
      </trkpt>
      <trkpt lat="48.44736" lon="1.48706">
        <ele>160</ele>
        <time>2024-12-19T18:49:58.987+00:00</time>
      </trkpt>
      <trkpt lat="48.44734" lon="1.48715">
        <ele>161</ele>
        <time>2024-12-19T18:50:03.856+00:00</time>
      </trkpt>
      <trkpt lat="48.44729" lon="1.48721">
        <ele>161</ele>
        <time>2024-12-19T18:50:07.986+00:00</time>
      </trkpt>
      <trkpt lat="48.44724" lon="1.48722">
        <ele>161</ele>
        <time>2024-12-19T18:50:12.523+00:00</time>
      </trkpt>
      <trkpt lat="48.44718" lon="1.48722">
        <ele>161</ele>
        <time>2024-12-19T18:50:17.006+00:00</time>
      </trkpt>
      <trkpt lat="48.44713" lon="1.48718">
        <ele>161</ele>
        <time>2024-12-19T18:50:21.621+00:00</time>
      </trkpt>
      <trkpt lat="48.44711" lon="1.48712">
        <ele>161</ele>
        <time>2024-12-19T18:50:25.677+00:00</time>
      </trkpt>
      <trkpt lat="48.44707" lon="1.48706">
        <ele>161</ele>
        <time>2024-12-19T18:50:29.987+00:00</time>
      </trkpt>
      <trkpt lat="48.44704" lon="1.487">
        <ele>161</ele>
        <time>2024-12-19T18:50:34.617+00:00</time>
      </trkpt>
      <trkpt lat="48.44706" lon="1.48691">
        <ele>161</ele>
        <time>2024-12-19T18:51:27.986+00:00</time>
      </trkpt>
      <trkpt lat="48.44705" lon="1.48691">
        <ele>161</ele>
        <time>2024-12-19T18:51:32.986+00:00</time>
      </trkpt>
      <trkpt lat="48.44704" lon="1.48691">
        <ele>161</ele>
        <time>2024-12-19T18:51:37.987+00:00</time>
      </trkpt>
      <trkpt lat="48.44703" lon="1.48691">
        <ele>161</ele>
        <time>2024-12-19T18:51:41.986+00:00</time>
      </trkpt>
      <trkpt lat="48.44702" lon="1.48691">
        <ele>161</ele>
        <time>2024-12-19T18:51:46.986+00:00</time>
      </trkpt>
      <trkpt lat="48.44699" lon="1.48694">
        <ele>161</ele>
        <time>2024-12-19T18:58:51.986+00:00</time>
      </trkpt>
      <trkpt lat="48.44699" lon="1.48695">
        <ele>161</ele>
        <time>2024-12-19T18:58:56.619+00:00</time>
      </trkpt>
      <trkpt lat="48.44698" lon="1.48697">
        <ele>161</ele>
        <time>2024-12-19T18:59:00.797+00:00</time>
      </trkpt>
      <trkpt lat="48.44697" lon="1.48698">
        <ele>161</ele>
        <time>2024-12-19T18:59:05.986+00:00</time>
      </trkpt>
      <trkpt lat="48.44696" lon="1.487">
        <ele>161</ele>
        <time>2024-12-19T18:59:10.515+00:00</time>
      </trkpt>
      <trkpt lat="48.44694" lon="1.48702">
        <ele>161</ele>
        <time>2024-12-19T18:59:25.986+00:00</time>
      </trkpt>
      <trkpt lat="48.44695" lon="1.48704">
        <ele>161</ele>
        <time>2024-12-19T18:59:30.986+00:00</time>
      </trkpt>
      <trkpt lat="48.44695" lon="1.48703">
        <ele>161</ele>
        <time>2024-12-19T18:59:35.497+00:00</time>
      </trkpt>
      <trkpt lat="48.44696" lon="1.48696">
        <ele>161</ele>
        <time>2024-12-19T18:59:39.986+00:00</time>
      </trkpt>
      <trkpt lat="48.44695" lon="1.48686">
        <ele>161</ele>
        <time>2024-12-19T18:59:44.992+00:00</time>
      </trkpt>
      <trkpt lat="48.44692" lon="1.48684">
        <ele>161</ele>
        <time>2024-12-19T18:59:49.496+00:00</time>
      </trkpt>
      <trkpt lat="48.44687" lon="1.48682">
        <ele>161</ele>
        <time>2024-12-19T18:59:53.898+00:00</time>
      </trkpt>
      <trkpt lat="48.44683" lon="1.48679">
        <ele>160</ele>
        <time>2024-12-19T18:59:58.986+00:00</time>
      </trkpt>
      <trkpt lat="48.44679" lon="1.48672">
        <ele>161</ele>
        <time>2024-12-19T19:00:03.895+00:00</time>
      </trkpt>
      <trkpt lat="48.44678" lon="1.4867">
        <ele>161</ele>
        <time>2024-12-19T19:00:07.986+00:00</time>
      </trkpt>
      <trkpt lat="48.44677" lon="1.48665">
        <ele>161</ele>
        <time>2024-12-19T19:00:13.003+00:00</time>
      </trkpt>
      <trkpt lat="48.44673" lon="1.48662">
        <ele>161</ele>
        <time>2024-12-19T19:00:17.414+00:00</time>
      </trkpt>
      <trkpt lat="48.44672" lon="1.48654">
        <ele>161</ele>
        <time>2024-12-19T19:00:21.654+00:00</time>
      </trkpt>
      <trkpt lat="48.44669" lon="1.48648">
        <ele>160</ele>
        <time>2024-12-19T19:00:25.936+00:00</time>
      </trkpt>
      <trkpt lat="48.44669" lon="1.48644">
        <ele>160</ele>
        <time>2024-12-19T19:00:29.986+00:00</time>
      </trkpt>
      <trkpt lat="48.44672" lon="1.4864">
        <ele>160</ele>
        <time>2024-12-19T19:00:34.921+00:00</time>
      </trkpt>
      <trkpt lat="48.44676" lon="1.4864">
        <ele>160</ele>
        <time>2024-12-19T19:00:38.986+00:00</time>
      </trkpt>
      <trkpt lat="48.44679" lon="1.48628">
        <ele>160</ele>
        <time>2024-12-19T19:00:43.986+00:00</time>
      </trkpt>
      <trkpt lat="48.44682" lon="1.48624">
        <ele>159</ele>
        <time>2024-12-19T19:00:48.987+00:00</time>
      </trkpt>
      <trkpt lat="48.44685" lon="1.48616">
        <ele>159</ele>
        <time>2024-12-19T19:00:53.478+00:00</time>
      </trkpt>
      <trkpt lat="48.44689" lon="1.48611">
        <ele>159</ele>
        <time>2024-12-19T19:00:57.693+00:00</time>
      </trkpt>
      <trkpt lat="48.44693" lon="1.48608">
        <ele>159</ele>
        <time>2024-12-19T19:01:01.986+00:00</time>
      </trkpt>
      <trkpt lat="48.44699" lon="1.48592">
        <ele>159</ele>
        <time>2024-12-19T19:01:44.358+00:00</time>
      </trkpt>
      <trkpt lat="48.44699" lon="1.48591">
        <ele>159</ele>
        <time>2024-12-19T19:01:48.834+00:00</time>
      </trkpt>
      <trkpt lat="48.44696" lon="1.48585">
        <ele>159</ele>
        <time>2024-12-19T19:01:52.986+00:00</time>
      </trkpt>
      <trkpt lat="48.44694" lon="1.48582">
        <ele>159</ele>
        <time>2024-12-19T19:01:56.987+00:00</time>
      </trkpt>
      <trkpt lat="48.44692" lon="1.48577">
        <ele>159</ele>
        <time>2024-12-19T19:02:01.986+00:00</time>
      </trkpt>
      <trkpt lat="48.44689" lon="1.48564">
        <ele>158</ele>
        <time>2024-12-19T19:02:27.986+00:00</time>
      </trkpt>
      <trkpt lat="48.4469" lon="1.48563">
        <ele>158</ele>
        <time>2024-12-19T19:02:32.943+00:00</time>
      </trkpt>
      <trkpt lat="48.44683" lon="1.48554">
        <ele>158</ele>
        <time>2024-12-19T19:02:36.986+00:00</time>
      </trkpt>
      <trkpt lat="48.44679" lon="1.48548">
        <ele>159</ele>
        <time>2024-12-19T19:02:41.986+00:00</time>
      </trkpt>
      <trkpt lat="48.44676" lon="1.48538">
        <ele>158</ele>
        <time>2024-12-19T19:02:46.986+00:00</time>
      </trkpt>
      <trkpt lat="48.44676" lon="1.48532">
        <ele>158</ele>
        <time>2024-12-19T19:02:51.803+00:00</time>
      </trkpt>
      <trkpt lat="48.44678" lon="1.48526">
        <ele>158</ele>
        <time>2024-12-19T19:02:55.986+00:00</time>
      </trkpt>
      <trkpt lat="48.44683" lon="1.48523">
        <ele>156</ele>
        <time>2024-12-19T19:03:00.758+00:00</time>
      </trkpt>
      <trkpt lat="48.44685" lon="1.48521">
        <ele>156</ele>
        <time>2024-12-19T19:03:05.987+00:00</time>
      </trkpt>
      <trkpt lat="48.44689" lon="1.48513">
        <ele>154</ele>
        <time>2024-12-19T19:03:10.986+00:00</time>
      </trkpt>
      <trkpt lat="48.44693" lon="1.48507">
        <ele>154</ele>
        <time>2024-12-19T19:03:15.734+00:00</time>
      </trkpt>
      <trkpt lat="48.44698" lon="1.485">
        <ele>154</ele>
        <time>2024-12-19T19:03:20.255+00:00</time>
      </trkpt>
      <trkpt lat="48.44701" lon="1.48498">
        <ele>154</ele>
        <time>2024-12-19T19:03:24.986+00:00</time>
      </trkpt>
      <trkpt lat="48.44702" lon="1.48496">
        <ele>154</ele>
        <time>2024-12-19T19:03:29.578+00:00</time>
      </trkpt>
      <trkpt lat="48.44702" lon="1.48496">
        <ele>154</ele>
        <time>2024-12-19T19:03:33.986+00:00</time>
      </trkpt>
      <trkpt lat="48.44704" lon="1.48496">
        <ele>154</ele>
        <time>2024-12-19T19:03:38.619+00:00</time>
      </trkpt>
      <trkpt lat="48.44707" lon="1.48489">
        <ele>154</ele>
        <time>2024-12-19T19:03:42.986+00:00</time>
      </trkpt>
      <trkpt lat="48.44711" lon="1.48483">
        <ele>152</ele>
        <time>2024-12-19T19:03:47.788+00:00</time>
      </trkpt>
      <trkpt lat="48.44711" lon="1.48481">
        <ele>152</ele>
        <time>2024-12-19T19:04:16.859+00:00</time>
      </trkpt>
      <trkpt lat="48.44709" lon="1.48482">
        <ele>152</ele>
        <time>2024-12-19T19:04:20.986+00:00</time>
      </trkpt>
      <trkpt lat="48.44709" lon="1.48484">
        <ele>152</ele>
        <time>2024-12-19T19:04:25.977+00:00</time>
      </trkpt>
      <trkpt lat="48.44707" lon="1.48486">
        <ele>153</ele>
        <time>2024-12-19T19:04:30.089+00:00</time>
      </trkpt>
      <trkpt lat="48.44703" lon="1.48486">
        <ele>153</ele>
        <time>2024-12-19T19:04:34.533+00:00</time>
      </trkpt>
      <trkpt lat="48.44705" lon="1.4849">
        <ele>154</ele>
        <time>2024-12-19T19:04:38.558+00:00</time>
      </trkpt>
      <trkpt lat="48.44701" lon="1.48496">
        <ele>154</ele>
        <time>2024-12-19T19:04:42.986+00:00</time>
      </trkpt>
      <trkpt lat="48.44696" lon="1.48502">
        <ele>154</ele>
        <time>2024-12-19T19:04:47.986+00:00</time>
      </trkpt>
      <trkpt lat="48.44694" lon="1.48506">
        <ele>154</ele>
        <time>2024-12-19T19:04:52.178+00:00</time>
      </trkpt>
      <trkpt lat="48.4469" lon="1.48514">
        <ele>154</ele>
        <time>2024-12-19T19:04:56.986+00:00</time>
      </trkpt>
      <trkpt lat="48.44686" lon="1.48518">
        <ele>156</ele>
        <time>2024-12-19T19:05:01.074+00:00</time>
      </trkpt>
      <trkpt lat="48.44681" lon="1.48523">
        <ele>156</ele>
        <time>2024-12-19T19:05:05.986+00:00</time>
      </trkpt>
      <trkpt lat="48.44677" lon="1.48529">
        <ele>158</ele>
        <time>2024-12-19T19:05:10.277+00:00</time>
      </trkpt>
      <trkpt lat="48.44672" lon="1.48536">
        <ele>158</ele>
        <time>2024-12-19T19:05:14.841+00:00</time>
      </trkpt>
      <trkpt lat="48.44669" lon="1.4854">
        <ele>158</ele>
        <time>2024-12-19T19:05:18.986+00:00</time>
      </trkpt>
      <trkpt lat="48.44665" lon="1.48545">
        <ele>159</ele>
        <time>2024-12-19T19:05:23.986+00:00</time>
      </trkpt>
      <trkpt lat="48.44663" lon="1.48549">
        <ele>159</ele>
        <time>2024-12-19T19:05:28.793+00:00</time>
      </trkpt>
      <trkpt lat="48.44662" lon="1.48546">
        <ele>159</ele>
        <time>2024-12-19T19:05:32.986+00:00</time>
      </trkpt>
      <trkpt lat="48.44662" lon="1.48546">
        <ele>159</ele>
        <time>2024-12-19T19:05:37.460+00:00</time>
      </trkpt>
      <trkpt lat="48.4466" lon="1.4855">
        <ele>159</ele>
        <time>2024-12-19T19:05:41.743+00:00</time>
      </trkpt>
      <trkpt lat="48.44657" lon="1.48555">
        <ele>159</ele>
        <time>2024-12-19T19:05:45.986+00:00</time>
      </trkpt>
      <trkpt lat="48.44656" lon="1.48559">
        <ele>159</ele>
        <time>2024-12-19T19:05:50.257+00:00</time>
      </trkpt>
      <trkpt lat="48.44652" lon="1.48564">
        <ele>160</ele>
        <time>2024-12-19T19:05:54.885+00:00</time>
      </trkpt>
      <trkpt lat="48.44651" lon="1.48569">
        <ele>160</ele>
        <time>2024-12-19T19:05:58.986+00:00</time>
      </trkpt>
      <trkpt lat="48.44651" lon="1.48582">
        <ele>160</ele>
        <time>2024-12-19T19:06:03.639+00:00</time>
      </trkpt>
      <trkpt lat="48.44644" lon="1.48579">
        <ele>160</ele>
        <time>2024-12-19T19:06:07.986+00:00</time>
      </trkpt>
      <trkpt lat="48.44641" lon="1.48585">
        <ele>160</ele>
        <time>2024-12-19T19:06:12.986+00:00</time>
      </trkpt>
      <trkpt lat="48.44637" lon="1.48591">
        <ele>160</ele>
        <time>2024-12-19T19:06:17.319+00:00</time>
      </trkpt>
      <trkpt lat="48.44633" lon="1.48593">
        <ele>160</ele>
        <time>2024-12-19T19:06:21.439+00:00</time>
      </trkpt>
      <trkpt lat="48.44629" lon="1.48598">
        <ele>161</ele>
        <time>2024-12-19T19:06:25.986+00:00</time>
      </trkpt>
      <trkpt lat="48.44625" lon="1.48602">
        <ele>162</ele>
        <time>2024-12-19T19:06:30.420+00:00</time>
      </trkpt>
      <trkpt lat="48.44621" lon="1.48604">
        <ele>162</ele>
        <time>2024-12-19T19:06:34.736+00:00</time>
      </trkpt>
      <trkpt lat="48.44618" lon="1.48607">
        <ele>162</ele>
        <time>2024-12-19T19:06:38.941+00:00</time>
      </trkpt>
      <trkpt lat="48.44614" lon="1.48614">
        <ele>162</ele>
        <time>2024-12-19T19:06:43.520+00:00</time>
      </trkpt>
      <trkpt lat="48.44611" lon="1.48617">
        <ele>162</ele>
        <time>2024-12-19T19:06:47.657+00:00</time>
      </trkpt>
      <trkpt lat="48.44608" lon="1.4862">
        <ele>162</ele>
        <time>2024-12-19T19:06:51.987+00:00</time>
      </trkpt>
      <trkpt lat="48.44605" lon="1.48625">
        <ele>162</ele>
        <time>2024-12-19T19:06:56.518+00:00</time>
      </trkpt>
      <trkpt lat="48.44602" lon="1.4863">
        <ele>162</ele>
        <time>2024-12-19T19:07:00.986+00:00</time>
      </trkpt>
      <trkpt lat="48.44596" lon="1.48637">
        <ele>163</ele>
        <time>2024-12-19T19:07:05.986+00:00</time>
      </trkpt>
      <trkpt lat="48.44592" lon="1.48641">
        <ele>163</ele>
        <time>2024-12-19T19:07:10.986+00:00</time>
      </trkpt>
      <trkpt lat="48.44588" lon="1.48646">
        <ele>163</ele>
        <time>2024-12-19T19:07:15.639+00:00</time>
      </trkpt>
      <trkpt lat="48.44584" lon="1.4865">
        <ele>163</ele>
        <time>2024-12-19T19:07:19.640+00:00</time>
      </trkpt>
      <trkpt lat="48.44581" lon="1.48656">
        <ele>163</ele>
        <time>2024-12-19T19:07:23.986+00:00</time>
      </trkpt>
      <trkpt lat="48.44576" lon="1.48662">
        <ele>163</ele>
        <time>2024-12-19T19:07:28.296+00:00</time>
      </trkpt>
      <trkpt lat="48.44577" lon="1.48668">
        <ele>163</ele>
        <time>2024-12-19T19:07:34.986+00:00</time>
      </trkpt>
      <trkpt lat="48.44577" lon="1.48672">
        <ele>163</ele>
        <time>2024-12-19T19:07:39.705+00:00</time>
      </trkpt>
      <trkpt lat="48.44578" lon="1.48675">
        <ele>163</ele>
        <time>2024-12-19T19:07:43.746+00:00</time>
      </trkpt>
      <trkpt lat="48.44579" lon="1.48677">
        <ele>163</ele>
        <time>2024-12-19T19:07:48.383+00:00</time>
      </trkpt>
      <trkpt lat="48.44583" lon="1.48684">
        <ele>163</ele>
        <time>2024-12-19T19:07:52.916+00:00</time>
      </trkpt>
      <trkpt lat="48.44587" lon="1.4869">
        <ele>163</ele>
        <time>2024-12-19T19:07:56.986+00:00</time>
      </trkpt>
      <trkpt lat="48.4459" lon="1.48696">
        <ele>163</ele>
        <time>2024-12-19T19:08:01.460+00:00</time>
      </trkpt>
      <trkpt lat="48.44592" lon="1.48695">
        <ele>163</ele>
        <time>2024-12-19T19:08:05.962+00:00</time>
      </trkpt>
      <trkpt lat="48.44594" lon="1.487">
        <ele>163</ele>
        <time>2024-12-19T19:08:09.986+00:00</time>
      </trkpt>
      <trkpt lat="48.44598" lon="1.48708">
        <ele>163</ele>
        <time>2024-12-19T19:08:14.639+00:00</time>
      </trkpt>
      <trkpt lat="48.44603" lon="1.48715">
        <ele>163</ele>
        <time>2024-12-19T19:08:18.986+00:00</time>
      </trkpt>
      <trkpt lat="48.44607" lon="1.4872">
        <ele>163</ele>
        <time>2024-12-19T19:08:23.679+00:00</time>
      </trkpt>
      <trkpt lat="48.4461" lon="1.48725">
        <ele>163</ele>
        <time>2024-12-19T19:08:28.141+00:00</time>
      </trkpt>
      <trkpt lat="48.44613" lon="1.48732">
        <ele>163</ele>
        <time>2024-12-19T19:08:32.593+00:00</time>
      </trkpt>
      <trkpt lat="48.44617" lon="1.48738">
        <ele>161</ele>
        <time>2024-12-19T19:08:36.987+00:00</time>
      </trkpt>
      <trkpt lat="48.44618" lon="1.48746">
        <ele>161</ele>
        <time>2024-12-19T19:08:41.602+00:00</time>
      </trkpt>
      <trkpt lat="48.44619" lon="1.48755">
        <ele>161</ele>
        <time>2024-12-19T19:08:45.986+00:00</time>
      </trkpt>
      <trkpt lat="48.4462" lon="1.4876">
        <ele>161</ele>
        <time>2024-12-19T19:08:50.986+00:00</time>
      </trkpt>
      <trkpt lat="48.44623" lon="1.48768">
        <ele>160</ele>
        <time>2024-12-19T19:08:55.700+00:00</time>
      </trkpt>
      <trkpt lat="48.44625" lon="1.48774">
        <ele>160</ele>
        <time>2024-12-19T19:08:59.986+00:00</time>
      </trkpt>
      <trkpt lat="48.44627" lon="1.48781">
        <ele>161</ele>
        <time>2024-12-19T19:09:03.987+00:00</time>
      </trkpt>
      <trkpt lat="48.44627" lon="1.48787">
        <ele>161</ele>
        <time>2024-12-19T19:09:08.219+00:00</time>
      </trkpt>
      <trkpt lat="48.44626" lon="1.48787">
        <ele>161</ele>
        <time>2024-12-19T19:09:12.987+00:00</time>
      </trkpt>
      <trkpt lat="48.44628" lon="1.48789">
        <ele>161</ele>
        <time>2024-12-19T19:09:17.580+00:00</time>
      </trkpt>
      <trkpt lat="48.44629" lon="1.48799">
        <ele>161</ele>
        <time>2024-12-19T19:09:21.986+00:00</time>
      </trkpt>
      <trkpt lat="48.44633" lon="1.48807">
        <ele>161</ele>
        <time>2024-12-19T19:09:26.560+00:00</time>
      </trkpt>
      <trkpt lat="48.44637" lon="1.48813">
        <ele>161</ele>
        <time>2024-12-19T19:09:30.978+00:00</time>
      </trkpt>
      <trkpt lat="48.4464" lon="1.48821">
        <ele>161</ele>
        <time>2024-12-19T19:09:34.986+00:00</time>
      </trkpt>
      <trkpt lat="48.44641" lon="1.4883">
        <ele>161</ele>
        <time>2024-12-19T19:09:39.261+00:00</time>
      </trkpt>
      <trkpt lat="48.44642" lon="1.48838">
        <ele>161</ele>
        <time>2024-12-19T19:09:43.661+00:00</time>
      </trkpt>
      <trkpt lat="48.44642" lon="1.48846">
        <ele>161</ele>
        <time>2024-12-19T19:09:48.181+00:00</time>
      </trkpt>
      <trkpt lat="48.44645" lon="1.48852">
        <ele>161</ele>
        <time>2024-12-19T19:09:52.581+00:00</time>
      </trkpt>
      <trkpt lat="48.44647" lon="1.48857">
        <ele>161</ele>
        <time>2024-12-19T19:09:55.986+00:00</time>
      </trkpt>
      <trkpt lat="48.4465" lon="1.48862">
        <ele>161</ele>
        <time>2024-12-19T19:10:01.986+00:00</time>
      </trkpt>
      <trkpt lat="48.44651" lon="1.48867">
        <ele>161</ele>
        <time>2024-12-19T19:10:06.987+00:00</time>
      </trkpt>
      <trkpt lat="48.44651" lon="1.4887">
        <ele>161</ele>
        <time>2024-12-19T19:10:10.986+00:00</time>
      </trkpt>
      <trkpt lat="48.44647" lon="1.48876">
        <ele>160</ele>
        <time>2024-12-19T19:10:15.986+00:00</time>
      </trkpt>
      <trkpt lat="48.44644" lon="1.48876">
        <ele>160</ele>
        <time>2024-12-19T19:10:20.986+00:00</time>
      </trkpt>
      <trkpt lat="48.44643" lon="1.48876">
        <ele>160</ele>
        <time>2024-12-19T19:10:24.986+00:00</time>
      </trkpt>
      <trkpt lat="48.4464" lon="1.48876">
        <ele>160</ele>
        <time>2024-12-19T19:10:29.986+00:00</time>
      </trkpt>
      <trkpt lat="48.44638" lon="1.48875">
        <ele>160</ele>
        <time>2024-12-19T19:10:34.458+00:00</time>
      </trkpt>
      <trkpt lat="48.44636" lon="1.48875">
        <ele>160</ele>
        <time>2024-12-19T19:10:38.986+00:00</time>
      </trkpt>
      <trkpt lat="48.44632" lon="1.48878">
        <ele>160</ele>
        <time>2024-12-19T19:10:43.986+00:00</time>
      </trkpt>
      <trkpt lat="48.44631" lon="1.4888">
        <ele>160</ele>
        <time>2024-12-19T19:10:48.986+00:00</time>
      </trkpt>
      <trkpt lat="48.44626" lon="1.48887">
        <ele>160</ele>
        <time>2024-12-19T19:11:11.262+00:00</time>
      </trkpt>
      <trkpt lat="48.44625" lon="1.48886">
        <ele>161</ele>
        <time>2024-12-19T19:11:15.816+00:00</time>
      </trkpt>
      <trkpt lat="48.44623" lon="1.48888">
        <ele>161</ele>
        <time>2024-12-19T19:11:19.986+00:00</time>
      </trkpt>
      <trkpt lat="48.44622" lon="1.48889">
        <ele>161</ele>
        <time>2024-12-19T19:11:25.561+00:00</time>
      </trkpt>
      <trkpt lat="48.44619" lon="1.48891">
        <ele>161</ele>
        <time>2024-12-19T19:11:29.986+00:00</time>
      </trkpt>
      <trkpt lat="48.44614" lon="1.489">
        <ele>161</ele>
        <time>2024-12-19T19:11:49.986+00:00</time>
      </trkpt>
      <trkpt lat="48.44615" lon="1.48901">
        <ele>161</ele>
        <time>2024-12-19T19:11:54.357+00:00</time>
      </trkpt>
      <trkpt lat="48.44615" lon="1.48901">
        <ele>161</ele>
        <time>2024-12-19T19:11:58.986+00:00</time>
      </trkpt>
      <trkpt lat="48.44614" lon="1.48904">
        <ele>161</ele>
        <time>2024-12-19T19:12:02.986+00:00</time>
      </trkpt>
      <trkpt lat="48.44612" lon="1.48908">
        <ele>161</ele>
        <time>2024-12-19T19:12:07.500+00:00</time>
      </trkpt>
      <trkpt lat="48.44612" lon="1.4891">
        <ele>161</ele>
        <time>2024-12-19T19:12:27.986+00:00</time>
      </trkpt>
      <trkpt lat="48.44611" lon="1.48912">
        <ele>161</ele>
        <time>2024-12-19T19:12:32.635+00:00</time>
      </trkpt>
      <trkpt lat="48.44607" lon="1.48918">
        <ele>161</ele>
        <time>2024-12-19T19:12:36.986+00:00</time>
      </trkpt>
      <trkpt lat="48.44605" lon="1.48923">
        <ele>161</ele>
        <time>2024-12-19T19:12:41.675+00:00</time>
      </trkpt>
      <trkpt lat="48.446" lon="1.4893">
        <ele>161</ele>
        <time>2024-12-19T19:12:46.179+00:00</time>
      </trkpt>
      <trkpt lat="48.44595" lon="1.48935">
        <ele>161</ele>
        <time>2024-12-19T19:12:50.700+00:00</time>
      </trkpt>
      <trkpt lat="48.44592" lon="1.48937">
        <ele>161</ele>
        <time>2024-12-19T19:12:54.986+00:00</time>
      </trkpt>
      <trkpt lat="48.44588" lon="1.48942">
        <ele>161</ele>
        <time>2024-12-19T19:12:59.987+00:00</time>
      </trkpt>
      <trkpt lat="48.44587" lon="1.48941">
        <ele>161</ele>
        <time>2024-12-19T19:13:03.987+00:00</time>
      </trkpt>
      <trkpt lat="48.44587" lon="1.48942">
        <ele>161</ele>
        <time>2024-12-19T19:13:09.334+00:00</time>
      </trkpt>
      <trkpt lat="48.44587" lon="1.48941">
        <ele>161</ele>
        <time>2024-12-19T19:13:13.359+00:00</time>
      </trkpt>
      <trkpt lat="48.44586" lon="1.48942">
        <ele>161</ele>
        <time>2024-12-19T19:13:17.986+00:00</time>
      </trkpt>
      <trkpt lat="48.44581" lon="1.48944">
        <ele>161</ele>
        <time>2024-12-19T19:13:22.987+00:00</time>
      </trkpt>
      <trkpt lat="48.44578" lon="1.48946">
        <ele>161</ele>
        <time>2024-12-19T19:13:27.441+00:00</time>
      </trkpt>
      <trkpt lat="48.4457" lon="1.48948">
        <ele>161</ele>
        <time>2024-12-19T19:13:51.986+00:00</time>
      </trkpt>
      <trkpt lat="48.4457" lon="1.48952">
        <ele>161</ele>
        <time>2024-12-19T19:13:56.617+00:00</time>
      </trkpt>
      <trkpt lat="48.4457" lon="1.48956">
        <ele>161</ele>
        <time>2024-12-19T19:14:00.986+00:00</time>
      </trkpt>
      <trkpt lat="48.44563" lon="1.48954">
        <ele>162</ele>
        <time>2024-12-19T19:14:05.593+00:00</time>
      </trkpt>
      <trkpt lat="48.4455" lon="1.48965">
        <ele>160</ele>
        <time>2024-12-19T19:14:09.986+00:00</time>
      </trkpt>
      <trkpt lat="48.44544" lon="1.48966">
        <ele>160</ele>
        <time>2024-12-19T19:14:14.736+00:00</time>
      </trkpt>
      <trkpt lat="48.44538" lon="1.48963">
        <ele>160</ele>
        <time>2024-12-19T19:14:18.975+00:00</time>
      </trkpt>
      <trkpt lat="48.44531" lon="1.48964">
        <ele>160</ele>
        <time>2024-12-19T19:14:23.939+00:00</time>
      </trkpt>
      <trkpt lat="48.44527" lon="1.48965">
        <ele>160</ele>
        <time>2024-12-19T19:14:27.987+00:00</time>
      </trkpt>
      <trkpt lat="48.44521" lon="1.48966">
        <ele>160</ele>
        <time>2024-12-19T19:14:32.935+00:00</time>
      </trkpt>
      <trkpt lat="48.44516" lon="1.48967">
        <ele>160</ele>
        <time>2024-12-19T19:14:36.986+00:00</time>
      </trkpt>
      <trkpt lat="48.44509" lon="1.48968">
        <ele>158</ele>
        <time>2024-12-19T19:14:41.814+00:00</time>
      </trkpt>
      <trkpt lat="48.44504" lon="1.48968">
        <ele>158</ele>
        <time>2024-12-19T19:14:46.217+00:00</time>
      </trkpt>
      <trkpt lat="48.44499" lon="1.48972">
        <ele>158</ele>
        <time>2024-12-19T19:14:50.555+00:00</time>
      </trkpt>
      <trkpt lat="48.44498" lon="1.48974">
        <ele>158</ele>
        <time>2024-12-19T19:14:54.640+00:00</time>
      </trkpt>
      <trkpt lat="48.44495" lon="1.48975">
        <ele>158</ele>
        <time>2024-12-19T19:14:58.836+00:00</time>
      </trkpt>
      <trkpt lat="48.4449" lon="1.48978">
        <ele>158</ele>
        <time>2024-12-19T19:15:02.986+00:00</time>
      </trkpt>
      <trkpt lat="48.44485" lon="1.4898">
        <ele>158</ele>
        <time>2024-12-19T19:15:06.986+00:00</time>
      </trkpt>
      <trkpt lat="48.44483" lon="1.48979">
        <ele>158</ele>
        <time>2024-12-19T19:15:11.475+00:00</time>
      </trkpt>
      <trkpt lat="48.4448" lon="1.48981">
        <ele>158</ele>
        <time>2024-12-19T19:15:15.638+00:00</time>
      </trkpt>
      <trkpt lat="48.44476" lon="1.48986">
        <ele>158</ele>
        <time>2024-12-19T19:15:19.885+00:00</time>
      </trkpt>
      <trkpt lat="48.44468" lon="1.48991">
        <ele>156</ele>
        <time>2024-12-19T19:17:27.441+00:00</time>
      </trkpt>
      <trkpt lat="48.44462" lon="1.48992">
        <ele>156</ele>
        <time>2024-12-19T19:17:31.817+00:00</time>
      </trkpt>
      <trkpt lat="48.44459" lon="1.48992">
        <ele>156</ele>
        <time>2024-12-19T19:17:35.986+00:00</time>
      </trkpt>
      <trkpt lat="48.44455" lon="1.4899">
        <ele>157</ele>
        <time>2024-12-19T19:17:40.635+00:00</time>
      </trkpt>
      <trkpt lat="48.4445" lon="1.48994">
        <ele>157</ele>
        <time>2024-12-19T19:17:44.798+00:00</time>
      </trkpt>
      <trkpt lat="48.44447" lon="1.48992">
        <ele>157</ele>
        <time>2024-12-19T19:19:20.986+00:00</time>
      </trkpt>
      <trkpt lat="48.4445" lon="1.48992">
        <ele>157</ele>
        <time>2024-12-19T19:19:25.986+00:00</time>
      </trkpt>
      <trkpt lat="48.44452" lon="1.48993">
        <ele>157</ele>
        <time>2024-12-19T19:19:30.326+00:00</time>
      </trkpt>
      <trkpt lat="48.44452" lon="1.48994">
        <ele>157</ele>
        <time>2024-12-19T19:19:34.949+00:00</time>
      </trkpt>
      <trkpt lat="48.44456" lon="1.48992">
        <ele>157</ele>
        <time>2024-12-19T19:19:39.128+00:00</time>
      </trkpt>
      <trkpt lat="48.44463" lon="1.48992">
        <ele>156</ele>
        <time>2024-12-19T19:19:43.987+00:00</time>
      </trkpt>
      <trkpt lat="48.44469" lon="1.4899">
        <ele>156</ele>
        <time>2024-12-19T19:19:48.509+00:00</time>
      </trkpt>
      <trkpt lat="48.44475" lon="1.48988">
        <ele>156</ele>
        <time>2024-12-19T19:19:52.807+00:00</time>
      </trkpt>
      <trkpt lat="48.4448" lon="1.48985">
        <ele>158</ele>
        <time>2024-12-19T19:19:57.406+00:00</time>
      </trkpt>
      <trkpt lat="48.44488" lon="1.48977">
        <ele>158</ele>
        <time>2024-12-19T19:20:14.948+00:00</time>
      </trkpt>
      <trkpt lat="48.44493" lon="1.48975">
        <ele>158</ele>
        <time>2024-12-19T19:20:18.988+00:00</time>
      </trkpt>
      <trkpt lat="48.445" lon="1.48971">
        <ele>158</ele>
        <time>2024-12-19T19:20:23.394+00:00</time>
      </trkpt>
      <trkpt lat="48.44505" lon="1.4897">
        <ele>158</ele>
        <time>2024-12-19T19:20:27.517+00:00</time>
      </trkpt>
      <trkpt lat="48.44509" lon="1.48968">
        <ele>158</ele>
        <time>2024-12-19T19:20:31.976+00:00</time>
      </trkpt>
      <trkpt lat="48.44516" lon="1.48966">
        <ele>160</ele>
        <time>2024-12-19T19:20:36.528+00:00</time>
      </trkpt>
      <trkpt lat="48.44522" lon="1.48963">
        <ele>160</ele>
        <time>2024-12-19T19:20:40.987+00:00</time>
      </trkpt>
      <trkpt lat="48.44528" lon="1.48961">
        <ele>160</ele>
        <time>2024-12-19T19:20:45.987+00:00</time>
      </trkpt>
      <trkpt lat="48.44533" lon="1.48961">
        <ele>160</ele>
        <time>2024-12-19T19:20:50.596+00:00</time>
      </trkpt>
      <trkpt lat="48.44537" lon="1.48959">
        <ele>160</ele>
        <time>2024-12-19T19:20:54.813+00:00</time>
      </trkpt>
      <trkpt lat="48.44541" lon="1.48957">
        <ele>160</ele>
        <time>2024-12-19T19:20:59.308+00:00</time>
      </trkpt>
      <trkpt lat="48.44546" lon="1.48954">
        <ele>162</ele>
        <time>2024-12-19T19:21:03.392+00:00</time>
      </trkpt>
      <trkpt lat="48.44551" lon="1.48955">
        <ele>162</ele>
        <time>2024-12-19T19:21:07.495+00:00</time>
      </trkpt>
      <trkpt lat="48.44553" lon="1.48953">
        <ele>162</ele>
        <time>2024-12-19T19:21:11.987+00:00</time>
      </trkpt>
      <trkpt lat="48.44555" lon="1.4895">
        <ele>162</ele>
        <time>2024-12-19T19:21:16.671+00:00</time>
      </trkpt>
      <trkpt lat="48.44561" lon="1.48946">
        <ele>162</ele>
        <time>2024-12-19T19:21:20.988+00:00</time>
      </trkpt>
      <trkpt lat="48.44568" lon="1.48951">
        <ele>162</ele>
        <time>2024-12-19T19:21:25.474+00:00</time>
      </trkpt>
      <trkpt lat="48.4457" lon="1.48958">
        <ele>161</ele>
        <time>2024-12-19T19:21:29.694+00:00</time>
      </trkpt>
      <trkpt lat="48.44573" lon="1.48966">
        <ele>159</ele>
        <time>2024-12-19T19:21:33.728+00:00</time>
      </trkpt>
      <trkpt lat="48.44574" lon="1.48973">
        <ele>159</ele>
        <time>2024-12-19T19:21:38.230+00:00</time>
      </trkpt>
      <trkpt lat="48.44575" lon="1.48979">
        <ele>159</ele>
        <time>2024-12-19T19:21:42.273+00:00</time>
      </trkpt>
      <trkpt lat="48.44576" lon="1.48986">
        <ele>159</ele>
        <time>2024-12-19T19:21:46.791+00:00</time>
      </trkpt>
      <trkpt lat="48.44577" lon="1.48996">
        <ele>156</ele>
        <time>2024-12-19T19:21:51.355+00:00</time>
      </trkpt>
      <trkpt lat="48.44577" lon="1.49006">
        <ele>156</ele>
        <time>2024-12-19T19:21:55.988+00:00</time>
      </trkpt>
      <trkpt lat="48.44576" lon="1.49013">
        <ele>156</ele>
        <time>2024-12-19T19:22:00.429+00:00</time>
      </trkpt>
      <trkpt lat="48.44576" lon="1.49021">
        <ele>152</ele>
        <time>2024-12-19T19:22:04.933+00:00</time>
      </trkpt>
      <trkpt lat="48.44575" lon="1.49028">
        <ele>152</ele>
        <time>2024-12-19T19:22:08.988+00:00</time>
      </trkpt>
      <trkpt lat="48.44576" lon="1.49033">
        <ele>152</ele>
        <time>2024-12-19T19:22:13.430+00:00</time>
      </trkpt>
      <trkpt lat="48.44582" lon="1.49036">
        <ele>152</ele>
        <time>2024-12-19T19:22:17.987+00:00</time>
      </trkpt>
      <trkpt lat="48.44586" lon="1.49039">
        <ele>152</ele>
        <time>2024-12-19T19:22:22.649+00:00</time>
      </trkpt>
      <trkpt lat="48.4459" lon="1.49039">
        <ele>152</ele>
        <time>2024-12-19T19:22:27.262+00:00</time>
      </trkpt>
      <trkpt lat="48.44595" lon="1.4904">
        <ele>152</ele>
        <time>2024-12-19T19:22:31.995+00:00</time>
      </trkpt>
      <trkpt lat="48.44599" lon="1.49039">
        <ele>147</ele>
        <time>2024-12-19T19:22:36.575+00:00</time>
      </trkpt>
      <trkpt lat="48.44603" lon="1.49041">
        <ele>147</ele>
        <time>2024-12-19T19:22:40.593+00:00</time>
      </trkpt>
      <trkpt lat="48.44608" lon="1.49043">
        <ele>140</ele>
        <time>2024-12-19T19:22:44.987+00:00</time>
      </trkpt>
      <trkpt lat="48.44614" lon="1.49045">
        <ele>140</ele>
        <time>2024-12-19T19:22:49.708+00:00</time>
      </trkpt>
      <trkpt lat="48.44619" lon="1.49047">
        <ele>140</ele>
        <time>2024-12-19T19:22:53.987+00:00</time>
      </trkpt>
      <trkpt lat="48.44624" lon="1.49049">
        <ele>140</ele>
        <time>2024-12-19T19:22:58.613+00:00</time>
      </trkpt>
      <trkpt lat="48.44628" lon="1.49049">
        <ele>138</ele>
        <time>2024-12-19T19:23:02.987+00:00</time>
      </trkpt>
      <trkpt lat="48.44632" lon="1.49048">
        <ele>138</ele>
        <time>2024-12-19T19:23:07.175+00:00</time>
      </trkpt>
      <trkpt lat="48.44636" lon="1.4905">
        <ele>138</ele>
        <time>2024-12-19T19:23:11.370+00:00</time>
      </trkpt>
      <trkpt lat="48.44641" lon="1.49049">
        <ele>138</ele>
        <time>2024-12-19T19:23:15.950+00:00</time>
      </trkpt>
      <trkpt lat="48.44647" lon="1.49052">
        <ele>138</ele>
        <time>2024-12-19T19:23:19.987+00:00</time>
      </trkpt>
      <trkpt lat="48.44653" lon="1.49052">
        <ele>138</ele>
        <time>2024-12-19T19:23:24.409+00:00</time>
      </trkpt>
      <trkpt lat="48.44657" lon="1.49053">
        <ele>137</ele>
        <time>2024-12-19T19:23:28.648+00:00</time>
      </trkpt>
      <trkpt lat="48.44667" lon="1.49056">
        <ele>137</ele>
        <time>2024-12-19T19:23:59.987+00:00</time>
      </trkpt>
      <trkpt lat="48.44668" lon="1.4905">
        <ele>137</ele>
        <time>2024-12-19T19:24:04.573+00:00</time>
      </trkpt>
      <trkpt lat="48.44677" lon="1.49049">
        <ele>137</ele>
        <time>2024-12-19T19:24:08.870+00:00</time>
      </trkpt>
      <trkpt lat="48.44686" lon="1.49048">
        <ele>139</ele>
        <time>2024-12-19T19:24:13.313+00:00</time>
      </trkpt>
      <trkpt lat="48.44693" lon="1.49052">
        <ele>139</ele>
        <time>2024-12-19T19:24:17.654+00:00</time>
      </trkpt>
      <trkpt lat="48.44694" lon="1.49053">
        <ele>139</ele>
        <time>2024-12-19T19:24:21.988+00:00</time>
      </trkpt>
      <trkpt lat="48.44696" lon="1.49057">
        <ele>139</ele>
        <time>2024-12-19T19:24:26.987+00:00</time>
      </trkpt>
      <trkpt lat="48.44699" lon="1.49064">
        <ele>139</ele>
        <time>2024-12-19T19:24:30.987+00:00</time>
      </trkpt>
      <trkpt lat="48.44702" lon="1.49085">
        <ele>135</ele>
        <time>2024-12-19T19:24:35.472+00:00</time>
      </trkpt>
      <trkpt lat="48.44702" lon="1.49093">
        <ele>135</ele>
        <time>2024-12-19T19:24:39.653+00:00</time>
      </trkpt>
      <trkpt lat="48.44702" lon="1.49101">
        <ele>132</ele>
        <time>2024-12-19T19:24:44.153+00:00</time>
      </trkpt>
      <trkpt lat="48.447" lon="1.49109">
        <ele>132</ele>
        <time>2024-12-19T19:24:48.987+00:00</time>
      </trkpt>
      <trkpt lat="48.44701" lon="1.49118">
        <ele>132</ele>
        <time>2024-12-19T19:24:53.450+00:00</time>
      </trkpt>
      <trkpt lat="48.44702" lon="1.49126">
        <ele>128</ele>
        <time>2024-12-19T19:24:57.953+00:00</time>
      </trkpt>
      <trkpt lat="48.44704" lon="1.49135">
        <ele>128</ele>
        <time>2024-12-19T19:25:02.831+00:00</time>
      </trkpt>
      <trkpt lat="48.44704" lon="1.49143">
        <ele>128</ele>
        <time>2024-12-19T19:25:07.694+00:00</time>
      </trkpt>
      <trkpt lat="48.44703" lon="1.49152">
        <ele>128</ele>
        <time>2024-12-19T19:25:11.987+00:00</time>
      </trkpt>
      <trkpt lat="48.44702" lon="1.49161">
        <ele>127</ele>
        <time>2024-12-19T19:25:15.987+00:00</time>
      </trkpt>
      <trkpt lat="48.447" lon="1.49168">
        <ele>127</ele>
        <time>2024-12-19T19:25:20.149+00:00</time>
      </trkpt>
      <trkpt lat="48.447" lon="1.49176">
        <ele>127</ele>
        <time>2024-12-19T19:25:24.953+00:00</time>
      </trkpt>
      <trkpt lat="48.44698" lon="1.4918">
        <ele>127</ele>
        <time>2024-12-19T19:25:28.987+00:00</time>
      </trkpt>
      <trkpt lat="48.44695" lon="1.49185">
        <ele>127</ele>
        <time>2024-12-19T19:25:33.189+00:00</time>
      </trkpt>
      <trkpt lat="48.44693" lon="1.49193">
        <ele>127</ele>
        <time>2024-12-19T19:25:37.334+00:00</time>
      </trkpt>
      <trkpt lat="48.44694" lon="1.49204">
        <ele>127</ele>
        <time>2024-12-19T19:25:41.913+00:00</time>
      </trkpt>
      <trkpt lat="48.44694" lon="1.49212">
        <ele>128</ele>
        <time>2024-12-19T19:25:46.407+00:00</time>
      </trkpt>
      <trkpt lat="48.44693" lon="1.49219">
        <ele>128</ele>
        <time>2024-12-19T19:25:50.893+00:00</time>
      </trkpt>
      <trkpt lat="48.44693" lon="1.49224">
        <ele>128</ele>
        <time>2024-12-19T19:25:55.489+00:00</time>
      </trkpt>
      <trkpt lat="48.44693" lon="1.49235">
        <ele>128</ele>
        <time>2024-12-19T19:25:59.988+00:00</time>
      </trkpt>
      <trkpt lat="48.44693" lon="1.49244">
        <ele>129</ele>
        <time>2024-12-19T19:26:04.733+00:00</time>
      </trkpt>
      <trkpt lat="48.44693" lon="1.49251">
        <ele>129</ele>
        <time>2024-12-19T19:26:08.987+00:00</time>
      </trkpt>
      <trkpt lat="48.44695" lon="1.49259">
        <ele>129</ele>
        <time>2024-12-19T19:26:13.415+00:00</time>
      </trkpt>
      <trkpt lat="48.44693" lon="1.49266">
        <ele>129</ele>
        <time>2024-12-19T19:26:17.987+00:00</time>
      </trkpt>
      <trkpt lat="48.44691" lon="1.49274">
        <ele>129</ele>
        <time>2024-12-19T19:26:22.736+00:00</time>
      </trkpt>
      <trkpt lat="48.44691" lon="1.49282">
        <ele>129</ele>
        <time>2024-12-19T19:26:26.769+00:00</time>
      </trkpt>
      <trkpt lat="48.4469" lon="1.49289">
        <ele>129</ele>
        <time>2024-12-19T19:26:31.288+00:00</time>
      </trkpt>
      <trkpt lat="48.4469" lon="1.49294">
        <ele>129</ele>
        <time>2024-12-19T19:26:35.519+00:00</time>
      </trkpt>
      <trkpt lat="48.44689" lon="1.49304">
        <ele>129</ele>
        <time>2024-12-19T19:26:40.019+00:00</time>
      </trkpt>
      <trkpt lat="48.44689" lon="1.49313">
        <ele>129</ele>
        <time>2024-12-19T19:26:44.609+00:00</time>
      </trkpt>
      <trkpt lat="48.44689" lon="1.49323">
        <ele>128</ele>
        <time>2024-12-19T19:26:48.987+00:00</time>
      </trkpt>
      <trkpt lat="48.44688" lon="1.49331">
        <ele>128</ele>
        <time>2024-12-19T19:26:53.495+00:00</time>
      </trkpt>
      <trkpt lat="48.44689" lon="1.4934">
        <ele>128</ele>
        <time>2024-12-19T19:26:57.987+00:00</time>
      </trkpt>
      <trkpt lat="48.44688" lon="1.49347">
        <ele>128</ele>
        <time>2024-12-19T19:27:02.594+00:00</time>
      </trkpt>
      <trkpt lat="48.44689" lon="1.49354">
        <ele>128</ele>
        <time>2024-12-19T19:27:06.612+00:00</time>
      </trkpt>
      <trkpt lat="48.44689" lon="1.49363">
        <ele>128</ele>
        <time>2024-12-19T19:27:10.657+00:00</time>
      </trkpt>
      <trkpt lat="48.44689" lon="1.49371">
        <ele>128</ele>
        <time>2024-12-19T19:27:14.987+00:00</time>
      </trkpt>
      <trkpt lat="48.44691" lon="1.4938">
        <ele>129</ele>
        <time>2024-12-19T19:27:46.448+00:00</time>
      </trkpt>
      <trkpt lat="48.44691" lon="1.49386">
        <ele>129</ele>
        <time>2024-12-19T19:27:50.987+00:00</time>
      </trkpt>
      <trkpt lat="48.4469" lon="1.49399">
        <ele>129</ele>
        <time>2024-12-19T19:27:55.828+00:00</time>
      </trkpt>
      <trkpt lat="48.44692" lon="1.49402">
        <ele>129</ele>
        <time>2024-12-19T19:28:00.272+00:00</time>
      </trkpt>
      <trkpt lat="48.44695" lon="1.49403">
        <ele>130</ele>
        <time>2024-12-19T19:28:04.689+00:00</time>
      </trkpt>
      <trkpt lat="48.44698" lon="1.49404">
        <ele>130</ele>
        <time>2024-12-19T19:28:08.774+00:00</time>
      </trkpt>
      <trkpt lat="48.44697" lon="1.49414">
        <ele>130</ele>
        <time>2024-12-19T19:28:12.987+00:00</time>
      </trkpt>
      <trkpt lat="48.44699" lon="1.4942">
        <ele>130</ele>
        <time>2024-12-19T19:28:17.489+00:00</time>
      </trkpt>
      <trkpt lat="48.44699" lon="1.49429">
        <ele>130</ele>
        <time>2024-12-19T19:28:21.987+00:00</time>
      </trkpt>
      <trkpt lat="48.44697" lon="1.49435">
        <ele>130</ele>
        <time>2024-12-19T19:28:26.376+00:00</time>
      </trkpt>
      <trkpt lat="48.447" lon="1.4944">
        <ele>130</ele>
        <time>2024-12-19T19:28:30.673+00:00</time>
      </trkpt>
      <trkpt lat="48.447" lon="1.49449">
        <ele>130</ele>
        <time>2024-12-19T19:28:34.987+00:00</time>
      </trkpt>
      <trkpt lat="48.44699" lon="1.49458">
        <ele>130</ele>
        <time>2024-12-19T19:28:38.987+00:00</time>
      </trkpt>
      <trkpt lat="48.447" lon="1.49466">
        <ele>129</ele>
        <time>2024-12-19T19:28:43.508+00:00</time>
      </trkpt>
      <trkpt lat="48.44701" lon="1.49474">
        <ele>129</ele>
        <time>2024-12-19T19:28:47.933+00:00</time>
      </trkpt>
      <trkpt lat="48.44699" lon="1.49483">
        <ele>129</ele>
        <time>2024-12-19T19:28:51.993+00:00</time>
      </trkpt>
      <trkpt lat="48.447" lon="1.4949">
        <ele>128</ele>
        <time>2024-12-19T19:28:56.496+00:00</time>
      </trkpt>
      <trkpt lat="48.447" lon="1.49497">
        <ele>128</ele>
        <time>2024-12-19T19:29:00.987+00:00</time>
      </trkpt>
      <trkpt lat="48.44702" lon="1.49507">
        <ele>128</ele>
        <time>2024-12-19T19:29:05.688+00:00</time>
      </trkpt>
      <trkpt lat="48.44709" lon="1.49513">
        <ele>127</ele>
        <time>2024-12-19T19:29:10.593+00:00</time>
      </trkpt>
      <trkpt lat="48.44713" lon="1.49515">
        <ele>127</ele>
        <time>2024-12-19T19:29:14.993+00:00</time>
      </trkpt>
      <trkpt lat="48.44719" lon="1.49515">
        <ele>127</ele>
        <time>2024-12-19T19:29:18.987+00:00</time>
      </trkpt>
      <trkpt lat="48.44725" lon="1.49513">
        <ele>127</ele>
        <time>2024-12-19T19:29:23.648+00:00</time>
      </trkpt>
      <trkpt lat="48.4473" lon="1.4951">
        <ele>127</ele>
        <time>2024-12-19T19:29:27.987+00:00</time>
      </trkpt>
      <trkpt lat="48.44734" lon="1.49511">
        <ele>127</ele>
        <time>2024-12-19T19:29:32.893+00:00</time>
      </trkpt>
      <trkpt lat="48.44737" lon="1.49509">
        <ele>127</ele>
        <time>2024-12-19T19:29:55.931+00:00</time>
      </trkpt>
      <trkpt lat="48.44736" lon="1.49509">
        <ele>127</ele>
        <time>2024-12-19T19:29:59.987+00:00</time>
      </trkpt>
      <trkpt lat="48.44729" lon="1.49512">
        <ele>127</ele>
        <time>2024-12-19T19:30:04.474+00:00</time>
      </trkpt>
      <trkpt lat="48.44721" lon="1.49511">
        <ele>127</ele>
        <time>2024-12-19T19:30:08.594+00:00</time>
      </trkpt>
      <trkpt lat="48.44714" lon="1.49511">
        <ele>127</ele>
        <time>2024-12-19T19:30:12.835+00:00</time>
      </trkpt>
      <trkpt lat="48.44708" lon="1.49513">
        <ele>128</ele>
        <time>2024-12-19T19:30:17.215+00:00</time>
      </trkpt>
      <trkpt lat="48.44704" lon="1.49518">
        <ele>127</ele>
        <time>2024-12-19T19:30:21.590+00:00</time>
      </trkpt>
      <trkpt lat="48.44701" lon="1.49526">
        <ele>127</ele>
        <time>2024-12-19T19:30:25.872+00:00</time>
      </trkpt>
      <trkpt lat="48.44701" lon="1.49535">
        <ele>127</ele>
        <time>2024-12-19T19:30:30.167+00:00</time>
      </trkpt>
      <trkpt lat="48.44701" lon="1.49544">
        <ele>127</ele>
        <time>2024-12-19T19:30:34.449+00:00</time>
      </trkpt>
      <trkpt lat="48.44701" lon="1.49555">
        <ele>127</ele>
        <time>2024-12-19T19:30:38.815+00:00</time>
      </trkpt>
      <trkpt lat="48.44702" lon="1.49566">
        <ele>127</ele>
        <time>2024-12-19T19:30:43.233+00:00</time>
      </trkpt>
      <trkpt lat="48.44703" lon="1.49574">
        <ele>128</ele>
        <time>2024-12-19T19:30:47.573+00:00</time>
      </trkpt>
      <trkpt lat="48.44703" lon="1.49583">
        <ele>128</ele>
        <time>2024-12-19T19:30:51.813+00:00</time>
      </trkpt>
      <trkpt lat="48.44704" lon="1.49592">
        <ele>128</ele>
        <time>2024-12-19T19:30:56.153+00:00</time>
      </trkpt>
      <trkpt lat="48.44705" lon="1.49598">
        <ele>129</ele>
        <time>2024-12-19T19:31:00.509+00:00</time>
      </trkpt>
      <trkpt lat="48.44708" lon="1.49604">
        <ele>129</ele>
        <time>2024-12-19T19:31:04.936+00:00</time>
      </trkpt>
      <trkpt lat="48.4471" lon="1.4961">
        <ele>129</ele>
        <time>2024-12-19T19:31:08.995+00:00</time>
      </trkpt>
      <trkpt lat="48.4471" lon="1.49614">
        <ele>129</ele>
        <time>2024-12-19T19:31:13.987+00:00</time>
      </trkpt>
      <trkpt lat="48.44713" lon="1.49616">
        <ele>129</ele>
        <time>2024-12-19T19:31:18.410+00:00</time>
      </trkpt>
      <trkpt lat="48.44715" lon="1.49622">
        <ele>129</ele>
        <time>2024-12-19T19:31:22.987+00:00</time>
      </trkpt>
      <trkpt lat="48.44722" lon="1.49623">
        <ele>129</ele>
        <time>2024-12-19T19:31:27.593+00:00</time>
      </trkpt>
      <trkpt lat="48.44726" lon="1.49625">
        <ele>129</ele>
        <time>2024-12-19T19:31:31.653+00:00</time>
      </trkpt>
      <trkpt lat="48.44732" lon="1.49633">
        <ele>129</ele>
        <time>2024-12-19T19:31:35.988+00:00</time>
      </trkpt>
      <trkpt lat="48.44737" lon="1.49633">
        <ele>129</ele>
        <time>2024-12-19T19:31:40.750+00:00</time>
      </trkpt>
      <trkpt lat="48.44742" lon="1.49638">
        <ele>129</ele>
        <time>2024-12-19T19:31:44.850+00:00</time>
      </trkpt>
      <trkpt lat="48.44747" lon="1.49639">
        <ele>129</ele>
        <time>2024-12-19T19:31:49.395+00:00</time>
      </trkpt>
      <trkpt lat="48.44749" lon="1.49647">
        <ele>129</ele>
        <time>2024-12-19T19:31:53.989+00:00</time>
      </trkpt>
      <trkpt lat="48.44756" lon="1.49655">
        <ele>129</ele>
        <time>2024-12-19T19:31:58.468+00:00</time>
      </trkpt>
      <trkpt lat="48.44759" lon="1.49662">
        <ele>129</ele>
        <time>2024-12-19T19:32:02.988+00:00</time>
      </trkpt>
      <trkpt lat="48.44759" lon="1.49669">
        <ele>129</ele>
        <time>2024-12-19T19:32:07.270+00:00</time>
      </trkpt>
      <trkpt lat="48.44761" lon="1.49676">
        <ele>129</ele>
        <time>2024-12-19T19:32:11.431+00:00</time>
      </trkpt>
      <trkpt lat="48.44763" lon="1.49682">
        <ele>130</ele>
        <time>2024-12-19T19:32:15.566+00:00</time>
      </trkpt>
      <trkpt lat="48.44766" lon="1.49689">
        <ele>132</ele>
        <time>2024-12-19T19:32:19.989+00:00</time>
      </trkpt>
      <trkpt lat="48.44767" lon="1.49696">
        <ele>132</ele>
        <time>2024-12-19T19:32:24.614+00:00</time>
      </trkpt>
      <trkpt lat="48.4477" lon="1.49701">
        <ele>132</ele>
        <time>2024-12-19T19:32:29.007+00:00</time>
      </trkpt>
      <trkpt lat="48.44772" lon="1.4971">
        <ele>133</ele>
        <time>2024-12-19T19:32:33.423+00:00</time>
      </trkpt>
      <trkpt lat="48.44775" lon="1.49718">
        <ele>133</ele>
        <time>2024-12-19T19:32:37.944+00:00</time>
      </trkpt>
      <trkpt lat="48.44777" lon="1.49725">
        <ele>133</ele>
        <time>2024-12-19T19:32:42.445+00:00</time>
      </trkpt>
      <trkpt lat="48.44779" lon="1.49734">
        <ele>133</ele>
        <time>2024-12-19T19:32:46.953+00:00</time>
      </trkpt>
      <trkpt lat="48.44781" lon="1.49741">
        <ele>133</ele>
        <time>2024-12-19T19:32:51.382+00:00</time>
      </trkpt>
      <trkpt lat="48.44783" lon="1.49749">
        <ele>133</ele>
        <time>2024-12-19T19:32:55.807+00:00</time>
      </trkpt>
      <trkpt lat="48.44785" lon="1.49756">
        <ele>133</ele>
        <time>2024-12-19T19:33:00.242+00:00</time>
      </trkpt>
      <trkpt lat="48.44788" lon="1.49763">
        <ele>133</ele>
        <time>2024-12-19T19:33:04.702+00:00</time>
      </trkpt>
      <trkpt lat="48.44791" lon="1.49771">
        <ele>134</ele>
        <time>2024-12-19T19:33:08.989+00:00</time>
      </trkpt>
      <trkpt lat="48.44793" lon="1.4978">
        <ele>134</ele>
        <time>2024-12-19T19:33:13.468+00:00</time>
      </trkpt>
      <trkpt lat="48.44797" lon="1.49784">
        <ele>134</ele>
        <time>2024-12-19T19:33:17.484+00:00</time>
      </trkpt>
      <trkpt lat="48.448" lon="1.49795">
        <ele>136</ele>
        <time>2024-12-19T19:33:21.825+00:00</time>
      </trkpt>
      <trkpt lat="48.44802" lon="1.49802">
        <ele>136</ele>
        <time>2024-12-19T19:33:26.302+00:00</time>
      </trkpt>
      <trkpt lat="48.44804" lon="1.49809">
        <ele>136</ele>
        <time>2024-12-19T19:33:30.747+00:00</time>
      </trkpt>
      <trkpt lat="48.44807" lon="1.49816">
        <ele>136</ele>
        <time>2024-12-19T19:33:35.204+00:00</time>
      </trkpt>
      <trkpt lat="48.44809" lon="1.49823">
        <ele>138</ele>
        <time>2024-12-19T19:33:39.649+00:00</time>
      </trkpt>
      <trkpt lat="48.44811" lon="1.4983">
        <ele>138</ele>
        <time>2024-12-19T19:33:44.167+00:00</time>
      </trkpt>
      <trkpt lat="48.44815" lon="1.49833">
        <ele>138</ele>
        <time>2024-12-19T19:33:48.466+00:00</time>
      </trkpt>
      <trkpt lat="48.44818" lon="1.49842">
        <ele>138</ele>
        <time>2024-12-19T19:33:52.908+00:00</time>
      </trkpt>
      <trkpt lat="48.4482" lon="1.4985">
        <ele>141</ele>
        <time>2024-12-19T19:33:56.984+00:00</time>
      </trkpt>
      <trkpt lat="48.44822" lon="1.49854">
        <ele>141</ele>
        <time>2024-12-19T19:34:01.265+00:00</time>
      </trkpt>
      <trkpt lat="48.44824" lon="1.49858">
        <ele>141</ele>
        <time>2024-12-19T19:34:05.606+00:00</time>
      </trkpt>
      <trkpt lat="48.44825" lon="1.4986">
        <ele>141</ele>
        <time>2024-12-19T19:34:09.988+00:00</time>
      </trkpt>
      <trkpt lat="48.4483" lon="1.49863">
        <ele>141</ele>
        <time>2024-12-19T19:34:14.628+00:00</time>
      </trkpt>
      <trkpt lat="48.44834" lon="1.49861">
        <ele>141</ele>
        <time>2024-12-19T19:34:18.988+00:00</time>
      </trkpt>
      <trkpt lat="48.44838" lon="1.49855">
        <ele>141</ele>
        <time>2024-12-19T19:34:23.104+00:00</time>
      </trkpt>
      <trkpt lat="48.44843" lon="1.49854">
        <ele>141</ele>
        <time>2024-12-19T19:34:27.667+00:00</time>
      </trkpt>
      <trkpt lat="48.44849" lon="1.49852">
        <ele>141</ele>
        <time>2024-12-19T19:34:32.203+00:00</time>
      </trkpt>
      <trkpt lat="48.44856" lon="1.49851">
        <ele>141</ele>
        <time>2024-12-19T19:34:36.649+00:00</time>
      </trkpt>
      <trkpt lat="48.44861" lon="1.49849">
        <ele>141</ele>
        <time>2024-12-19T19:34:40.988+00:00</time>
      </trkpt>
      <trkpt lat="48.44866" lon="1.49847">
        <ele>141</ele>
        <time>2024-12-19T19:34:45.567+00:00</time>
      </trkpt>
      <trkpt lat="48.44871" lon="1.49846">
        <ele>140</ele>
        <time>2024-12-19T19:34:49.989+00:00</time>
      </trkpt>
      <trkpt lat="48.44876" lon="1.49844">
        <ele>142</ele>
        <time>2024-12-19T19:34:54.503+00:00</time>
      </trkpt>
      <trkpt lat="48.44881" lon="1.49843">
        <ele>142</ele>
        <time>2024-12-19T19:34:58.962+00:00</time>
      </trkpt>
      <trkpt lat="48.44887" lon="1.49843">
        <ele>142</ele>
        <time>2024-12-19T19:35:02.988+00:00</time>
      </trkpt>
      <trkpt lat="48.44893" lon="1.49841">
        <ele>142</ele>
        <time>2024-12-19T19:35:07.764+00:00</time>
      </trkpt>
      <trkpt lat="48.44898" lon="1.4984">
        <ele>142</ele>
        <time>2024-12-19T19:35:12.378+00:00</time>
      </trkpt>
      <trkpt lat="48.44904" lon="1.49839">
        <ele>144</ele>
        <time>2024-12-19T19:35:16.921+00:00</time>
      </trkpt>
      <trkpt lat="48.44909" lon="1.49838">
        <ele>144</ele>
        <time>2024-12-19T19:35:21.340+00:00</time>
      </trkpt>
      <trkpt lat="48.44915" lon="1.49836">
        <ele>144</ele>
        <time>2024-12-19T19:35:25.620+00:00</time>
      </trkpt>
      <trkpt lat="48.44921" lon="1.49835">
        <ele>144</ele>
        <time>2024-12-19T19:35:29.988+00:00</time>
      </trkpt>
      <trkpt lat="48.44935" lon="1.49823">
        <ele>145</ele>
        <time>2024-12-19T19:35:58.256+00:00</time>
      </trkpt>
      <trkpt lat="48.44939" lon="1.49817">
        <ele>143</ele>
        <time>2024-12-19T19:36:02.981+00:00</time>
      </trkpt>
      <trkpt lat="48.44947" lon="1.49819">
        <ele>143</ele>
        <time>2024-12-19T19:36:07.142+00:00</time>
      </trkpt>
      <trkpt lat="48.44952" lon="1.49826">
        <ele>145</ele>
        <time>2024-12-19T19:36:11.989+00:00</time>
      </trkpt>
      <trkpt lat="48.44952" lon="1.49828">
        <ele>145</ele>
        <time>2024-12-19T19:36:16.988+00:00</time>
      </trkpt>
      <trkpt lat="48.44951" lon="1.49829">
        <ele>145</ele>
        <time>2024-12-19T19:36:44.988+00:00</time>
      </trkpt>
      <trkpt lat="48.44952" lon="1.49824">
        <ele>145</ele>
        <time>2024-12-19T19:36:49.479+00:00</time>
      </trkpt>
      <trkpt lat="48.44953" lon="1.49824">
        <ele>145</ele>
        <time>2024-12-19T19:36:53.989+00:00</time>
      </trkpt>
      <trkpt lat="48.44956" lon="1.49817">
        <ele>143</ele>
        <time>2024-12-19T19:36:58.214+00:00</time>
      </trkpt>
      <trkpt lat="48.44958" lon="1.49808">
        <ele>143</ele>
        <time>2024-12-19T19:37:02.694+00:00</time>
      </trkpt>
      <trkpt lat="48.4496" lon="1.498">
        <ele>145</ele>
        <time>2024-12-19T19:37:06.988+00:00</time>
      </trkpt>
      <trkpt lat="48.44962" lon="1.49793">
        <ele>145</ele>
        <time>2024-12-19T19:37:11.254+00:00</time>
      </trkpt>
      <trkpt lat="48.44964" lon="1.49785">
        <ele>143</ele>
        <time>2024-12-19T19:37:15.798+00:00</time>
      </trkpt>
      <trkpt lat="48.44968" lon="1.49781">
        <ele>143</ele>
        <time>2024-12-19T19:37:20.873+00:00</time>
      </trkpt>
      <trkpt lat="48.44969" lon="1.49789">
        <ele>143</ele>
        <time>2024-12-19T19:38:32.988+00:00</time>
      </trkpt>
      <trkpt lat="48.44967" lon="1.49791">
        <ele>143</ele>
        <time>2024-12-19T19:38:37.988+00:00</time>
      </trkpt>
      <trkpt lat="48.44965" lon="1.49796">
        <ele>145</ele>
        <time>2024-12-19T19:38:41.989+00:00</time>
      </trkpt>
      <trkpt lat="48.44961" lon="1.49803">
        <ele>145</ele>
        <time>2024-12-19T19:38:46.153+00:00</time>
      </trkpt>
      <trkpt lat="48.44957" lon="1.4981">
        <ele>143</ele>
        <time>2024-12-19T19:38:50.893+00:00</time>
      </trkpt>
      <trkpt lat="48.44952" lon="1.49815">
        <ele>143</ele>
        <time>2024-12-19T19:38:54.988+00:00</time>
      </trkpt>
      <trkpt lat="48.4495" lon="1.49823">
        <ele>145</ele>
        <time>2024-12-19T19:38:59.513+00:00</time>
      </trkpt>
      <trkpt lat="48.4495" lon="1.49831">
        <ele>145</ele>
        <time>2024-12-19T19:39:03.659+00:00</time>
      </trkpt>
      <trkpt lat="48.44948" lon="1.49838">
        <ele>145</ele>
        <time>2024-12-19T19:39:07.695+00:00</time>
      </trkpt>
      <trkpt lat="48.44945" lon="1.49845">
        <ele>145</ele>
        <time>2024-12-19T19:39:11.812+00:00</time>
      </trkpt>
      <trkpt lat="48.44944" lon="1.49851">
        <ele>147</ele>
        <time>2024-12-19T19:39:15.989+00:00</time>
      </trkpt>
      <trkpt lat="48.44941" lon="1.49858">
        <ele>147</ele>
        <time>2024-12-19T19:39:20.280+00:00</time>
      </trkpt>
      <trkpt lat="48.44939" lon="1.49865">
        <ele>147</ele>
        <time>2024-12-19T19:39:24.654+00:00</time>
      </trkpt>
      <trkpt lat="48.44941" lon="1.49869">
        <ele>147</ele>
        <time>2024-12-19T19:39:28.988+00:00</time>
      </trkpt>
      <trkpt lat="48.4494" lon="1.49874">
        <ele>147</ele>
        <time>2024-12-19T19:39:33.454+00:00</time>
      </trkpt>
      <trkpt lat="48.44933" lon="1.4988">
        <ele>148</ele>
        <time>2024-12-19T19:39:37.988+00:00</time>
      </trkpt>
      <trkpt lat="48.4493" lon="1.49889">
        <ele>148</ele>
        <time>2024-12-19T19:39:42.733+00:00</time>
      </trkpt>
      <trkpt lat="48.44928" lon="1.49896">
        <ele>148</ele>
        <time>2024-12-19T19:39:46.988+00:00</time>
      </trkpt>
      <trkpt lat="48.44925" lon="1.49903">
        <ele>148</ele>
        <time>2024-12-19T19:39:51.635+00:00</time>
      </trkpt>
      <trkpt lat="48.44922" lon="1.4991">
        <ele>148</ele>
        <time>2024-12-19T19:39:55.988+00:00</time>
      </trkpt>
      <trkpt lat="48.4492" lon="1.49916">
        <ele>148</ele>
        <time>2024-12-19T19:40:00.496+00:00</time>
      </trkpt>
      <trkpt lat="48.44918" lon="1.49923">
        <ele>148</ele>
        <time>2024-12-19T19:40:04.878+00:00</time>
      </trkpt>
      <trkpt lat="48.44916" lon="1.4993">
        <ele>148</ele>
        <time>2024-12-19T19:40:09.177+00:00</time>
      </trkpt>
      <trkpt lat="48.44913" lon="1.49938">
        <ele>148</ele>
        <time>2024-12-19T19:40:13.755+00:00</time>
      </trkpt>
      <trkpt lat="48.44911" lon="1.49945">
        <ele>148</ele>
        <time>2024-12-19T19:40:17.988+00:00</time>
      </trkpt>
      <trkpt lat="48.44909" lon="1.49953">
        <ele>148</ele>
        <time>2024-12-19T19:40:22.989+00:00</time>
      </trkpt>
      <trkpt lat="48.44906" lon="1.49961">
        <ele>148</ele>
        <time>2024-12-19T19:40:27.834+00:00</time>
      </trkpt>
      <trkpt lat="48.44903" lon="1.49966">
        <ele>148</ele>
        <time>2024-12-19T19:40:31.988+00:00</time>
      </trkpt>
      <trkpt lat="48.44902" lon="1.49975">
        <ele>148</ele>
        <time>2024-12-19T19:40:36.695+00:00</time>
      </trkpt>
      <trkpt lat="48.449" lon="1.49982">
        <ele>148</ele>
        <time>2024-12-19T19:40:40.988+00:00</time>
      </trkpt>
      <trkpt lat="48.44896" lon="1.4999">
        <ele>148</ele>
        <time>2024-12-19T19:40:45.988+00:00</time>
      </trkpt>
      <trkpt lat="48.44893" lon="1.49998">
        <ele>148</ele>
        <time>2024-12-19T19:40:50.953+00:00</time>
      </trkpt>
      <trkpt lat="48.4489" lon="1.50006">
        <ele>148</ele>
        <time>2024-12-19T19:40:54.988+00:00</time>
      </trkpt>
      <trkpt lat="48.44888" lon="1.50014">
        <ele>148</ele>
        <time>2024-12-19T19:40:59.455+00:00</time>
      </trkpt>
      <trkpt lat="48.44886" lon="1.50021">
        <ele>148</ele>
        <time>2024-12-19T19:41:03.403+00:00</time>
      </trkpt>
      <trkpt lat="48.44884" lon="1.50027">
        <ele>148</ele>
        <time>2024-12-19T19:41:07.791+00:00</time>
      </trkpt>
      <trkpt lat="48.4488" lon="1.50034">
        <ele>148</ele>
        <time>2024-12-19T19:41:12.298+00:00</time>
      </trkpt>
      <trkpt lat="48.44878" lon="1.50042">
        <ele>150</ele>
        <time>2024-12-19T19:41:16.988+00:00</time>
      </trkpt>
      <trkpt lat="48.44875" lon="1.50049">
        <ele>147</ele>
        <time>2024-12-19T19:41:21.737+00:00</time>
      </trkpt>
      <trkpt lat="48.44873" lon="1.50055">
        <ele>147</ele>
        <time>2024-12-19T19:41:26.015+00:00</time>
      </trkpt>
      <trkpt lat="48.4487" lon="1.50061">
        <ele>147</ele>
        <time>2024-12-19T19:41:30.607+00:00</time>
      </trkpt>
    </trkseg>
  </trk>
</gpx>